Provisional Data: Bowman Creek near Noxen, PA


Please select a monitoring station.
Please select start date.
Please select start date.

Toggle Unit: C/F Toggle Unit: C/F
Sample Time Temperature (C) Temperature (F) Specific Conductivity (mS/cm) pH   Turbidity (NTU+) DO (mg/L)
10/22/2021 12:00:00 AM 13.21 55.778 0.042 6.63 1.43 9.62
10/22/2021 12:15:00 AM 13.19 55.742 0.042 6.62 1.35 9.62
10/22/2021 12:30:00 AM 13.17 55.706 0.042 6.62 1.42 9.64
10/22/2021 12:45:00 AM 13.16 55.688 0.042 6.63 1.36 9.63
10/22/2021 1:00:00 AM 13.14 55.652 0.042 6.63 1.4 9.64
10/22/2021 1:15:00 AM 13.13 55.634 0.042 6.63 1.43 9.64
10/22/2021 1:30:00 AM 13.11 55.598 0.042 6.63 1.43 9.65
10/22/2021 1:45:00 AM 13.09 55.562 0.042 6.62 1.36 9.65
10/22/2021 2:00:00 AM 13.07 55.526 0.042 6.61 1.39 9.65
10/22/2021 2:15:00 AM 13.03 55.454 0.042 6.61 1.38 9.66
10/22/2021 2:30:00 AM 13.01 55.418 0.042 6.63 1.43 9.67
10/22/2021 2:45:00 AM 12.97 55.346 0.042 6.61 1.42 9.67
10/22/2021 3:00:00 AM 12.93 55.274 0.042 6.61 1.38 9.69
10/22/2021 3:15:00 AM 12.89 55.202 0.042 6.61 1.44 9.7
10/22/2021 3:30:00 AM 12.86 55.148 0.042 6.62 1.39 9.7
10/22/2021 3:45:00 AM 12.82 55.076 0.042 6.61 1.37 9.71
10/22/2021 4:00:00 AM 12.79 55.022 0.042 6.61 1.4 9.73
10/22/2021 4:15:00 AM 12.75 54.95 0.042 6.61 1.4 9.74
10/22/2021 4:30:00 AM 12.7 54.86 0.042 6.61 1.43 9.75
10/22/2021 4:45:00 AM 12.66 54.788 0.042 6.6 1.43 9.76
10/22/2021 5:00:00 AM 12.62 54.716 0.042 6.61 1.44 9.76
10/22/2021 5:15:00 AM 12.57 54.626 0.042 6.6 1.42 9.77
10/22/2021 5:30:00 AM 12.54 54.572 0.042 6.63 1.44 9.79
10/22/2021 5:45:00 AM 12.5 54.5 0.042 6.61 1.44 9.8
10/22/2021 6:00:00 AM 12.46 54.428 0.042 6.61 1.38 9.81
10/22/2021 6:15:00 AM 12.43 54.374 0.042 6.62 1.4 9.82
10/22/2021 6:30:00 AM 12.38 54.284 0.042 6.62 1.39 9.84
10/22/2021 6:45:00 AM 12.35 54.23 0.042 6.63 1.46 9.85
10/22/2021 7:00:00 AM 12.31 54.158 0.042 6.63 1.42 9.85
10/22/2021 7:15:00 AM 12.26 54.068 0.042 6.62 1.43 9.87
10/22/2021 7:30:00 AM 12.23 54.014 0.042 6.62 1.4 9.89
10/22/2021 7:45:00 AM 12.2 53.96 0.042 6.63 1.42 9.93
10/22/2021 8:00:00 AM 12.19 53.942 0.042 6.65 1.41 9.98
10/22/2021 8:15:00 AM 12.18 53.924 0.042 6.66 1.34 10.03
10/22/2021 8:30:00 AM 12.18 53.924 0.042 6.7 1.34 10.13
10/22/2021 8:45:00 AM 12.18 53.924 0.042 6.71 1.42 10.22
10/22/2021 9:00:00 AM 12.19 53.942 0.042 6.72 1.39 10.31
10/22/2021 9:15:00 AM 12.21 53.978 0.042 6.75 1.32 10.39
10/22/2021 9:30:00 AM 12.25 54.05 0.042 6.8 1.37 10.47
10/22/2021 9:45:00 AM 12.29 54.122 0.041 6.81 1.29 10.52
10/22/2021 10:00:00 AM 12.34 54.212 0.041 6.82 1.33 10.53
10/22/2021 10:15:00 AM 12.4 54.32 0.041 6.84 1.31 10.6
10/22/2021 10:30:00 AM 12.45 54.41 0.041 6.89 1.35 10.63
10/22/2021 10:45:00 AM 12.51 54.518 0.041 6.88 1.35 10.63
10/22/2021 11:00:00 AM 12.56 54.608 0.041 6.88 1.34 10.6
10/22/2021 11:15:00 AM 12.6 54.68 0.041 6.89 1.39 10.54
10/22/2021 11:30:00 AM 12.62 54.716 0.041 6.86 1.33 10.5
10/22/2021 11:45:00 AM 12.67 54.806 0.041 6.88 1.31 10.55
10/22/2021 12:00:00 PM 12.7 54.86 0.041 6.89 1.36 10.56
10/22/2021 12:15:00 PM 12.73 54.914 0.041 6.89 1.34 10.56
10/22/2021 12:30:00 PM 12.77 54.986 0.041 6.9 1.36 10.56
10/22/2021 12:45:00 PM 12.8 55.04 0.041 6.92 1.33 10.58
10/22/2021 1:00:00 PM 12.85 55.13 0.041 6.92 1.34 10.61
10/22/2021 1:15:00 PM 12.89 55.202 0.041 6.94 1.32 10.62
10/22/2021 1:30:00 PM 12.92 55.256 0.041 6.94 1.32 10.6
10/22/2021 1:45:00 PM 12.93 55.274 0.041 6.91 1.3 10.52
10/22/2021 2:00:00 PM 12.93 55.274 0.041 6.87 1.4 10.41
10/22/2021 2:15:00 PM 12.92 55.256 0.041 6.85 1.3 10.38
10/22/2021 2:30:00 PM 12.92 55.256 0.041 6.84 1.28 10.36
10/22/2021 2:45:00 PM 12.93 55.274 0.041 6.84 1.34 10.36
10/22/2021 3:00:00 PM 12.94 55.292 0.041 6.85 1.33 10.34
10/22/2021 3:15:00 PM 12.93 55.274 0.041 6.82 1.32 10.31
10/22/2021 3:30:00 PM 12.92 55.256 0.041 6.82 1.33 10.3
10/22/2021 3:45:00 PM 12.94 55.292 0.041 6.83 1.31 10.36
10/22/2021 4:00:00 PM 12.94 55.292 0.041 6.84 1.31 10.38
10/22/2021 4:15:00 PM 12.95 55.31 0.041 6.84 1.37 10.34
10/22/2021 4:30:00 PM 12.95 55.31 0.041 6.82 1.36 10.28
10/22/2021 4:45:00 PM 12.95 55.31 0.041 6.81 1.35 10.27
10/22/2021 5:00:00 PM 12.95 55.31 0.041 6.81 1.33 10.24
10/22/2021 5:15:00 PM 12.95 55.31 0.041 6.81 1.31 10.2
10/22/2021 5:30:00 PM 12.95 55.31 0.041 6.79 1.32 10.16
10/22/2021 5:45:00 PM 12.94 55.292 0.041 6.76 1.36 10.07
10/22/2021 6:00:00 PM 12.93 55.274 0.042 6.75 1.32 10
10/22/2021 6:15:00 PM 12.91 55.238 0.042 6.74 1.39 9.95
10/22/2021 6:30:00 PM 12.88 55.184 0.042 6.71 1.37 9.89
10/22/2021 6:45:00 PM 12.86 55.148 0.042 6.71 1.34 9.86
10/22/2021 7:00:00 PM 12.84 55.112 0.042 6.69 1.36 9.83
10/22/2021 7:15:00 PM 12.83 55.094 0.042 6.68 1.46 9.82
10/22/2021 7:30:00 PM 12.82 55.076 0.042 6.67 1.48 9.8
10/22/2021 7:45:00 PM 12.8 55.04 0.042 6.67 1.36 9.79
10/22/2021 8:00:00 PM 12.78 55.004 0.042 6.67 1.41 9.8
10/22/2021 8:15:00 PM 12.77 54.986 0.043 6.67 1.35 9.8
10/22/2021 8:30:00 PM 12.75 54.95 0.043 6.66 1.37 9.8
10/22/2021 8:45:00 PM 12.73 54.914 0.043 6.68 1.39 9.81
10/22/2021 9:00:00 PM 12.71 54.878 0.043 6.66 1.43 9.8
10/22/2021 9:15:00 PM 12.7 54.86 0.043 6.66 1.43 9.81
10/22/2021 9:30:00 PM 12.68 54.824 0.043 6.66 1.44 9.82
10/22/2021 9:45:00 PM 12.64 54.752 0.043 6.68 1.37 9.82
10/22/2021 10:00:00 PM 12.6 54.68 0.043 6.65 1.36 9.83
10/22/2021 10:15:00 PM 12.55 54.59 0.043 6.65 1.4 9.83
10/22/2021 10:30:00 PM 12.5 54.5 0.043 6.65 1.36 9.85
10/22/2021 10:45:00 PM 12.44 54.392 0.043 6.65 1.39 9.87
10/22/2021 11:00:00 PM 12.39 54.302 0.043 6.64 1.4 9.87
10/22/2021 11:15:00 PM 12.33 54.194 0.043 6.66 1.42 9.88
10/22/2021 11:30:00 PM 12.27 54.086 0.043 6.66 1.34 9.89
10/22/2021 11:45:00 PM 12.2 53.96 0.043 6.64 1.49 9.91
10/23/2021 12:00:00 AM 12.14 53.852 0.043 6.63 1.33 9.92
10/23/2021 12:15:00 AM 12.07 53.726 0.043 6.64 1.34 9.94
10/23/2021 12:30:00 AM 12 53.6 0.043 6.63 1.38 9.96
10/23/2021 12:45:00 AM 11.95 53.51 0.043 6.63 1.38 9.96
10/23/2021 1:00:00 AM 11.9 53.42 0.043 6.64 1.43 9.98
10/23/2021 1:15:00 AM 11.86 53.348 0.043 6.66 1.4 10
10/23/2021 1:30:00 AM 11.83 53.294 0.043 6.65 1.35 10.01
10/23/2021 1:45:00 AM 11.8 53.24 0.043 6.65 1.4 10
10/23/2021 2:00:00 AM 11.77 53.186 0.043 6.67 1.4 10.03
10/23/2021 2:15:00 AM 11.74 53.132 0.043 6.66 1.41 10.03
10/23/2021 2:30:00 AM 11.7 53.06 0.043 6.67 1.43 10.04
10/23/2021 2:45:00 AM 11.68 53.024 0.043 6.66 1.38 10.05
10/23/2021 3:00:00 AM 11.65 52.97 0.043 6.66 1.37 10.06
10/23/2021 3:15:00 AM 11.63 52.934 0.043 6.66 1.45 10.06
10/23/2021 3:30:00 AM 11.6 52.88 0.043 6.68 1.41 10.07
10/23/2021 3:45:00 AM 11.57 52.826 0.043 6.68 1.43 10.08
10/23/2021 4:00:00 AM 11.54 52.772 0.043 6.67 1.46 10.08
10/23/2021 4:15:00 AM 11.51 52.718 0.043 6.67 1.39 10.09
10/23/2021 4:30:00 AM 11.48 52.664 0.043 6.66 1.4 10.1
10/23/2021 4:45:00 AM 11.45 52.61 0.043 6.66 1.36 10.1
10/23/2021 5:00:00 AM 11.43 52.574 0.043 6.69 1.35 10.11
10/23/2021 5:15:00 AM 11.4 52.52 0.043 6.68 1.35 10.12
10/23/2021 5:30:00 AM 11.36 52.448 0.043 6.67 1.39 10.13
10/23/2021 5:45:00 AM 11.33 52.394 0.043 6.66 1.41 10.13
10/23/2021 6:00:00 AM 11.3 52.34 0.043 6.67 1.41 10.15
10/23/2021 6:15:00 AM 11.28 52.304 0.043 6.67 1.38 10.15
10/23/2021 6:30:00 AM 11.25 52.25 0.043 6.67 1.36 10.16
10/23/2021 6:45:00 AM 11.23 52.214 0.043 6.67 1.37 10.17
10/23/2021 7:00:00 AM 11.2 52.16 0.043 6.67 1.4 10.18
10/23/2021 7:15:00 AM 11.18 52.124 0.043 6.69 1.42 10.19
10/23/2021 7:30:00 AM 11.15 52.07 0.043 6.68 1.39 10.2
10/23/2021 7:45:00 AM 11.13 52.034 0.043 6.67 1.37 10.23
10/23/2021 8:00:00 AM 11.11 51.998 0.043 6.68 1.36 10.26
10/23/2021 8:15:00 AM 11.1 51.98 0.043 6.69 1.39 10.32
10/23/2021 8:30:00 AM 11.09 51.962 0.043 6.71 1.34 10.41
10/23/2021 8:45:00 AM 11.09 51.962 0.042 6.75 1.37 10.52
10/23/2021 9:00:00 AM 11.1 51.98 0.042 6.76 1.34 10.62
10/23/2021 9:15:00 AM 11.11 51.998 0.042 6.79 1.36 10.72
10/23/2021 9:30:00 AM 11.14 52.052 0.042 6.82 1.34 10.81
10/23/2021 9:45:00 AM 11.16 52.088 0.042 6.84 1.34 10.87
10/23/2021 10:00:00 AM 11.19 52.142 0.042 6.87 1.36 10.92
10/23/2021 10:15:00 AM 11.22 52.196 0.042 6.91 1.34 10.96
10/23/2021 10:30:00 AM 11.27 52.286 0.042 6.91 1.37 10.99
10/23/2021 10:45:00 AM 11.32 52.376 0.042 6.93 1.4 11.02
10/23/2021 11:00:00 AM 11.37 52.466 0.042 6.96 1.34 11.03
10/23/2021 11:15:00 AM 11.42 52.556 0.042 6.96 1.31 11.03
10/23/2021 11:30:00 AM 11.49 52.682 0.042 6.99 1.32 11.04
10/23/2021 11:45:00 AM 11.55 52.79 0.042 6.99 1.35 11.04
10/23/2021 12:00:00 PM 11.6 52.88 0.042 6.99 1.36 11.02
10/23/2021 12:15:00 PM 11.62 52.916 0.042 7 1.36 10.96
10/23/2021 12:30:00 PM 11.63 52.934 0.042 6.97 1.29 10.92
10/23/2021 12:45:00 PM 11.67 53.006 0.041 6.97 1.31 10.94
10/23/2021 1:00:00 PM 11.7 53.06 0.041 6.97 1.29 10.92
10/23/2021 1:15:00 PM 11.73 53.114 0.041 6.96 1.35 10.89
10/23/2021 1:30:00 PM 11.74 53.132 0.041 6.96 1.32 10.83
10/23/2021 1:45:00 PM 11.74 53.132 0.041 6.93 1.3 10.78
10/23/2021 2:00:00 PM 11.74 53.132 0.041 6.92 1.36 10.76
10/23/2021 2:15:00 PM 11.73 53.114 0.041 6.91 1.34 10.78
10/23/2021 2:30:00 PM 11.74 53.132 0.041 6.91 1.31 10.78
10/23/2021 2:45:00 PM 11.74 53.132 0.041 6.9 1.32 10.72
10/23/2021 3:00:00 PM 11.73 53.114 0.042 6.88 1.29 10.65
10/23/2021 3:15:00 PM 11.73 53.114 0.042 6.86 1.34 10.62
10/23/2021 3:30:00 PM 11.72 53.096 0.042 6.85 1.29 10.59
10/23/2021 3:45:00 PM 11.71 53.078 0.042 6.83 1.31 10.51
10/23/2021 4:00:00 PM 11.69 53.042 0.042 6.81 1.32 10.45
10/23/2021 4:15:00 PM 11.68 53.024 0.042 6.8 1.33 10.47
10/23/2021 4:30:00 PM 11.67 53.006 0.042 6.8 1.32 10.47
10/23/2021 4:45:00 PM 11.66 52.988 0.042 6.79 1.37 10.46
10/23/2021 5:00:00 PM 11.65 52.97 0.042 6.79 1.34 10.42
10/23/2021 5:15:00 PM 11.63 52.934 0.042 6.78 1.33 10.38
10/23/2021 5:30:00 PM 11.62 52.916 0.042 6.77 1.33 10.35
10/23/2021 5:45:00 PM 11.6 52.88 0.042 6.78 1.31 10.31
10/23/2021 6:00:00 PM 11.59 52.862 0.042 6.75 1.33 10.26
10/23/2021 6:15:00 PM 11.57 52.826 0.042 6.75 1.31 10.22
10/23/2021 6:30:00 PM 11.55 52.79 0.042 6.72 1.36 10.19
10/23/2021 6:45:00 PM 11.51 52.718 0.043 6.71 1.35 10.17
10/23/2021 7:00:00 PM 11.48 52.664 0.043 6.7 1.38 10.15
10/23/2021 7:15:00 PM 11.44 52.592 0.043 6.71 1.41 10.14
10/23/2021 7:30:00 PM 11.42 52.556 0.043 6.7 1.39 10.14
10/23/2021 7:45:00 PM 11.4 52.52 0.043 6.7 1.72 10.14
10/23/2021 8:00:00 PM 11.38 52.484 0.043 6.7 1.41 10.15
10/23/2021 8:15:00 PM 11.36 52.448 0.043 6.69 1.44 10.14
10/23/2021 8:30:00 PM 11.33 52.394 0.043 6.7 1.38 10.15
10/23/2021 8:45:00 PM 11.3 52.34 0.043 6.69 1.45 10.16
10/23/2021 9:00:00 PM 11.27 52.286 0.043 6.69 1.4 10.17
10/23/2021 9:15:00 PM 11.24 52.232 0.043 6.68 1.41 10.18
10/23/2021 9:30:00 PM 11.22 52.196 0.043 6.68 1.48 10.18
10/23/2021 9:45:00 PM 11.2 52.16 0.043 6.68 1.42 10.18
10/23/2021 10:00:00 PM 11.18 52.124 0.043 6.69 1.36 10.19
10/23/2021 10:15:00 PM 11.16 52.088 0.043 6.69 1.39 10.19
10/23/2021 10:30:00 PM 11.14 52.052 0.043 6.69 1.35 10.21
10/23/2021 10:45:00 PM 11.1 51.98 0.044 6.68 1.37 10.22
10/23/2021 11:00:00 PM 11.07 51.926 0.044 6.68 1.37 10.21
10/23/2021 11:15:00 PM 11.05 51.89 0.044 6.7 1.42 10.23
10/23/2021 11:30:00 PM 11.03 51.854 0.044 6.69 1.36 10.24
10/23/2021 11:45:00 PM 11.01 51.818 0.044 6.69 1.4 10.24
10/24/2021 12:00:00 AM 10.99 51.782 0.043 6.69 1.44 10.24
10/24/2021 12:15:00 AM 10.98 51.764 0.044 6.7 1.36 10.26
10/24/2021 12:30:00 AM 10.96 51.728 0.044 6.69 1.4 10.25
10/24/2021 12:45:00 AM 10.93 51.674 0.044 6.68 1.42 10.27
10/24/2021 1:00:00 AM 10.91 51.638 0.044 6.69 1.42 10.27
10/24/2021 1:15:00 AM 10.88 51.584 0.044 6.7 1.4 10.28
10/24/2021 1:30:00 AM 10.84 51.512 0.044 6.68 1.52 10.3
10/24/2021 1:45:00 AM 10.82 51.476 0.044 6.68 1.42 10.3
10/24/2021 2:00:00 AM 10.8 51.44 0.044 6.67 1.36 10.31
10/24/2021 2:15:00 AM 10.77 51.386 0.044 6.68 1.36 10.32
10/24/2021 2:30:00 AM 10.74 51.332 0.044 6.68 1.44 10.32
10/24/2021 2:45:00 AM 10.71 51.278 0.044 6.68 1.39 10.33
10/24/2021 3:00:00 AM 10.68 51.224 0.044 6.68 1.37 10.34
10/24/2021 3:15:00 AM 10.64 51.152 0.044 6.68 1.35 10.34
10/24/2021 3:30:00 AM 10.6 51.08 0.044 6.68 1.45 10.36
10/24/2021 3:45:00 AM 10.57 51.026 0.043 6.68 1.34 10.38
10/24/2021 4:00:00 AM 10.52 50.936 0.043 6.68 1.4 10.39
10/24/2021 4:15:00 AM 10.48 50.864 0.043 6.67 1.37 10.4
10/24/2021 4:30:00 AM 10.43 50.774 0.043 6.67 1.41 10.42
10/24/2021 4:45:00 AM 10.4 50.72 0.043 6.68 1.41 10.42
10/24/2021 5:00:00 AM 10.36 50.648 0.043 6.68 1.42 10.43
10/24/2021 5:15:00 AM 10.32 50.576 0.043 6.67 1.42 10.44
10/24/2021 5:30:00 AM 10.28 50.504 0.043 6.67 1.37 10.46
10/24/2021 5:45:00 AM 10.24 50.432 0.043 6.67 1.37 10.47
10/24/2021 6:00:00 AM 10.2 50.36 0.043 6.68 1.4 10.48
10/24/2021 6:15:00 AM 10.17 50.306 0.043 6.68 1.37 10.5
10/24/2021 6:30:00 AM 10.14 50.252 0.043 6.68 1.39 10.5
10/24/2021 6:45:00 AM 10.1 50.18 0.043 6.69 1.38 10.51
10/24/2021 7:00:00 AM 10.06 50.108 0.043 6.67 1.36 10.52
10/24/2021 7:15:00 AM 10.03 50.054 0.043 6.68 1.38 10.54
10/24/2021 7:30:00 AM 10 50 0.043 6.68 1.41 10.55
10/24/2021 7:45:00 AM 9.97 49.946 0.043 6.69 1.36 10.58
10/24/2021 8:00:00 AM 9.95 49.91 0.043 6.69 1.35 10.63
10/24/2021 8:15:00 AM 9.92 49.856 0.043 6.71 1.35 10.7
10/24/2021 8:30:00 AM 9.9 49.82 0.043 6.72 1.4 10.78
10/24/2021 8:45:00 AM 9.88 49.784 0.043 6.74 1.37 10.87
10/24/2021 9:00:00 AM 9.88 49.784 0.043 6.78 1.35 10.98
10/24/2021 9:15:00 AM 9.88 49.784 0.043 6.79 1.38 11.05
10/24/2021 9:30:00 AM 9.88 49.784 0.043 6.8 1.33 11.12
10/24/2021 9:45:00 AM 9.9 49.82 0.043 6.83 1.37 11.2
10/24/2021 10:00:00 AM 9.93 49.874 0.043 6.87 1.32 11.25
10/24/2021 10:15:00 AM 9.95 49.91 0.043 6.87 1.38 11.28
10/24/2021 10:30:00 AM 9.99 49.982 0.042 6.89 1.36 11.33
10/24/2021 10:45:00 AM 10.03 50.054 0.042 6.92 1.35 11.38
10/24/2021 11:00:00 AM 10.08 50.144 0.042 6.94 1.34 11.41
10/24/2021 11:15:00 AM 10.14 50.252 0.042 6.95 1.3 11.41
10/24/2021 11:30:00 AM 10.21 50.378 0.042 6.98 1.44 11.4
10/24/2021 11:45:00 AM 10.27 50.486 0.042 6.97 1.35 11.39
10/24/2021 12:00:00 PM 10.33 50.594 0.042 7 1.34 11.37
10/24/2021 12:15:00 PM 10.41 50.738 0.042 7 1.34 11.39
10/24/2021 12:30:00 PM 10.49 50.882 0.042 7 1.3 11.37
10/24/2021 12:45:00 PM 10.53 50.954 0.042 7 1.31 11.3
10/24/2021 1:00:00 PM 10.56 51.008 0.042 6.97 1.37 11.2
10/24/2021 1:15:00 PM 10.57 51.026 0.042 6.95 1.34 11.15
10/24/2021 1:30:00 PM 10.59 51.062 0.042 6.94 1.33 11.16
10/24/2021 1:45:00 PM 10.61 51.098 0.042 6.95 1.32 11.17
10/24/2021 2:00:00 PM 10.61 51.098 0.042 6.94 1.36 11.14
10/24/2021 2:15:00 PM 10.63 51.134 0.042 6.94 1.31 11.12
10/24/2021 2:30:00 PM 10.65 51.17 0.042 6.92 1.29 11.05
10/24/2021 2:45:00 PM 10.64 51.152 0.042 6.89 1.33 10.98
10/24/2021 3:00:00 PM 10.64 51.152 0.042 6.88 1.3 10.98
10/24/2021 3:15:00 PM 10.65 51.17 0.042 6.9 1.32 10.97
10/24/2021 3:30:00 PM 10.66 51.188 0.042 6.9 1.3 11
10/24/2021 3:45:00 PM 10.68 51.224 0.042 6.89 1.33 10.99
10/24/2021 4:00:00 PM 10.71 51.278 0.042 6.91 1.33 11.01
10/24/2021 4:15:00 PM 10.72 51.296 0.042 6.89 1.33 10.97
10/24/2021 4:30:00 PM 10.74 51.332 0.042 6.89 1.33 10.96
10/24/2021 4:45:00 PM 10.76 51.368 0.042 6.89 1.33 10.94
10/24/2021 5:00:00 PM 10.77 51.386 0.042 6.87 1.33 10.85
10/24/2021 5:15:00 PM 10.77 51.386 0.043 6.84 1.34 10.72
10/24/2021 5:30:00 PM 10.78 51.404 0.043 6.82 1.31 10.67
10/24/2021 5:45:00 PM 10.78 51.404 0.043 6.82 1.34 10.6
10/24/2021 6:00:00 PM 10.79 51.422 0.043 6.78 1.33 10.53
10/24/2021 6:15:00 PM 10.79 51.422 0.043 6.78 1.32 10.48
10/24/2021 6:30:00 PM 10.79 51.422 0.043 6.75 1.33 10.43
10/24/2021 6:45:00 PM 10.79 51.422 0.043 6.75 1.32 10.4
10/24/2021 7:00:00 PM 10.79 51.422 0.043 6.74 1.33 10.38
10/24/2021 7:15:00 PM 10.78 51.404 0.043 6.73 1.3 10.36
10/24/2021 7:30:00 PM 10.78 51.404 0.043 6.73 1.43 10.35
10/24/2021 7:45:00 PM 10.78 51.404 0.044 6.73 1.31 10.35
10/24/2021 8:00:00 PM 10.77 51.386 0.044 6.73 1.37 10.35
10/24/2021 8:15:00 PM 10.78 51.404 0.044 6.71 1.38 10.34
10/24/2021 8:30:00 PM 10.77 51.386 0.044 6.71 1.35 10.33
10/24/2021 8:45:00 PM 10.77 51.386 0.044 6.73 1.37 10.33
10/24/2021 9:00:00 PM 10.77 51.386 0.044 6.71 1.39 10.33
10/24/2021 9:15:00 PM 10.77 51.386 0.044 6.71 1.42 10.33
10/24/2021 9:30:00 PM 10.77 51.386 0.044 6.71 1.4 10.33
10/24/2021 9:45:00 PM 10.77 51.386 0.044 6.7 1.39 10.33
10/24/2021 10:00:00 PM 10.77 51.386 0.044 6.71 1.42 10.32
10/24/2021 10:15:00 PM 10.77 51.386 0.044 6.72 1.38 10.33
10/24/2021 10:30:00 PM 10.76 51.368 0.044 6.7 1.4 10.33
10/24/2021 10:45:00 PM 10.76 51.368 0.044 6.72 1.38 10.32
10/24/2021 11:00:00 PM 10.76 51.368 0.044 6.7 1.39 10.32
10/24/2021 11:15:00 PM 10.76 51.368 0.044 6.7 1.41 10.32
10/24/2021 11:30:00 PM 10.76 51.368 0.044 6.7 1.43 10.32
10/24/2021 11:45:00 PM 10.75 51.35 0.044 6.7 1.42 10.32
10/25/2021 12:00:00 AM 10.76 51.368 0.044 6.72 1.4 10.31
10/25/2021 12:15:00 AM 10.76 51.368 0.044 6.71 1.46 10.32
10/25/2021 12:30:00 AM 10.76 51.368 0.044 6.71 1.4 10.31
10/25/2021 12:45:00 AM 10.76 51.368 0.044 6.73 1.46 10.3
10/25/2021 1:00:00 AM 10.77 51.386 0.045 6.71 1.48 10.3
10/25/2021 1:15:00 AM 10.77 51.386 0.045 6.71 1.54 10.29
10/25/2021 1:30:00 AM 10.78 51.404 0.045 6.71 1.47 10.31
10/25/2021 1:45:00 AM 10.78 51.404 0.045 6.72 1.47 10.31
10/25/2021 2:00:00 AM 10.79 51.422 0.045 6.72 1.47 10.3
10/25/2021 2:15:00 AM 10.8 51.44 0.045 6.72 1.49 10.3
10/25/2021 2:30:00 AM 10.81 51.458 0.046 6.72 1.58 10.29
10/25/2021 2:45:00 AM 10.81 51.458 0.046 6.74 1.49 10.3
10/25/2021 3:00:00 AM 10.82 51.476 0.046 6.73 1.5 10.29
10/25/2021 3:15:00 AM 10.83 51.494 0.046 6.73 1.48 10.29
10/25/2021 3:30:00 AM 10.84 51.512 0.046 6.73 1.57 10.29
10/25/2021 3:45:00 AM 10.84 51.512 0.046 6.73 1.52 10.29
10/25/2021 4:00:00 AM 10.84 51.512 0.046 6.74 1.5 10.29
10/25/2021 4:15:00 AM 10.83 51.494 0.046 6.73 1.49 10.28
10/25/2021 4:30:00 AM 10.81 51.458 0.046 6.72 1.52 10.29
10/25/2021 4:45:00 AM 10.8 51.44 0.046 6.72 1.53 10.29
10/25/2021 5:00:00 AM 10.78 51.404 0.046 6.72 1.48 10.29
10/25/2021 5:15:00 AM 10.77 51.386 0.046 6.71 1.52 10.29
10/25/2021 5:30:00 AM 10.75 51.35 0.046 6.72 1.49 10.3
10/25/2021 5:45:00 AM 10.74 51.332 0.046 6.72 1.47 10.31
10/25/2021 6:00:00 AM 10.72 51.296 0.046 6.71 1.46 10.32
10/25/2021 6:15:00 AM 10.7 51.26 0.046 6.71 1.53 10.32
10/25/2021 6:30:00 AM 10.68 51.224 0.046 6.71 1.54 10.33
10/25/2021 6:45:00 AM 10.66 51.188 0.046 6.71 1.56 10.32
10/25/2021 7:00:00 AM 10.65 51.17 0.046 6.71 1.47 10.33
10/25/2021 7:15:00 AM 10.63 51.134 0.046 6.7 1.47 10.34
10/25/2021 7:30:00 AM 10.61 51.098 0.045 6.7 1.5 10.35
10/25/2021 7:45:00 AM 10.59 51.062 0.045 6.71 1.5 10.37
10/25/2021 8:00:00 AM 10.57 51.026 0.045 6.71 1.5 10.4
10/25/2021 8:15:00 AM 10.56 51.008 0.045 6.74 1.55 10.43
10/25/2021 8:30:00 AM 10.54 50.972 0.045 6.73 1.53 10.47
10/25/2021 8:45:00 AM 10.53 50.954 0.045 6.73 1.45 10.51
10/25/2021 9:00:00 AM 10.53 50.954 0.045 6.74 1.51 10.59
10/25/2021 9:15:00 AM 10.53 50.954 0.045 6.77 1.49 10.68
10/25/2021 9:30:00 AM 10.55 50.99 0.044 6.79 1.49 10.74
10/25/2021 9:45:00 AM 10.58 51.044 0.044 6.8 1.47 10.8
10/25/2021 10:00:00 AM 10.61 51.098 0.044 6.84 1.43 10.85
10/25/2021 10:15:00 AM 10.64 51.152 0.044 6.84 1.4 10.88
10/25/2021 10:30:00 AM 10.69 51.242 0.044 6.87 1.46 10.88
10/25/2021 10:45:00 AM 10.77 51.386 0.044 6.89 1.44 10.91
10/25/2021 11:00:00 AM 10.86 51.548 0.044 6.9 1.42 10.92
10/25/2021 11:15:00 AM 10.93 51.674 0.044 6.9 1.44 10.86
10/25/2021 11:30:00 AM 11.03 51.854 0.043 6.92 1.51 10.9
10/25/2021 11:45:00 AM 11.1 51.98 0.043 6.93 1.46 10.9
10/25/2021 12:00:00 PM 11.22 52.196 0.043 6.96 1.46 10.93
10/25/2021 12:15:00 PM 11.38 52.484 0.043 6.98 1.5 10.96
10/25/2021 12:30:00 PM 11.63 52.934 0.043 7.04 1.46 10.97
10/25/2021 12:45:00 PM 11.78 53.204 0.043 7.04 1.44 10.93
10/25/2021 1:00:00 PM 11.88 53.384 0.043 7.05 1.43 10.92
10/25/2021 1:15:00 PM 11.94 53.492 0.043 7.04 1.42 10.89
10/25/2021 1:30:00 PM 12.04 53.672 0.043 7.04 1.5 10.88
10/25/2021 1:45:00 PM 12.15 53.87 0.043 7.03 1.43 10.86
10/25/2021 2:00:00 PM 12.27 54.086 0.043 7.04 1.45 10.81
10/25/2021 2:15:00 PM 12.4 54.32 0.043 7.04 1.44 10.77
10/25/2021 2:30:00 PM 12.49 54.482 0.043 7.03 1.37 10.73
10/25/2021 2:45:00 PM 12.57 54.626 0.043 7.04 1.45 10.71
10/25/2021 3:00:00 PM 12.64 54.752 0.043 7.01 1.41 10.67
10/25/2021 3:15:00 PM 12.66 54.788 0.043 7.02 1.4 10.65
10/25/2021 3:30:00 PM 12.7 54.86 0.043 7 1.41 10.63
10/25/2021 3:45:00 PM 12.67 54.806 0.043 6.98 1.43 10.57
10/25/2021 4:00:00 PM 12.66 54.788 0.043 6.96 1.39 10.52
10/25/2021 4:15:00 PM 12.65 54.77 0.043 6.95 1.38 10.52
10/25/2021 4:30:00 PM 12.61 54.698 0.043 6.92 1.63 10.47
10/25/2021 4:45:00 PM 12.56 54.608 0.043 6.89 1.4 10.39
10/25/2021 5:00:00 PM 12.52 54.536 0.043 6.87 1.49 10.36
10/25/2021 5:15:00 PM 12.49 54.482 0.043 6.86 1.39 10.3
10/25/2021 5:30:00 PM 12.47 54.446 0.043 6.82 1.39 10.25
10/25/2021 5:45:00 PM 12.45 54.41 0.043 6.82 1.42 10.16
10/25/2021 6:00:00 PM 12.43 54.374 0.044 6.79 1.44 10.09
10/25/2021 6:15:00 PM 12.43 54.374 0.044 6.77 1.41 10.01
10/25/2021 6:30:00 PM 12.44 54.392 0.044 6.75 1.5 9.95
10/25/2021 6:45:00 PM 12.46 54.428 0.044 6.74 1.4 9.9
10/25/2021 7:00:00 PM 12.48 54.464 0.044 6.73 1.44 9.87
10/25/2021 7:15:00 PM 12.51 54.518 0.044 6.71 1.43 9.84
10/25/2021 7:30:00 PM 12.53 54.554 0.044 6.71 1.43 9.81
10/25/2021 7:45:00 PM 12.54 54.572 0.044 6.71 1.39 9.8
10/25/2021 8:00:00 PM 12.56 54.608 0.044 6.7 1.41 9.79
10/25/2021 8:15:00 PM 12.56 54.608 0.044 6.71 1.48 9.79
10/25/2021 8:30:00 PM 12.56 54.608 0.044 6.69 1.47 9.78
10/25/2021 8:45:00 PM 12.56 54.608 0.044 6.7 1.47 9.78
10/25/2021 9:00:00 PM 12.56 54.608 0.044 6.68 1.45 9.78
10/25/2021 9:15:00 PM 12.56 54.608 0.044 6.7 1.38 9.78
10/25/2021 9:30:00 PM 12.56 54.608 0.044 6.68 1.46 9.78
10/25/2021 9:45:00 PM 12.56 54.608 0.044 6.67 1.46 9.78
10/25/2021 10:00:00 PM 12.56 54.608 0.044 6.67 1.85 9.78
10/25/2021 10:15:00 PM 12.56 54.608 0.044 6.68 1.45 9.77
10/25/2021 10:30:00 PM 12.56 54.608 0.045 6.67 1.46 9.77
10/25/2021 10:45:00 PM 12.56 54.608 0.044 6.66 1.46 9.77
10/25/2021 11:00:00 PM 12.56 54.608 0.045 6.68 1.38 9.77
10/25/2021 11:15:00 PM 12.56 54.608 0.045 6.67 1.45 9.77
10/25/2021 11:30:00 PM 12.57 54.626 0.044 6.67 1.41 9.78
10/25/2021 11:45:00 PM 12.57 54.626 0.044 6.69 1.49 9.78
10/26/2021 12:00:00 AM 12.57 54.626 0.044 6.68 1.49 9.79
10/26/2021 12:15:00 AM 12.57 54.626 0.044 6.69 1.46 9.78
10/26/2021 12:30:00 AM 12.57 54.626 0.044 6.68 1.46 9.78
10/26/2021 12:45:00 AM 12.56 54.608 0.044 6.68 1.42 9.77
10/26/2021 1:00:00 AM 12.55 54.59 0.044 6.69 1.48 9.76
10/26/2021 1:15:00 AM 12.54 54.572 0.044 6.69 1.47 9.76
10/26/2021 1:30:00 AM 12.54 54.572 0.044 6.69 1.48 9.76
10/26/2021 1:45:00 AM 12.53 54.554 0.044 6.69 1.49 9.76
10/26/2021 2:00:00 AM 12.52 54.536 0.045 6.69 1.52 9.76
10/26/2021 2:15:00 AM 12.51 54.518 0.045 6.69 1.5 9.77
10/26/2021 2:30:00 AM 12.49 54.482 0.045 6.69 1.49 9.76
10/26/2021 2:45:00 AM 12.48 54.464 0.046 6.72 1.54 9.77
10/26/2021 3:00:00 AM 12.47 54.446 0.046 6.71 1.59 9.77
10/26/2021 3:15:00 AM 12.46 54.428 0.046 6.71 1.88 9.77
10/26/2021 3:30:00 AM 12.46 54.428 0.047 6.73 2 9.77
10/26/2021 3:45:00 AM 12.45 54.41 0.048 6.72 2.33 9.77
10/26/2021 4:00:00 AM 12.45 54.41 0.048 6.73 2.41 9.77
10/26/2021 4:15:00 AM 12.45 54.41 0.048 6.73 2.09 9.78
10/26/2021 4:30:00 AM 12.45 54.41 0.048 6.76 2.04 9.77
10/26/2021 4:45:00 AM 12.44 54.392 0.048 6.75 2.03 9.77
10/26/2021 5:00:00 AM 12.44 54.392 0.048 6.74 1.93 9.78
10/26/2021 5:15:00 AM 12.44 54.392 0.048 6.75 1.98 9.78
10/26/2021 5:30:00 AM 12.44 54.392 0.048 6.74 1.9 9.78
10/26/2021 5:45:00 AM 12.43 54.374 0.048 6.73 1.97 9.78
10/26/2021 6:00:00 AM 12.43 54.374 0.048 6.74 1.87 9.78
10/26/2021 6:15:00 AM 12.43 54.374 0.042 6.74 4.92 9.78
10/26/2021 6:30:00 AM 12.43 54.374 0.048 6.73 1.86 9.78
10/26/2021 6:45:00 AM 12.43 54.374 0.048 6.75 1.83 9.78
10/26/2021 7:00:00 AM 12.43 54.374 0.048 6.74 1.78 9.78
10/26/2021 7:15:00 AM 12.43 54.374 0.048 6.75 1.81 9.78
10/26/2021 7:30:00 AM 12.42 54.356 0.048 6.72 1.79 9.79
10/26/2021 7:45:00 AM 12.42 54.356 0.048 6.74 1.75 9.8
10/26/2021 8:00:00 AM 12.42 54.356 0.048 6.74 1.88 9.8
10/26/2021 8:15:00 AM 12.42 54.356 0.048 6.74 1.77 9.81
10/26/2021 8:30:00 AM 12.43 54.374 0.047 6.75 1.75 9.83
10/26/2021 8:45:00 AM 12.43 54.374 0.047 6.75 1.73 9.87
10/26/2021 9:00:00 AM 12.43 54.374 0.047 6.77 1.68 9.92
10/26/2021 9:15:00 AM 12.44 54.392 0.047 6.78 1.65 9.94
10/26/2021 9:30:00 AM 12.44 54.392 0.046 6.8 1.67 9.98
10/26/2021 9:45:00 AM 12.45 54.41 0.046 6.82 1.68 10.02
10/26/2021 10:00:00 AM 12.46 54.428 0.046 6.82 1.67 10.07
10/26/2021 10:15:00 AM 12.46 54.428 0.046 6.83 1.65 10.09
10/26/2021 10:30:00 AM 12.47 54.446 0.046 6.84 1.75 10.09
10/26/2021 10:45:00 AM 12.48 54.464 0.046 6.86 1.85 10.11
10/26/2021 11:00:00 AM 12.5 54.5 0.046 6.85 1.92 10.12
10/26/2021 11:15:00 AM 12.51 54.518 0.045 6.86 1.93 10.13
10/26/2021 11:30:00 AM 12.52 54.536 0.045 6.85 1.97 10.11
10/26/2021 11:45:00 AM 12.53 54.554 0.045 6.86 2.05 10.1
10/26/2021 12:00:00 PM 12.54 54.572 0.045 6.88 2.13 10.11
10/26/2021 12:15:00 PM 12.55 54.59 0.045 6.87 2.22 10.09
10/26/2021 12:30:00 PM 12.58 54.644 0.045 6.88 2.57 10.13
10/26/2021 12:45:00 PM 12.6 54.68 0.046 6.9 2.85 10.14
10/26/2021 1:00:00 PM 12.61 54.698 0.047 6.91 3.9 10.12
10/26/2021 1:15:00 PM 12.63 54.734 0.05 6.94 4.69 10.11
10/26/2021 1:30:00 PM 12.65 54.77 0.053 6.97 6.92 10.11
10/26/2021 1:45:00 PM 12.69 54.842 0.055 7.01 10.27 10.09
10/26/2021 2:00:00 PM 12.71 54.878 0.058 7.04 13.89 10.06
10/26/2021 2:15:00 PM 12.7 54.86 0.059 7.03 15.01 10.05
10/26/2021 2:30:00 PM 12.69 54.842 0.058 7.03 19.49 10.04
10/26/2021 2:45:00 PM 12.67 54.806 0.056 7.02 17.65 10.02
10/26/2021 3:00:00 PM 12.65 54.77 0.053 7 17.69 10.04
10/26/2021 3:15:00 PM 12.63 54.734 0.053 6.99 14.76 10.07
10/26/2021 3:30:00 PM 12.61 54.698 0.052 7 12.25 10.09
10/26/2021 3:45:00 PM 12.58 54.644 0.051 7.01 11.34 10.11
10/26/2021 4:00:00 PM 12.54 54.572 0.05 6.98 10.09 10.1
10/26/2021 4:15:00 PM 12.5 54.5 0.05 6.97 9.69 10.1
10/26/2021 4:30:00 PM 12.45 54.41 0.049 6.94 13.45 10.08
10/26/2021 4:45:00 PM 12.41 54.338 0.043 6.92 17.74 10.07
10/26/2021 5:00:00 PM 12.36 54.248 0.047 6.91 8.99 10.06
10/26/2021 5:15:00 PM 12.31 54.158 0.047 6.91 8.32 10.05
10/26/2021 5:30:00 PM 12.25 54.05 0.045 6.89 9.11 10.04
10/26/2021 5:45:00 PM 12.2 53.96 0.043 6.85 23.57 10.04
10/26/2021 6:00:00 PM 12.15 53.87 0.044 6.84 12.16 10.03
10/26/2021 6:15:00 PM 12.11 53.798 0.044 6.81 7.36 10.01
10/26/2021 6:30:00 PM 12.07 53.726 0.043 6.8 9.15 10.03
10/26/2021 6:45:00 PM 12.03 53.654 0.043 6.78 11.31 10.03
10/26/2021 7:00:00 PM 11.99 53.582 0.042 6.79 8.42 10.04
10/26/2021 7:15:00 PM 11.95 53.51 0.042 6.77 8.66 10.05
10/26/2021 7:30:00 PM 11.92 53.456 0.042 6.77 7.83 10.06
10/26/2021 7:45:00 PM 11.88 53.384 0.041 6.74 7.92 10.06
10/26/2021 8:00:00 PM 11.86 53.348 0.041 6.74 7.37 10.07
10/26/2021 8:15:00 PM 11.83 53.294 0.041 6.76 7.74 10.08
10/26/2021 8:30:00 PM 11.81 53.258 0.041 6.72 7.43 10.1
10/26/2021 8:45:00 PM 11.79 53.222 0.04 6.73 7.5 10.1
10/26/2021 9:00:00 PM 11.78 53.204 0.04 6.72 6.84 10.12
10/26/2021 9:15:00 PM 11.75 53.15 0.04 6.72 6.56 10.12
10/26/2021 9:30:00 PM 11.74 53.132 0.04 6.71 6.68 10.13
10/26/2021 9:45:00 PM 11.72 53.096 0.039 6.71 6.44 10.13
10/26/2021 10:00:00 PM 11.71 53.078 0.039 6.69 6.15 10.14
10/26/2021 10:15:00 PM 11.7 53.06 0.039 6.67 6.09 10.15
10/26/2021 10:30:00 PM 11.7 53.06 0.039 6.67 6.03 10.15
10/26/2021 10:45:00 PM 11.7 53.06 0.039 6.67 6 10.16
10/26/2021 11:00:00 PM 11.7 53.06 0.039 6.7 5.95 10.16
10/26/2021 11:15:00 PM 11.7 53.06 0.039 6.69 5.85 10.16
10/26/2021 11:30:00 PM 11.7 53.06 0.039 6.66 5.55 10.16
10/26/2021 11:45:00 PM 11.7 53.06 0.039 6.68 5.89 10.17
10/27/2021 12:00:00 AM 11.69 53.042 0.039 6.69 5.22 10.17
10/27/2021 12:15:00 AM 11.69 53.042 0.039 6.7 5.16 10.17
10/27/2021 12:30:00 AM 11.69 53.042 0.039 6.7 5.74 10.17
10/27/2021 12:45:00 AM 11.69 53.042 0.039 6.7 5.19 10.18
10/27/2021 1:00:00 AM 11.68 53.024 0.039 6.69 5.11 10.18
10/27/2021 1:15:00 AM 11.68 53.024 0.039 6.68 5.31 10.18
10/27/2021 1:30:00 AM 11.68 53.024 0.039 6.7 5.69 10.18
10/27/2021 1:45:00 AM 11.68 53.024 0.038 6.68 5.34 10.19
10/27/2021 2:00:00 AM 11.68 53.024 0.038 6.67 5.07 10.19
10/27/2021 2:15:00 AM 11.68 53.024 0.038 6.68 5.1 10.19
10/27/2021 2:30:00 AM 11.68 53.024 0.038 6.69 5.2 10.19
10/27/2021 2:45:00 AM 11.69 53.042 0.038 6.68 5.06 10.19
10/27/2021 3:00:00 AM 11.69 53.042 0.038 6.67 4.84 10.19
10/27/2021 3:15:00 AM 11.69 53.042 0.037 6.66 5.01 10.19
10/27/2021 3:30:00 AM 11.69 53.042 0.037 6.67 4.98 10.19
10/27/2021 3:45:00 AM 11.69 53.042 0.037 6.65 4.85 10.19
10/27/2021 4:00:00 AM 11.68 53.024 0.037 6.67 4.79 10.19
10/27/2021 4:15:00 AM 11.68 53.024 0.037 6.65 5.14 10.19
10/27/2021 4:30:00 AM 11.68 53.024 0.037 6.66 4.97 10.19
10/27/2021 4:45:00 AM 11.67 53.006 0.037 6.6 4.77 10.2
10/27/2021 5:00:00 AM 11.67 53.006 0.037 6.64 5.12 10.19
10/27/2021 5:15:00 AM 11.67 53.006 0.036 6.62 4.75 10.19
10/27/2021 5:30:00 AM 11.67 53.006 0.036 6.64 4.78 10.2
10/27/2021 5:45:00 AM 11.67 53.006 0.036 6.63 4.66 10.2
10/27/2021 6:00:00 AM 11.66 52.988 0.036 6.62 4.37 10.2
10/27/2021 6:15:00 AM 11.65 52.97 0.036 6.61 4.36 10.2
10/27/2021 6:30:00 AM 11.64 52.952 0.036 6.61 4.31 10.21
10/27/2021 6:45:00 AM 11.64 52.952 0.036 6.66 4.62 10.22
10/27/2021 7:00:00 AM 11.63 52.934 0.036 6.59 4.68 10.22
10/27/2021 7:15:00 AM 11.62 52.916 0.036 6.61 4.57 10.22
10/27/2021 7:30:00 AM 11.61 52.898 0.036 6.63 4.62 10.22
10/27/2021 7:45:00 AM 11.6 52.88 0.036 6.6 4.42 10.22
10/27/2021 8:00:00 AM 11.6 52.88 0.035 6.61 8.54 10.23
10/27/2021 8:15:00 AM 11.59 52.862 0.035 6.6 77.62 10.24
10/27/2021 8:30:00 AM 11.59 52.862 0.035 6.61 12.7 10.26
10/27/2021 8:45:00 AM 11.58 52.844 0.035 6.62 3.85 10.27
10/27/2021 9:00:00 AM 11.58 52.844 0.035 6.6 3.67 10.29
10/27/2021 9:15:00 AM 11.58 52.844 0.035 6.62 3.93 10.3
10/27/2021 9:30:00 AM 11.58 52.844 0.035 6.6 3.51 10.31
10/27/2021 9:45:00 AM 11.58 52.844 0.035 6.62 3.49 10.32
10/27/2021 10:00:00 AM 11.59 52.862 0.035 6.64 3.47 10.35
10/27/2021 10:15:00 AM 11.61 52.898 0.035 6.65 77.67 10.4
10/27/2021 10:30:00 AM 11.64 52.952 0.035 6.67 8.54 10.44
10/27/2021 10:45:00 AM 11.66 52.988 0.034 6.7 3.47 10.47
10/27/2021 11:00:00 AM 11.67 53.006 0.034 6.7 3.24 10.47
10/27/2021 11:15:00 AM 11.72 53.096 0.034 6.73 10.29 10.47
10/27/2021 11:30:00 AM 11.82 53.276 0.034 6.74 333.89 10.48
10/27/2021 11:45:00 AM 11.85 53.33 0.034 6.7 3.44 10.48
10/27/2021 12:00:00 PM 11.91 53.438 0.034 6.69 3.13 10.49
10/27/2021 12:15:00 PM 11.94 53.492 0.034 6.72 3.67 10.49
10/27/2021 12:30:00 PM 12.01 53.618 0.034 6.74 3.17 10.49
10/27/2021 12:45:00 PM 11.98 53.564 0.034 6.71 3.12 10.49
10/27/2021 1:00:00 PM 11.96 53.528 0.034 6.71 3.1 10.51
10/27/2021 1:15:00 PM 12 53.6 0.034 6.71 3.48 10.51
10/27/2021 1:30:00 PM 12.06 53.708 0.034 6.73 3.21 10.51
10/27/2021 1:45:00 PM 12.06 53.708 0.034 6.74 3.14 10.51
10/27/2021 2:00:00 PM 12.05 53.69 0.034 6.72 6.56 10.52
10/27/2021 2:15:00 PM 12.09 53.762 0.034 6.74 7.21 10.52
10/27/2021 2:30:00 PM 12.16 53.888 0.034 6.76 7.23 10.52
10/27/2021 2:45:00 PM 12.23 54.014 0.034 6.73 6.74 10.51
10/27/2021 3:00:00 PM 12.26 54.068 0.034 6.76 6.15 10.47
10/27/2021 3:15:00 PM 12.28 54.104 0.034 6.76 6.54 10.43
10/27/2021 3:30:00 PM 12.29 54.122 0.034 6.71 1581.36 10.4
10/27/2021 3:45:00 PM 12.3 54.14 0.034 6.7 7.5 10.37
10/27/2021 4:00:00 PM 12.29 54.122 0.034 6.7 10.16 10.35
10/27/2021 4:15:00 PM 12.25 54.05 0.034 6.7 8.26 10.32
10/27/2021 4:30:00 PM 12.22 53.996 0.034 6.69 8.71 10.3
10/27/2021 4:45:00 PM 12.18 53.924 0.034 6.66 9.23 10.28
10/27/2021 5:00:00 PM 12.15 53.87 0.034 6.64 10 10.25
10/27/2021 5:15:00 PM 12.13 53.834 0.034 6.63 10.03 10.23
10/27/2021 5:30:00 PM 12.12 53.816 0.034 6.64 9.87 10.21
10/27/2021 5:45:00 PM 12.1 53.78 0.034 6.62 7.99 10.19
10/27/2021 6:00:00 PM 12.08 53.744 0.034 6.62 7.28 10.17
10/27/2021 6:15:00 PM 12.05 53.69 0.034 6.59 11.38 10.16
10/27/2021 6:30:00 PM 12.03 53.654 0.034 6.59 10.44 10.15
10/27/2021 6:45:00 PM 12.01 53.618 0.034 6.59 8.75 10.14
10/27/2021 7:00:00 PM 11.98 53.564 0.034 6.6 10.41 10.14
10/27/2021 7:15:00 PM 11.95 53.51 0.034 6.58 8.32 10.15
10/27/2021 7:30:00 PM 11.92 53.456 0.034 6.59 8.33 10.15
10/27/2021 7:45:00 PM 11.88 53.384 0.034 6.58 7.72 10.16
10/27/2021 8:00:00 PM 11.85 53.33 0.034 6.57 8.7 10.17
10/27/2021 8:15:00 PM 11.8 53.24 0.034 6.57 10.74 10.18
10/27/2021 8:30:00 PM 11.77 53.186 0.034 6.57 10.03 10.2
10/27/2021 8:45:00 PM 11.72 53.096 0.034 6.56 8.36 10.21
10/27/2021 9:00:00 PM 11.68 53.024 0.034 6.55 8.14 10.21
10/27/2021 9:15:00 PM 11.63 52.934 0.034 6.55 8.15 10.23
10/27/2021 9:30:00 PM 11.58 52.844 0.034 6.56 9.24 10.24
10/27/2021 9:45:00 PM 11.53 52.754 0.034 6.55 7.81 10.25
10/27/2021 10:00:00 PM 11.48 52.664 0.034 6.55 8.23 10.27
10/27/2021 10:15:00 PM 11.42 52.556 0.034 6.55 8.41 10.27
10/27/2021 10:30:00 PM 11.38 52.484 0.034 6.56 8.3 10.29
10/27/2021 10:45:00 PM 11.33 52.394 0.034 6.55 7.55 10.3
10/27/2021 11:00:00 PM 11.29 52.322 0.034 6.54 8.41 10.31
10/27/2021 11:15:00 PM 11.24 52.232 0.034 6.53 8.45 10.32
10/27/2021 11:30:00 PM 11.19 52.142 0.034 6.54 8.56 10.33
10/27/2021 11:45:00 PM 11.14 52.052 0.034 6.52 8.31 10.34
10/28/2021 12:00:00 AM 11.09 51.962 0.034 6.54 7.2 10.35
10/28/2021 12:15:00 AM 11.04 51.872 0.034 6.53 7.34 10.37
10/28/2021 12:30:00 AM 10.99 51.782 0.034 6.54 8.44 10.38
10/28/2021 12:45:00 AM 10.94 51.692 0.034 6.54 7.92 10.4
10/28/2021 1:00:00 AM 10.9 51.62 0.034 6.54 7.57 10.41
10/28/2021 1:15:00 AM 10.85 51.53 0.034 6.53 7.46 10.42
10/28/2021 1:30:00 AM 10.81 51.458 0.034 6.55 7.65 10.43
10/28/2021 1:45:00 AM 10.77 51.386 0.034 6.54 7.44 10.44
10/28/2021 2:00:00 AM 10.72 51.296 0.034 6.53 7.55 10.45
10/28/2021 2:15:00 AM 10.68 51.224 0.034 6.53 7.69 10.47
10/28/2021 2:30:00 AM 10.64 51.152 0.034 6.53 7.26 10.48
10/28/2021 2:45:00 AM 10.59 51.062 0.034 6.53 7.84 10.49
10/28/2021 3:00:00 AM 10.55 50.99 0.034 6.53 8.28 10.51
10/28/2021 3:15:00 AM 10.51 50.918 0.034 6.53 7.85 10.51
10/28/2021 3:30:00 AM 10.47 50.846 0.034 6.53 7.52 10.52
10/28/2021 3:45:00 AM 10.43 50.774 0.034 6.56 8.34 10.54
10/28/2021 4:00:00 AM 10.39 50.702 0.034 6.51 7.99 10.55
10/28/2021 4:15:00 AM 10.35 50.63 0.034 6.54 6.22 10.55
10/28/2021 4:30:00 AM 10.3 50.54 0.034 6.54 7.81 10.57
10/28/2021 4:45:00 AM 10.26 50.468 0.034 6.55 8.01 10.58
10/28/2021 5:00:00 AM 10.22 50.396 0.034 6.54 6.04 10.59
10/28/2021 5:15:00 AM 10.18 50.324 0.034 6.55 7.37 10.6
10/28/2021 5:30:00 AM 10.14 50.252 0.034 6.55 7.46 10.61
10/28/2021 5:45:00 AM 10.1 50.18 0.034 6.54 8.71 10.62
10/28/2021 6:00:00 AM 10.06 50.108 0.034 6.53 7.27 10.63
10/28/2021 6:15:00 AM 10.02 50.036 0.034 6.53 7.11 10.65
10/28/2021 6:30:00 AM 9.98 49.964 0.034 6.56 8.31 10.65
10/28/2021 6:45:00 AM 9.93 49.874 0.034 6.54 7.03 10.66
10/28/2021 7:00:00 AM 9.9 49.82 0.034 6.55 7.75 10.67
10/28/2021 7:15:00 AM 9.85 49.73 0.034 6.55 7.85 10.69
10/28/2021 7:30:00 AM 9.81 49.658 0.034 6.54 7.05 10.71
10/28/2021 7:45:00 AM 9.77 49.586 0.034 6.54 7.03 10.73
10/28/2021 8:00:00 AM 9.74 49.532 0.034 6.55 7.59 10.76
10/28/2021 8:15:00 AM 9.71 49.478 0.034 6.56 7.34 10.79
10/28/2021 8:30:00 AM 9.67 49.406 0.034 6.55 7.23 10.81
10/28/2021 8:45:00 AM 9.65 49.37 0.034 6.57 7.43 10.84
10/28/2021 9:00:00 AM 9.63 49.334 0.034 6.57 8.02 10.87
10/28/2021 9:15:00 AM 9.62 49.316 0.034 6.57 7.56 10.89
10/28/2021 9:30:00 AM 9.61 49.298 0.034 6.58 7 10.91
10/28/2021 9:45:00 AM 9.62 49.316 0.034 6.61 8.29 10.94
10/28/2021 10:00:00 AM 9.64 49.352 0.034 6.61 7.99 10.95
10/28/2021 10:15:00 AM 9.67 49.406 0.034 6.62 7.07 10.97
10/28/2021 10:30:00 AM 9.74 49.532 0.034 6.66 7.89 10.98
10/28/2021 10:45:00 AM 9.81 49.658 0.034 6.66 7.4 10.98
10/28/2021 11:00:00 AM 9.9 49.82 0.034 6.68 6.4 10.98
10/28/2021 11:15:00 AM 9.99 49.982 0.034 6.68 6.93 10.98
10/28/2021 11:30:00 AM 10.1 50.18 0.034 6.7 6.79 10.99
10/28/2021 11:45:00 AM 10.22 50.396 0.034 6.72 6.97 10.99
10/28/2021 12:00:00 PM 10.34 50.612 0.034 6.72 7.1 10.99
10/28/2021 12:15:00 PM 10.45 50.81 0.034 6.74 6.99 10.97
10/28/2021 12:30:00 PM 10.57 51.026 0.034 6.73 7.35 10.96
10/28/2021 12:45:00 PM 10.66 51.188 0.034 6.75 7.73 10.95
10/28/2021 1:00:00 PM 10.75 51.35 0.034 6.74 7.31 10.94
10/28/2021 1:15:00 PM 10.84 51.512 0.034 6.75 6.6 10.91
10/28/2021 1:30:00 PM 10.9 51.62 0.034 6.76 6.96 10.9
10/28/2021 1:45:00 PM 10.94 51.692 0.034 6.75 6.56 10.89
10/28/2021 2:00:00 PM 10.98 51.764 0.034 6.75 7.07 10.87
10/28/2021 2:15:00 PM 11.02 51.836 0.034 6.74 6.99 10.85
10/28/2021 2:30:00 PM 11.06 51.908 0.034 6.73 6.69 10.83
10/28/2021 2:45:00 PM 11.09 51.962 0.034 6.76 6.86 10.82
10/28/2021 3:00:00 PM 11.13 52.034 0.034 6.74 6.97 10.8
10/28/2021 3:15:00 PM 11.14 52.052 0.034 6.73 7.65 10.76
10/28/2021 3:30:00 PM 11.19 52.142 0.034 6.73 6.98 10.75
10/28/2021 3:45:00 PM 11.22 52.196 0.034 6.73 7.09 10.72
10/28/2021 4:00:00 PM 11.26 52.268 0.034 6.74 6.77 10.69
10/28/2021 4:15:00 PM 11.3 52.34 0.034 6.73 6.93 10.66
10/28/2021 4:30:00 PM 11.32 52.376 0.034 6.72 6.56 10.62
10/28/2021 4:45:00 PM 11.33 52.394 0.034 6.68 6.61 10.56
10/28/2021 5:00:00 PM 11.34 52.412 0.034 6.67 8.73 10.53
10/28/2021 5:15:00 PM 11.35 52.43 0.034 6.68 6.44 10.5
10/28/2021 5:30:00 PM 11.37 52.466 0.034 6.68 6.84 10.5
10/28/2021 5:45:00 PM 11.39 52.502 0.034 6.67 7.04 10.47
10/28/2021 6:00:00 PM 11.39 52.502 0.034 6.66 6.21 10.42
10/28/2021 6:15:00 PM 11.39 52.502 0.035 6.63 6.34 10.37
10/28/2021 6:30:00 PM 11.39 52.502 0.035 6.62 6.84 10.32
10/28/2021 6:45:00 PM 11.4 52.52 0.035 6.62 7.31 10.3
10/28/2021 7:00:00 PM 11.39 52.502 0.035 6.59 7.17 10.28
10/28/2021 7:15:00 PM 11.37 52.466 0.035 6.58 7.14 10.27
10/28/2021 7:30:00 PM 11.36 52.448 0.035 6.57 7.18 10.27
10/28/2021 7:45:00 PM 11.34 52.412 0.035 6.58 6.78 10.27
10/28/2021 8:00:00 PM 11.32 52.376 0.035 6.56 6.1 10.27
10/28/2021 8:15:00 PM 11.3 52.34 0.035 6.57 7.17 10.28
10/28/2021 8:30:00 PM 11.26 52.268 0.035 6.58 6.81 10.28
10/28/2021 8:45:00 PM 11.23 52.214 0.035 6.56 6.94 10.29
10/28/2021 9:00:00 PM 11.19 52.142 0.035 6.55 6.91 10.3
10/28/2021 9:15:00 PM 11.15 52.07 0.035 6.57 6.84 10.31
10/28/2021 9:30:00 PM 11.11 51.998 0.035 6.56 6.65 10.32
10/28/2021 9:45:00 PM 11.06 51.908 0.035 6.55 7.23 10.33
10/28/2021 10:00:00 PM 11.01 51.818 0.035 6.55 7.57 10.35
10/28/2021 10:15:00 PM 10.96 51.728 0.035 6.53 6.77 10.36
10/28/2021 10:30:00 PM 10.93 51.674 0.035 6.53 6.61 10.38
10/28/2021 10:45:00 PM 10.9 51.62 0.035 6.55 7.22 10.39
10/28/2021 11:00:00 PM 10.88 51.584 0.035 6.54 6.81 10.39
10/28/2021 11:15:00 PM 10.85 51.53 0.035 6.54 6.92 10.4
10/28/2021 11:30:00 PM 10.83 51.494 0.035 6.55 7.81 10.41
10/28/2021 11:45:00 PM 10.82 51.476 0.035 6.57 6.55 10.42
10/29/2021 12:00:00 AM 10.81 51.458 0.035 6.56 6.57 10.42
10/29/2021 12:15:00 AM 10.8 51.44 0.035 6.56 7.04 10.42
10/29/2021 12:30:00 AM 10.79 51.422 0.035 6.58 6.63 10.42
10/29/2021 12:45:00 AM 10.78 51.404 0.035 6.55 6.51 10.43
10/29/2021 1:00:00 AM 10.77 51.386 0.035 6.56 7.13 10.43
10/29/2021 1:15:00 AM 10.76 51.368 0.035 6.57 7.7 10.43
10/29/2021 1:30:00 AM 10.76 51.368 0.035 6.57 6.78 10.43
10/29/2021 1:45:00 AM 10.75 51.35 0.035 6.58 6.86 10.43
10/29/2021 2:00:00 AM 10.75 51.35 0.035 6.57 6.91 10.43
10/29/2021 2:15:00 AM 10.75 51.35 0.035 6.57 6.87 10.43
10/29/2021 2:30:00 AM 10.75 51.35 0.035 6.57 7.18 10.43
10/29/2021 2:45:00 AM 10.75 51.35 0.035 6.58 6.64 10.42
10/29/2021 3:00:00 AM 10.75 51.35 0.035 6.57 6.86 10.42
10/29/2021 3:15:00 AM 10.74 51.332 0.035 6.56 6.63 10.43
10/29/2021 3:30:00 AM 10.74 51.332 0.035 6.59 7.22 10.43
10/29/2021 3:45:00 AM 10.73 51.314 0.035 6.58 6.95 10.43
10/29/2021 4:00:00 AM 10.72 51.296 0.035 6.57 6.39 10.43
10/29/2021 4:15:00 AM 10.71 51.278 0.035 6.57 6.64 10.43
10/29/2021 4:30:00 AM 10.71 51.278 0.035 6.58 6.37 10.43
10/29/2021 4:45:00 AM 10.71 51.278 0.035 6.57 6.57 10.43
10/29/2021 5:00:00 AM 10.71 51.278 0.035 6.58 6.61 10.43
10/29/2021 5:15:00 AM 10.72 51.296 0.035 6.58 6.62 10.43
10/29/2021 5:30:00 AM 10.72 51.296 0.035 6.58 6.71 10.42
10/29/2021 5:45:00 AM 10.72 51.296 0.035 6.59 6.7 10.42
10/29/2021 6:00:00 AM 10.72 51.296 0.035 6.58 6.71 10.42
10/29/2021 6:15:00 AM 10.73 51.314 0.035 6.58 6.94 10.42
10/29/2021 6:30:00 AM 10.73 51.314 0.035 6.6 7.5 10.42
10/29/2021 6:45:00 AM 10.72 51.296 0.035 6.59 6.36 10.43
10/29/2021 7:00:00 AM 10.72 51.296 0.035 6.58 6.57 10.42
10/29/2021 7:15:00 AM 10.72 51.296 0.035 6.59 6.61 10.42
10/29/2021 7:30:00 AM 10.72 51.296 0.035 6.61 6.57 10.42
10/29/2021 7:45:00 AM 10.72 51.296 0.035 6.59 6.71 10.43
10/29/2021 8:00:00 AM 10.71 51.278 0.035 6.62 6.73 10.44
10/29/2021 8:15:00 AM 10.71 51.278 0.035 6.6 6.42 10.45
10/29/2021 8:30:00 AM 10.71 51.278 0.035 6.59 6.91 10.47
10/29/2021 8:45:00 AM 10.7 51.26 0.035 6.6 7.36 10.5
10/29/2021 9:00:00 AM 10.7 51.26 0.035 6.62 6.91 10.55
10/29/2021 9:15:00 AM 10.69 51.242 0.035 6.63 6.51 10.57
10/29/2021 9:30:00 AM 10.68 51.224 0.035 6.63 6.68 10.58
10/29/2021 9:45:00 AM 10.68 51.224 0.035 6.66 6.57 10.65
10/29/2021 10:00:00 AM 10.71 51.278 0.035 6.68 6.19 10.75
10/29/2021 10:15:00 AM 10.75 51.35 0.035 6.71 6.49 10.82
10/29/2021 10:30:00 AM 10.78 51.404 0.035 6.72 6.51 10.84
10/29/2021 10:45:00 AM 10.83 51.494 0.035 6.74 6.5 10.88
10/29/2021 11:00:00 AM 10.87 51.566 0.035 6.75 6.35 10.87
10/29/2021 11:15:00 AM 10.93 51.674 0.035 6.78 6.48 10.87
10/29/2021 11:30:00 AM 11.02 51.836 0.035 6.79 6.67 10.89
10/29/2021 11:45:00 AM 11.09 51.962 0.035 6.79 7.46 10.88
10/29/2021 12:00:00 PM 11.09 51.962 0.035 6.77 6.27 10.84
10/29/2021 12:15:00 PM 11.09 51.962 0.035 6.77 6.53 10.85
10/29/2021 12:30:00 PM 11.1 51.98 0.035 6.77 6.59 10.82
10/29/2021 12:45:00 PM 11.16 52.088 0.035 6.8 6.91 10.83
10/29/2021 1:00:00 PM 11.21 52.178 0.035 6.79 6.58 10.84
10/29/2021 1:15:00 PM 11.3 52.34 0.035 6.83 6.34 10.83
10/29/2021 1:30:00 PM 11.31 52.358 0.035 6.81 6.52 10.81
10/29/2021 1:45:00 PM 11.33 52.394 0.035 6.8 6.61 10.8
10/29/2021 2:00:00 PM 11.33 52.394 0.035 6.79 6.53 10.76
10/29/2021 2:15:00 PM 11.35 52.43 0.035 6.77 6.51 10.72
10/29/2021 2:30:00 PM 11.35 52.43 0.035 6.77 6.64 10.7
10/29/2021 2:45:00 PM 11.33 52.394 0.035 6.74 6.57 10.62
10/29/2021 3:00:00 PM 11.31 52.358 0.035 6.74 6.32 10.58
10/29/2021 3:15:00 PM 11.27 52.286 0.035 6.71 6.83 10.53
10/29/2021 3:30:00 PM 11.25 52.25 0.035 6.7 6.4 10.53
10/29/2021 3:45:00 PM 11.23 52.214 0.035 6.69 7.03 10.51
10/29/2021 4:00:00 PM 11.22 52.196 0.035 6.68 6.7 10.48
10/29/2021 4:15:00 PM 11.2 52.16 0.035 6.67 7.6 10.44
10/29/2021 4:30:00 PM 11.21 52.178 0.035 6.67 6.31 10.47
10/29/2021 4:45:00 PM 11.21 52.178 0.035 6.68 6.69 10.46
10/29/2021 5:00:00 PM 11.21 52.178 0.035 6.66 7.54 10.41
10/29/2021 5:15:00 PM 11.2 52.16 0.036 6.66 6.76 10.36
10/29/2021 5:30:00 PM 11.18 52.124 0.036 6.65 6.4 10.32
10/29/2021 5:45:00 PM 11.16 52.088 0.036 6.64 6.23 10.29
10/29/2021 6:00:00 PM 11.14 52.052 0.036 6.65 7.92 10.27
10/29/2021 6:15:00 PM 11.11 51.998 0.036 6.63 6.79 10.26
10/29/2021 6:30:00 PM 11.08 51.944 0.036 6.62 5.83 10.25
10/29/2021 6:45:00 PM 11.05 51.89 0.036 6.61 5.98 10.26
10/29/2021 7:00:00 PM 11.02 51.836 0.036 6.61 6.45 10.25
10/29/2021 7:15:00 PM 10.99 51.782 0.036 6.63 6.63 10.26
10/29/2021 7:30:00 PM 10.97 51.746 0.036 6.62 6.72 10.26
10/29/2021 7:45:00 PM 10.94 51.692 0.036 6.6 6.75 10.27
10/29/2021 8:00:00 PM 10.91 51.638 0.036 6.61 7.47 10.28
10/29/2021 8:15:00 PM 10.88 51.584 0.036 6.59 4.75 10.3
10/29/2021 8:30:00 PM 10.82 51.476 0.036 6.6 6.48 10.31
10/29/2021 8:45:00 PM 10.79 51.422 0.036 6.6 7.25 10.33
10/29/2021 9:00:00 PM 10.75 51.35 0.036 6.61 6.94 10.34
10/29/2021 9:15:00 PM 10.69 51.242 0.037 6.62 9.61 10.38
10/29/2021 9:30:00 PM 10.64 51.152 0.04 6.66 14.72 10.41
10/29/2021 9:45:00 PM 10.62 51.116 0.045 6.74 36.33 10.42
10/29/2021 10:00:00 PM 10.58 51.044 0.049 6.84 81.75 10.47
10/29/2021 10:15:00 PM 10.56 51.008 0.052 6.84 95.65 10.49
10/29/2021 10:30:00 PM 10.53 50.954 0.048 6.87 84.2 10.51
10/29/2021 10:45:00 PM 10.51 50.918 0.045 6.84 77.45 10.53
10/29/2021 11:00:00 PM 10.5 50.9 0.044 6.82 50.48 10.52
10/29/2021 11:15:00 PM 10.5 50.9 0.043 6.77 41.13 10.52
10/29/2021 11:30:00 PM 10.49 50.882 0.041 6.79 39.5 10.53
10/29/2021 11:45:00 PM 10.49 50.882 0.039 6.74 38.31 10.54
10/30/2021 12:00:00 AM 10.48 50.864 0.037 6.71 38.41 10.55
10/30/2021 12:15:00 AM 10.46 50.828 0.036 6.69 37.51 10.55
10/30/2021 12:30:00 AM 10.45 50.81 0.035 6.67 32.7 10.55
10/30/2021 12:45:00 AM 10.44 50.792 0.035 6.66 38.23 10.56
10/30/2021 1:00:00 AM 10.44 50.792 0.035 6.66 43.27 10.56
10/30/2021 1:15:00 AM 10.43 50.774 0.034 6.63 31.77 10.56
10/30/2021 1:30:00 AM 10.43 50.774 0.034 6.62 27.64 10.55
10/30/2021 1:45:00 AM 10.43 50.774 0.034 6.6 25.99 10.55
10/30/2021 2:00:00 AM 10.44 50.792 0.033 6.59 23.17 10.55
10/30/2021 2:15:00 AM 10.45 50.81 0.033 6.59 22.71 10.54
10/30/2021 2:30:00 AM 10.46 50.828 0.033 6.59 20.2 10.54
10/30/2021 2:45:00 AM 10.47 50.846 0.033 6.59 19.15 10.53
10/30/2021 3:00:00 AM 10.48 50.864 0.033 6.58 22.11 10.53
10/30/2021 3:15:00 AM 10.49 50.882 0.033 6.58 19.82 10.53
10/30/2021 3:30:00 AM 10.5 50.9 0.033 6.58 15.7 10.52
10/30/2021 3:45:00 AM 10.51 50.918 0.033 6.59 15.07 10.52
10/30/2021 4:00:00 AM 10.52 50.936 0.032 6.59 15.8 10.51
10/30/2021 4:15:00 AM 10.53 50.954 0.034 6.6 13.27 10.51
10/30/2021 4:30:00 AM 10.54 50.972 0.034 6.63 12.88 10.5
10/30/2021 4:45:00 AM 10.54 50.972 0.034 6.62 12.44 10.5
10/30/2021 5:00:00 AM 10.55 50.99 0.034 6.62 12.57 10.5
10/30/2021 5:15:00 AM 10.55 50.99 0.034 6.63 11.29 10.49
10/30/2021 5:30:00 AM 10.55 50.99 0.034 6.63 11.57 10.5
10/30/2021 5:45:00 AM 10.55 50.99 0.034 6.63 11.39 10.5
10/30/2021 6:00:00 AM 10.55 50.99 0.034 6.63 11 10.5
10/30/2021 6:15:00 AM 10.54 50.972 0.034 6.66 10.93 10.5
10/30/2021 6:30:00 AM 10.54 50.972 0.034 6.63 10.54 10.5
10/30/2021 6:45:00 AM 10.54 50.972 0.034 6.63 10.78 10.5
10/30/2021 7:00:00 AM 10.54 50.972 0.034 6.62 10.43 10.5
10/30/2021 7:15:00 AM 10.54 50.972 0.034 6.62 9.91 10.5
10/30/2021 7:30:00 AM 10.54 50.972 0.034 6.61 10.81 10.5
10/30/2021 7:45:00 AM 10.54 50.972 0.034 6.61 11.43 10.5
10/30/2021 8:00:00 AM 10.54 50.972 0.034 6.6 9.64 10.5
10/30/2021 8:15:00 AM 10.54 50.972 0.034 6.6 13.02 10.5
10/30/2021 8:30:00 AM 10.54 50.972 0.034 6.59 11.35 10.51
10/30/2021 8:45:00 AM 10.55 50.99 0.033 6.58 9.76 10.51
10/30/2021 9:00:00 AM 10.56 51.008 0.033 6.59 9.96 10.52
10/30/2021 9:15:00 AM 10.57 51.026 0.033 6.58 13.69 10.52
10/30/2021 9:30:00 AM 10.58 51.044 0.033 6.57 11.09 10.52
10/30/2021 9:45:00 AM 10.59 51.062 0.033 6.59 7.72 10.53
10/30/2021 10:00:00 AM 10.61 51.098 0.033 6.58 7.95 10.53
10/30/2021 10:15:00 AM 10.63 51.134 0.033 6.6 7.82 10.53
10/30/2021 10:30:00 AM 10.64 51.152 0.033 6.57 7.67 10.53
10/30/2021 10:45:00 AM 10.66 51.188 0.033 6.57 7.6 10.53
10/30/2021 11:00:00 AM 10.67 51.206 0.032 6.52 7.79 10.52
10/30/2021 11:15:00 AM 10.69 51.242 0.032 6.52 7.17 10.52
10/30/2021 11:30:00 AM 10.7 51.26 0.032 6.55 6.96 10.51
10/30/2021 11:45:00 AM 10.73 51.314 0.033 6.55 6.96 10.51
10/30/2021 12:00:00 PM 10.75 51.35 0.033 6.59 7.54 10.5
10/30/2021 12:15:00 PM 10.78 51.404 0.033 6.6 7.85 10.51
10/30/2021 12:30:00 PM 10.81 51.458 0.034 6.61 8.54 10.5
10/30/2021 12:45:00 PM 10.84 51.512 0.034 6.61 8.83 10.5
10/30/2021 1:00:00 PM 10.87 51.566 0.034 6.59 9.08 10.49
10/30/2021 1:15:00 PM 10.9 51.62 0.034 6.64 9.15 10.49
10/30/2021 1:30:00 PM 10.93 51.674 0.033 6.58 9.48 10.5
10/30/2021 1:45:00 PM 10.96 51.728 0.033 6.58 9.11 10.49
10/30/2021 2:00:00 PM 10.99 51.782 0.033 6.6 8.81 10.49
10/30/2021 2:15:00 PM 11.02 51.836 0.032 6.56 9.64 10.49
10/30/2021 2:30:00 PM 11.04 51.872 0.032 6.57 9.04 10.46
10/30/2021 2:45:00 PM 11.07 51.926 0.033 6.55 576.15 10.45
10/30/2021 3:00:00 PM 11.1 51.98 0.031 6.54 9.59 10.44
10/30/2021 3:15:00 PM 11.14 52.052 0.031 6.56 9.64 10.43
10/30/2021 3:30:00 PM 11.17 52.106 0.031 6.56 8.95 10.42
10/30/2021 3:45:00 PM 11.21 52.178 0.031 6.56 8.89 10.42
10/30/2021 4:00:00 PM 11.23 52.214 0.028 6.52 10.09 10.4
10/30/2021 4:15:00 PM 11.24 52.232 0.028 6.56 9.91 10.39
10/30/2021 4:30:00 PM 11.25 52.25 0.028 6.52 9.68 10.39
10/30/2021 4:45:00 PM 11.28 52.304 0.028 6.52 9.4 10.4
10/30/2021 5:00:00 PM 11.31 52.358 0.028 6.52 9.36 10.4
10/30/2021 5:15:00 PM 11.33 52.394 0.028 6.53 9.71 10.39
10/30/2021 5:30:00 PM 11.34 52.412 0.03 6.51 12.28 10.37
10/30/2021 5:45:00 PM 11.34 52.412 0.03 6.53 150.63 10.36
10/30/2021 6:00:00 PM 11.34 52.412 0.03 6.5 30.25 10.34
10/30/2021 6:15:00 PM 11.33 52.394 0.03 6.49 9.67 10.33
10/30/2021 6:30:00 PM 11.32 52.376 0.03 6.47 8.2 10.33
10/30/2021 6:45:00 PM 11.31 52.358 0.03 6.47 8.19 10.32
10/30/2021 7:00:00 PM 11.3 52.34 0.03 6.46 8.33 10.31
10/30/2021 7:15:00 PM 11.29 52.322 0.03 6.47 37.13 10.32
10/30/2021 7:30:00 PM 11.28 52.304 0.03 6.46 10.14 10.32
10/30/2021 7:45:00 PM 11.27 52.286 0.028 6.46 7.48 10.32
10/30/2021 8:00:00 PM 11.26 52.268 0.03 6.44 7.29 10.33
10/30/2021 8:15:00 PM 11.25 52.25 0.03 6.47 7.24 10.32
10/30/2021 8:30:00 PM 11.24 52.232 0.03 6.44 6.75 10.33
10/30/2021 8:45:00 PM 11.23 52.214 0.03 6.44 6.84 10.33
10/30/2021 9:00:00 PM 11.21 52.178 0.03 6.44 6.72 10.34
10/30/2021 9:15:00 PM 11.2 52.16 0.03 6.44 6.37 10.34
10/30/2021 9:30:00 PM 11.18 52.124 0.03 6.44 6.72 10.35
10/30/2021 9:45:00 PM 11.16 52.088 0.03 6.47 6.31 10.35
10/30/2021 10:00:00 PM 11.14 52.052 0.03 6.44 6.57 10.35
10/30/2021 10:15:00 PM 11.13 52.034 0.03 6.45 6.28 10.36
10/30/2021 10:30:00 PM 11.11 51.998 0.03 6.44 6.18 10.36
10/30/2021 10:45:00 PM 11.09 51.962 0.03 6.43 6.45 10.36
10/30/2021 11:00:00 PM 11.08 51.944 0.03 6.45 5.97 10.36
10/30/2021 11:15:00 PM 11.06 51.908 0.03 6.45 6.12 10.36
10/30/2021 11:30:00 PM 11.04 51.872 0.03 6.43 6.08 10.37
10/30/2021 11:45:00 PM 11.02 51.836 0.03 6.46 6.04 10.37
10/31/2021 12:00:00 AM 11 51.8 0.03 6.44 5.89 10.38
10/31/2021 12:15:00 AM 10.98 51.764 0.03 6.43 5.94 10.38
10/31/2021 12:30:00 AM 10.97 51.746 0.03 6.44 5.88 10.38
10/31/2021 12:45:00 AM 10.96 51.728 0.03 6.44 6.11 10.38
10/31/2021 1:00:00 AM 10.94 51.692 0.03 6.43 6.63 10.38
10/31/2021 1:15:00 AM 10.92 51.656 0.03 6.42 6.02 10.38
10/31/2021 1:30:00 AM 10.91 51.638 0.03 6.4 5.69 10.39
10/31/2021 1:45:00 AM 10.89 51.602 0.03 6.42 5.54 10.39
10/31/2021 2:00:00 AM 10.88 51.584 0.03 6.41 5.54 10.39
10/31/2021 2:15:00 AM 10.86 51.548 0.03 6.39 5.24 10.39
10/31/2021 2:30:00 AM 10.84 51.512 0.03 6.39 5.5 10.4
10/31/2021 2:45:00 AM 10.82 51.476 0.03 6.39 5.22 10.39
10/31/2021 3:00:00 AM 10.8 51.44 0.03 6.42 5.04 10.4
10/31/2021 3:15:00 AM 10.79 51.422 0.03 6.4 5.37 10.41
10/31/2021 3:30:00 AM 10.78 51.404 0.03 6.4 5.25 10.4
10/31/2021 3:45:00 AM 10.76 51.368 0.03 6.4 5.23 10.4
10/31/2021 4:00:00 AM 10.75 51.35 0.03 6.39 5.08 10.41
10/31/2021 4:15:00 AM 10.74 51.332 0.03 6.42 5.03 10.4
10/31/2021 4:30:00 AM 10.73 51.314 0.03 6.41 5.11 10.41
10/31/2021 4:45:00 AM 10.72 51.296 0.03 6.4 5.1 10.41
10/31/2021 5:00:00 AM 10.71 51.278 0.03 6.4 5.18 10.41
10/31/2021 5:15:00 AM 10.7 51.26 0.03 6.42 5.17 10.43
10/31/2021 5:30:00 AM 10.68 51.224 0.03 6.4 4.95 10.42
10/31/2021 5:45:00 AM 10.67 51.206 0.03 6.4 4.96 10.43
10/31/2021 6:00:00 AM 10.64 51.152 0.03 6.4 4.89 10.44
10/31/2021 6:15:00 AM 10.61 51.098 0.03 6.41 4.71 10.44
10/31/2021 6:30:00 AM 10.59 51.062 0.03 6.39 4.77 10.45
10/31/2021 6:45:00 AM 10.57 51.026 0.03 6.4 4.96 10.45
10/31/2021 7:00:00 AM 10.56 51.008 0.03 6.39 5.08 10.46
10/31/2021 7:15:00 AM 10.55 50.99 0.03 6.39 4.81 10.47
10/31/2021 7:30:00 AM 10.55 50.99 0.03 6.4 4.76 10.46
10/31/2021 7:45:00 AM 10.54 50.972 0.03 6.39 4.46 10.47
10/31/2021 8:00:00 AM 10.54 50.972 0.03 6.41 4.47 10.48
10/31/2021 8:15:00 AM 10.54 50.972 0.03 6.44 4.32 10.49
10/31/2021 8:30:00 AM 10.54 50.972 0.03 6.42 4.55 10.51
10/31/2021 8:45:00 AM 10.55 50.99 0.03 6.42 4.34 10.51
10/31/2021 9:00:00 AM 10.57 51.026 0.03 6.41 4.19 10.53
10/31/2021 9:15:00 AM 10.59 51.062 0.03 6.44 4.27 10.55
10/31/2021 9:30:00 AM 10.62 51.116 0.03 6.44 4.16 10.55
10/31/2021 9:45:00 AM 10.64 51.152 0.03 6.47 4.18 10.55
10/31/2021 10:00:00 AM 10.66 51.188 0.03 6.45 4.18 10.54
10/31/2021 10:15:00 AM 10.68 51.224 0.03 6.47 4.02 10.54
10/31/2021 10:30:00 AM 10.71 51.278 0.03 6.46 4.14 10.54
10/31/2021 10:45:00 AM 10.74 51.332 0.03 6.47 4.24 10.54
10/31/2021 11:00:00 AM 10.77 51.386 0.03 6.49 3.97 10.55
10/31/2021 11:15:00 AM 10.83 51.494 0.03 6.49 4.06 10.57
10/31/2021 11:30:00 AM 10.89 51.602 0.03 6.49 3.98 10.58
10/31/2021 11:45:00 AM 10.96 51.728 0.03 6.5 3.9 10.59
10/31/2021 12:00:00 PM 11.03 51.854 0.03 6.52 3.71 10.58
10/31/2021 12:15:00 PM 11.07 51.926 0.03 6.51 3.91 10.54
10/31/2021 12:30:00 PM 11.16 52.088 0.03 6.54 3.92 10.55
10/31/2021 12:45:00 PM 11.25 52.25 0.03 6.53 3.74 10.53
10/31/2021 1:00:00 PM 11.27 52.286 0.03 6.54 3.8 10.49
10/31/2021 1:15:00 PM 11.41 52.538 0.03 6.53 3.87 10.49
10/31/2021 1:30:00 PM 11.48 52.664 0.03 6.54 3.78 10.47
10/31/2021 1:45:00 PM 11.49 52.682 0.031 6.52 3.96 10.43
10/31/2021 2:00:00 PM 11.54 52.772 0.031 6.54 3.66 10.42
10/31/2021 2:15:00 PM 11.6 52.88 0.031 6.56 3.74 10.42
10/31/2021 2:30:00 PM 11.66 52.988 0.031 6.54 3.75 10.42
10/31/2021 2:45:00 PM 11.71 53.078 0.031 6.54 3.82 10.41
10/31/2021 3:00:00 PM 11.78 53.204 0.031 6.54 3.75 10.41
10/31/2021 3:15:00 PM 11.83 53.294 0.031 6.55 3.69 10.37
10/31/2021 3:30:00 PM 11.89 53.402 0.031 6.56 3.67 10.37
10/31/2021 3:45:00 PM 11.92 53.456 0.031 6.54 3.76 10.36
10/31/2021 4:00:00 PM 11.92 53.456 0.031 6.54 3.82 10.35
10/31/2021 4:15:00 PM 11.9 53.42 0.031 6.53 3.82 10.33
10/31/2021 4:30:00 PM 11.89 53.402 0.031 6.51 3.75 10.31
10/31/2021 4:45:00 PM 11.91 53.438 0.031 6.52 3.68 10.3
10/31/2021 5:00:00 PM 11.91 53.438 0.031 6.51 3.73 10.3
10/31/2021 5:15:00 PM 11.89 53.402 0.031 6.5 3.73 10.3
10/31/2021 5:30:00 PM 11.87 53.366 0.031 6.47 3.67 10.27
10/31/2021 5:45:00 PM 11.84 53.312 0.031 6.49 3.67 10.24
10/31/2021 6:00:00 PM 11.8 53.24 0.031 6.47 3.72 10.22
10/31/2021 6:15:00 PM 11.76 53.168 0.031 6.45 3.83 10.21
10/31/2021 6:30:00 PM 11.73 53.114 0.031 6.46 3.73 10.21
10/31/2021 6:45:00 PM 11.69 53.042 0.031 6.44 3.7 10.22
10/31/2021 7:00:00 PM 11.66 52.988 0.031 6.42 3.81 10.22
10/31/2021 7:15:00 PM 11.64 52.952 0.031 6.43 3.68 10.23
10/31/2021 7:30:00 PM 11.62 52.916 0.031 6.44 3.66 10.23
10/31/2021 7:45:00 PM 11.6 52.88 0.031 6.42 3.8 10.24
10/31/2021 8:00:00 PM 11.59 52.862 0.031 6.44 3.65 10.25
10/31/2021 8:15:00 PM 11.56 52.808 0.031 6.43 3.63 10.25
10/31/2021 8:30:00 PM 11.52 52.736 0.031 6.42 3.67 10.26
10/31/2021 8:45:00 PM 11.48 52.664 0.031 6.41 3.52 10.27
10/31/2021 9:00:00 PM 11.44 52.592 0.031 6.42 3.67 10.28
10/31/2021 9:15:00 PM 11.41 52.538 0.031 6.44 3.67 10.29
10/31/2021 9:30:00 PM 11.38 52.484 0.031 6.4 3.54 10.3
10/31/2021 9:45:00 PM 11.34 52.412 0.031 6.41 3.6 10.31
10/31/2021 10:00:00 PM 11.3 52.34 0.031 6.4 3.53 10.32
10/31/2021 10:15:00 PM 11.27 52.286 0.031 6.41 3.62 10.33
10/31/2021 10:30:00 PM 11.22 52.196 0.032 6.39 3.48 10.34
10/31/2021 10:45:00 PM 11.18 52.124 0.032 6.41 3.53 10.35
10/31/2021 11:00:00 PM 11.14 52.052 0.032 6.43 3.45 10.36
10/31/2021 11:15:00 PM 11.1 51.98 0.032 6.41 3.38 10.38
10/31/2021 11:30:00 PM 11.05 51.89 0.032 6.39 3.43 10.39
10/31/2021 11:45:00 PM 11.01 51.818 0.032 6.41 3.55 10.4
11/1/2021 12:00:00 AM 10.96 51.728 0.032 6.39 3.41 10.42
11/1/2021 12:15:00 AM 10.92 51.656 0.032 6.39 3.42 10.43
11/1/2021 12:30:00 AM 10.88 51.584 0.032 6.42 3.44 10.44
11/1/2021 12:45:00 AM 10.84 51.512 0.032 6.4 3.29 10.44
11/1/2021 1:00:00 AM 10.8 51.44 0.032 6.42 3.4 10.46
11/1/2021 1:15:00 AM 10.78 51.404 0.032 6.41 3.4 10.47
11/1/2021 1:30:00 AM 10.74 51.332 0.032 6.41 3.47 10.48
11/1/2021 1:45:00 AM 10.71 51.278 0.032 6.42 3.54 10.49
11/1/2021 2:00:00 AM 10.68 51.224 0.032 6.4 3.42 10.49
11/1/2021 2:15:00 AM 10.64 51.152 0.032 6.43 3.27 10.51
11/1/2021 2:30:00 AM 10.6 51.08 0.032 6.4 3.23 10.52
11/1/2021 2:45:00 AM 10.55 50.99 0.032 6.41 3.25 10.53
11/1/2021 3:00:00 AM 10.51 50.918 0.032 6.41 3.27 10.54
11/1/2021 3:15:00 AM 10.47 50.846 0.032 6.42 3.22 10.56
11/1/2021 3:30:00 AM 10.42 50.756 0.032 6.39 3.21 10.56
11/1/2021 3:45:00 AM 10.38 50.684 0.032 6.41 3.15 10.58
11/1/2021 4:00:00 AM 10.34 50.612 0.032 6.4 3.19 10.59
11/1/2021 4:15:00 AM 10.31 50.558 0.032 6.4 3.18 10.6
11/1/2021 4:30:00 AM 10.29 50.522 0.032 6.41 3.15 10.61
11/1/2021 4:45:00 AM 10.26 50.468 0.032 6.42 3.26 10.62
11/1/2021 5:00:00 AM 10.23 50.414 0.032 6.4 3.25 10.64
11/1/2021 5:15:00 AM 10.21 50.378 0.032 6.42 3.15 10.64
11/1/2021 5:30:00 AM 10.17 50.306 0.032 6.44 3.1 10.65
11/1/2021 5:45:00 AM 10.14 50.252 0.032 6.41 3.03 10.67
11/1/2021 6:00:00 AM 10.13 50.234 0.032 6.42 3.09 10.67
11/1/2021 6:15:00 AM 10.12 50.216 0.032 6.43 3.08 10.68
11/1/2021 6:30:00 AM 10.12 50.216 0.032 6.45 3 10.68
11/1/2021 6:45:00 AM 10.12 50.216 0.032 6.45 3.05 10.68
11/1/2021 7:00:00 AM 10.12 50.216 0.032 6.44 3.09 10.69
11/1/2021 7:15:00 AM 10.13 50.234 0.032 6.45 3.08 10.69
11/1/2021 7:30:00 AM 10.12 50.216 0.032 6.45 3.07 10.69
11/1/2021 7:45:00 AM 10.12 50.216 0.032 6.48 3.01 10.7
11/1/2021 8:00:00 AM 10.1 50.18 0.032 6.44 2.93 10.72
11/1/2021 8:15:00 AM 10.09 50.162 0.032 6.47 2.89 10.74
11/1/2021 8:30:00 AM 10.09 50.162 0.032 6.46 2.85 10.77
11/1/2021 8:45:00 AM 10.09 50.162 0.032 6.45 2.83 10.79
11/1/2021 9:00:00 AM 10.07 50.126 0.032 6.47 2.86 10.8
11/1/2021 9:15:00 AM 10.07 50.126 0.032 6.48 2.9 10.84
11/1/2021 9:30:00 AM 10.09 50.162 0.032 6.52 2.87 10.88
11/1/2021 9:45:00 AM 10.09 50.162 0.032 6.51 2.93 10.89
11/1/2021 10:00:00 AM 10.11 50.198 0.032 6.51 2.81 10.91
11/1/2021 10:15:00 AM 10.14 50.252 0.032 6.51 2.86 10.92
11/1/2021 10:30:00 AM 10.16 50.288 0.032 6.51 2.85 10.93
11/1/2021 10:45:00 AM 10.19 50.342 0.032 6.52 2.77 10.94
11/1/2021 11:00:00 AM 10.21 50.378 0.032 6.53 2.82 10.94
11/1/2021 11:15:00 AM 10.26 50.468 0.032 6.55 2.76 10.94
11/1/2021 11:30:00 AM 10.29 50.522 0.032 6.56 2.71 10.95
11/1/2021 11:45:00 AM 10.31 50.558 0.032 6.54 2.66 10.97
11/1/2021 12:00:00 PM 10.37 50.666 0.032 6.57 2.71 10.96
11/1/2021 12:15:00 PM 10.43 50.774 0.032 6.57 2.71 10.96
11/1/2021 12:30:00 PM 10.48 50.864 0.032 6.56 2.8 10.95
11/1/2021 12:45:00 PM 10.56 51.008 0.032 6.59 2.82 10.93
11/1/2021 1:00:00 PM 10.65 51.17 0.032 6.58 2.73 10.92
11/1/2021 1:15:00 PM 10.69 51.242 0.032 6.58 2.74 10.9
11/1/2021 1:30:00 PM 10.7 51.26 0.032 6.58 3.66 10.88
11/1/2021 1:45:00 PM 10.72 51.296 0.032 6.57 2.73 10.89
11/1/2021 2:00:00 PM 10.76 51.368 0.032 6.58 2.69 10.89
11/1/2021 2:15:00 PM 10.75 51.35 0.032 6.58 2.71 10.88
11/1/2021 2:30:00 PM 10.73 51.314 0.032 6.58 2.72 10.89
11/1/2021 2:45:00 PM 10.72 51.296 0.032 6.57 2.71 10.88
11/1/2021 3:00:00 PM 10.71 51.278 0.032 6.56 2.59 10.85
11/1/2021 3:15:00 PM 10.72 51.296 0.032 6.56 2.69 10.84
11/1/2021 3:30:00 PM 10.76 51.368 0.032 6.57 2.53 10.85
11/1/2021 3:45:00 PM 10.77 51.386 0.033 6.56 2.71 10.83
11/1/2021 4:00:00 PM 10.79 51.422 0.033 6.56 2.76 10.8
11/1/2021 4:15:00 PM 10.78 51.404 0.033 6.55 2.63 10.78
11/1/2021 4:30:00 PM 10.75 51.35 0.033 6.55 2.62 10.76
11/1/2021 4:45:00 PM 10.72 51.296 0.033 6.54 2.66 10.73
11/1/2021 5:00:00 PM 10.68 51.224 0.033 6.52 2.65 10.71
11/1/2021 5:15:00 PM 10.66 51.188 0.033 6.51 2.71 10.7
11/1/2021 5:30:00 PM 10.64 51.152 0.033 6.52 2.69 10.69
11/1/2021 5:45:00 PM 10.62 51.116 0.033 6.5 2.62 10.67
11/1/2021 6:00:00 PM 10.6 51.08 0.033 6.5 2.67 10.64
11/1/2021 6:15:00 PM 10.58 51.044 0.033 6.5 2.64 10.63
11/1/2021 6:30:00 PM 10.55 50.99 0.033 6.45 2.66 10.62
11/1/2021 6:45:00 PM 10.51 50.918 0.033 6.45 2.7 10.62
11/1/2021 7:00:00 PM 10.48 50.864 0.033 6.44 2.79 10.62
11/1/2021 7:15:00 PM 10.43 50.774 0.033 6.44 2.75 10.63
11/1/2021 7:30:00 PM 10.39 50.702 0.033 6.44 2.78 10.64
11/1/2021 7:45:00 PM 10.34 50.612 0.033 6.44 2.79 10.66
11/1/2021 8:00:00 PM 10.28 50.504 0.033 6.43 2.67 10.68
11/1/2021 8:15:00 PM 10.23 50.414 0.033 6.44 2.65 10.69
11/1/2021 8:30:00 PM 10.17 50.306 0.033 6.44 2.84 10.71
11/1/2021 8:45:00 PM 10.12 50.216 0.033 6.43 2.67 10.72
11/1/2021 9:00:00 PM 10.06 50.108 0.033 6.44 2.69 10.74
11/1/2021 9:15:00 PM 10.01 50.018 0.033 6.44 2.7 10.76
11/1/2021 9:30:00 PM 9.95 49.91 0.033 6.44 2.62 10.77
11/1/2021 9:45:00 PM 9.9 49.82 0.033 6.43 2.63 10.79
11/1/2021 10:00:00 PM 9.85 49.73 0.033 6.43 2.67 10.81
11/1/2021 10:15:00 PM 9.8 49.64 0.033 6.45 2.64 10.83
11/1/2021 10:30:00 PM 9.75 49.55 0.033 6.45 2.72 10.83
11/1/2021 10:45:00 PM 9.7 49.46 0.033 6.42 2.69 10.85
11/1/2021 11:00:00 PM 9.66 49.388 0.033 6.43 2.6 10.86
11/1/2021 11:15:00 PM 9.61 49.298 0.033 6.44 2.62 10.87
11/1/2021 11:30:00 PM 9.58 49.244 0.033 6.45 2.68 10.88
11/1/2021 11:45:00 PM 9.55 49.19 0.033 6.44 2.61 10.89
11/2/2021 12:00:00 AM 9.51 49.118 0.033 6.44 2.62 10.9
11/2/2021 12:15:00 AM 9.48 49.064 0.033 6.45 2.57 10.91
11/2/2021 12:30:00 AM 9.44 48.992 0.033 6.46 2.5 10.92
11/2/2021 12:45:00 AM 9.42 48.956 0.033 6.45 2.47 10.93
11/2/2021 1:00:00 AM 9.4 48.92 0.034 6.43 2.48 10.94
11/2/2021 1:15:00 AM 9.38 48.884 0.034 6.45 2.52 10.95
11/2/2021 1:30:00 AM 9.36 48.848 0.034 6.46 2.52 10.95
11/2/2021 1:45:00 AM 9.34 48.812 0.034 6.45 2.52 10.95
11/2/2021 2:00:00 AM 9.33 48.794 0.034 6.45 2.48 10.96
11/2/2021 2:15:00 AM 9.31 48.758 0.034 6.46 2.52 10.97
11/2/2021 2:30:00 AM 9.3 48.74 0.034 6.46 2.52 10.97
11/2/2021 2:45:00 AM 9.29 48.722 0.034 6.47 2.45 10.97
11/2/2021 3:00:00 AM 9.27 48.686 0.034 6.46 2.59 10.97
11/2/2021 3:15:00 AM 9.26 48.668 0.034 6.45 2.58 10.98
11/2/2021 3:30:00 AM 9.25 48.65 0.034 6.48 2.51 10.98
11/2/2021 3:45:00 AM 9.23 48.614 0.034 6.46 2.52 10.98
11/2/2021 4:00:00 AM 9.22 48.596 0.034 6.48 2.43 10.99
11/2/2021 4:15:00 AM 9.21 48.578 0.034 6.46 2.54 10.99
11/2/2021 4:30:00 AM 9.2 48.56 0.034 6.47 2.51 10.99
11/2/2021 4:45:00 AM 9.19 48.542 0.034 6.46 2.52 10.99
11/2/2021 5:00:00 AM 9.17 48.506 0.034 6.47 2.56 11
11/2/2021 5:15:00 AM 9.16 48.488 0.034 6.46 2.55 11.01
11/2/2021 5:30:00 AM 9.15 48.47 0.034 6.46 2.55 11
11/2/2021 5:45:00 AM 9.14 48.452 0.034 6.47 2.41 11.01
11/2/2021 6:00:00 AM 9.12 48.416 0.034 6.46 2.45 11.02
11/2/2021 6:15:00 AM 9.11 48.398 0.034 6.47 2.47 11.02
11/2/2021 6:30:00 AM 9.1 48.38 0.034 6.47 2.43 11.02
11/2/2021 6:45:00 AM 9.09 48.362 0.034 6.46 2.4 11.03
11/2/2021 7:00:00 AM 9.08 48.344 0.034 6.47 2.41 11.03
11/2/2021 7:15:00 AM 9.07 48.326 0.034 6.49 2.59 11.03
11/2/2021 7:30:00 AM 9.05 48.29 0.034 6.48 2.46 11.04
11/2/2021 7:45:00 AM 9.04 48.272 0.034 6.45 3.32 11.05
11/2/2021 8:00:00 AM 9.03 48.254 0.034 6.47 2.41 11.06
11/2/2021 8:15:00 AM 9.03 48.254 0.034 6.47 2.36 11.08
11/2/2021 8:30:00 AM 9.02 48.236 0.034 6.47 2.42 11.12
11/2/2021 8:45:00 AM 9.03 48.254 0.034 6.48 2.36 11.15
11/2/2021 9:00:00 AM 9.04 48.272 0.034 6.51 2.31 11.17
11/2/2021 9:15:00 AM 9.04 48.272 0.034 6.5 2.42 11.19
11/2/2021 9:30:00 AM 9.07 48.326 0.034 6.52 2.38 11.23
11/2/2021 9:45:00 AM 9.09 48.362 0.034 6.53 2.44 11.25
11/2/2021 10:00:00 AM 9.12 48.416 0.034 6.57 2.36 11.28
11/2/2021 10:15:00 AM 9.15 48.47 0.034 6.56 2.44 11.28
11/2/2021 10:30:00 AM 9.18 48.524 0.034 6.57 2.44 11.3
11/2/2021 10:45:00 AM 9.24 48.632 0.034 6.58 2.38 11.31
11/2/2021 11:00:00 AM 9.29 48.722 0.034 6.59 2.38 11.32
11/2/2021 11:15:00 AM 9.34 48.812 0.034 6.6 2.42 11.32
11/2/2021 11:30:00 AM 9.39 48.902 0.034 6.6 2.4 11.31
11/2/2021 11:45:00 AM 9.46 49.028 0.034 6.62 2.45 11.3
11/2/2021 12:00:00 PM 9.51 49.118 0.034 6.63 2.36 11.29
11/2/2021 12:15:00 PM 9.54 49.172 0.034 6.62 2.28 11.26
11/2/2021 12:30:00 PM 9.58 49.244 0.034 6.62 2.36 11.25
11/2/2021 12:45:00 PM 9.61 49.298 0.034 6.62 2.38 11.22
11/2/2021 1:00:00 PM 9.62 49.316 0.034 6.61 2.45 11.2
11/2/2021 1:15:00 PM 9.63 49.334 0.034 6.6 2.26 11.19
11/2/2021 1:30:00 PM 9.66 49.388 0.034 6.6 2.28 11.18
11/2/2021 1:45:00 PM 9.69 49.442 0.034 6.61 2.29 11.18
11/2/2021 2:00:00 PM 9.71 49.478 0.034 6.62 2.32 11.17
11/2/2021 2:15:00 PM 9.73 49.514 0.034 6.6 2.27 11.16
11/2/2021 2:30:00 PM 9.75 49.55 0.034 6.61 2.36 11.15
11/2/2021 2:45:00 PM 9.78 49.604 0.034 6.61 2.34 11.16
11/2/2021 3:00:00 PM 9.82 49.676 0.034 6.61 2.39 11.16
11/2/2021 3:15:00 PM 9.84 49.712 0.034 6.64 2.33 11.14
11/2/2021 3:30:00 PM 9.85 49.73 0.034 6.62 2.28 11.13
11/2/2021 3:45:00 PM 9.86 49.748 0.034 6.61 2.31 11.12
11/2/2021 4:00:00 PM 9.88 49.784 0.034 6.62 2.3 11.11
11/2/2021 4:15:00 PM 9.89 49.802 0.034 6.62 2.36 11.1
11/2/2021 4:30:00 PM 9.88 49.784 0.034 6.62 2.36 11.06
11/2/2021 4:45:00 PM 9.86 49.748 0.034 6.59 2.26 10.99
11/2/2021 5:00:00 PM 9.84 49.712 0.034 6.56 2.39 10.93
11/2/2021 5:15:00 PM 9.82 49.676 0.034 6.58 2.33 10.92
11/2/2021 5:30:00 PM 9.79 49.622 0.034 6.55 2.31 10.93
11/2/2021 5:45:00 PM 9.76 49.568 0.034 6.52 2.37 10.91
11/2/2021 6:00:00 PM 9.72 49.496 0.034 6.53 2.31 10.88
11/2/2021 6:15:00 PM 9.68 49.424 0.035 6.51 2.29 10.87
11/2/2021 6:30:00 PM 9.65 49.37 0.035 6.52 2.38 10.87
11/2/2021 6:45:00 PM 9.62 49.316 0.035 6.51 2.39 10.87
11/2/2021 7:00:00 PM 9.57 49.226 0.035 6.5 2.38 10.88
11/2/2021 7:15:00 PM 9.52 49.136 0.035 6.5 2.29 10.89
11/2/2021 7:30:00 PM 9.47 49.046 0.035 6.49 2.34 10.9
11/2/2021 7:45:00 PM 9.43 48.974 0.035 6.48 2.4 10.91
11/2/2021 8:00:00 PM 9.39 48.902 0.035 6.5 2.39 10.92
11/2/2021 8:15:00 PM 9.33 48.794 0.035 6.47 2.29 10.94
11/2/2021 8:30:00 PM 9.28 48.704 0.035 6.49 2.43 10.95
11/2/2021 8:45:00 PM 9.24 48.632 0.035 6.48 2.38 10.97
11/2/2021 9:00:00 PM 9.2 48.56 0.035 6.49 2.3 10.98
11/2/2021 9:15:00 PM 9.16 48.488 0.035 6.47 2.4 10.99
11/2/2021 9:30:00 PM 9.12 48.416 0.035 6.5 2.44 11
11/2/2021 9:45:00 PM 9.08 48.344 0.035 6.48 2.42 11.01
11/2/2021 10:00:00 PM 9.05 48.29 0.035 6.5 2.37 11.02
11/2/2021 10:15:00 PM 9.01 48.218 0.035 6.48 2.32 11.04
11/2/2021 10:30:00 PM 8.98 48.164 0.035 6.47 2.31 11.05
11/2/2021 10:45:00 PM 8.94 48.092 0.035 6.48 2.34 11.06
11/2/2021 11:00:00 PM 8.9 48.02 0.035 6.48 2.29 11.07
11/2/2021 11:15:00 PM 8.86 47.948 0.035 6.5 2.33 11.07
11/2/2021 11:30:00 PM 8.82 47.876 0.035 6.48 2.41 11.08
11/2/2021 11:45:00 PM 8.77 47.786 0.035 6.47 2.28 11.1
11/3/2021 12:00:00 AM 8.72 47.696 0.035 6.48 2.26 11.11
11/3/2021 12:15:00 AM 8.67 47.606 0.035 6.5 2.21 11.13
11/3/2021 12:30:00 AM 8.61 47.498 0.035 6.48 2.33 11.14
11/3/2021 12:45:00 AM 8.56 47.408 0.035 6.46 2.27 11.16
11/3/2021 1:00:00 AM 8.51 47.318 0.035 6.47 2.23 11.17
11/3/2021 1:15:00 AM 8.46 47.228 0.035 6.49 2.36 11.18
11/3/2021 1:30:00 AM 8.4 47.12 0.035 6.47 2.25 11.2
11/3/2021 1:45:00 AM 8.36 47.048 0.035 6.47 2.34 11.21
11/3/2021 2:00:00 AM 8.3 46.94 0.035 6.49 2.27 11.22
11/3/2021 2:15:00 AM 8.25 46.85 0.035 6.48 2.22 11.24
11/3/2021 2:30:00 AM 8.2 46.76 0.035 6.48 2.15 11.27
11/3/2021 2:45:00 AM 8.15 46.67 0.035 6.47 2.15 11.28
11/3/2021 3:00:00 AM 8.11 46.598 0.035 6.47 2.13 11.29
11/3/2021 3:15:00 AM 8.06 46.508 0.035 6.47 2.14 11.32
11/3/2021 3:30:00 AM 8.01 46.418 0.035 6.48 2.14 11.32
11/3/2021 3:45:00 AM 7.97 46.346 0.035 6.48 2.17 11.34
11/3/2021 4:00:00 AM 7.93 46.274 0.035 6.47 2.19 11.35
11/3/2021 4:15:00 AM 7.9 46.22 0.035 6.46 2.18 11.37
11/3/2021 4:30:00 AM 7.87 46.166 0.035 6.49 2.23 11.38
11/3/2021 4:45:00 AM 7.83 46.094 0.035 6.49 2.12 11.38
11/3/2021 5:00:00 AM 7.79 46.022 0.035 6.48 2.16 11.38
11/3/2021 5:15:00 AM 7.76 45.968 0.035 6.49 2.12 11.41
11/3/2021 5:30:00 AM 7.72 45.896 0.035 6.48 2.14 11.41
11/3/2021 5:45:00 AM 7.68 45.824 0.035 6.49 2.2 11.43
11/3/2021 6:00:00 AM 7.64 45.752 0.035 6.49 2.14 11.44
11/3/2021 6:15:00 AM 7.61 45.698 0.035 6.48 2.12 11.45
11/3/2021 6:30:00 AM 7.57 45.626 0.035 6.49 2.15 11.46
11/3/2021 6:45:00 AM 7.54 45.572 0.035 6.5 2.17 11.47
11/3/2021 7:00:00 AM 7.5 45.5 0.035 6.48 2.17 11.48
11/3/2021 7:15:00 AM 7.47 45.446 0.035 6.48 2.14 11.49
11/3/2021 7:30:00 AM 7.43 45.374 0.035 6.47 2.13 11.5
11/3/2021 7:45:00 AM 7.41 45.338 0.035 6.49 2.07 11.51
11/3/2021 8:00:00 AM 7.38 45.284 0.035 6.5 2.1 11.54
11/3/2021 8:15:00 AM 7.35 45.23 0.035 6.5 2.08 11.57
11/3/2021 8:30:00 AM 7.33 45.194 0.035 6.5 2.04 11.61
11/3/2021 8:45:00 AM 7.32 45.176 0.035 6.51 2.12 11.67
11/3/2021 9:00:00 AM 7.3 45.14 0.035 6.55 2.01 11.7
11/3/2021 9:15:00 AM 7.29 45.122 0.035 6.53 2.12 11.72
11/3/2021 9:30:00 AM 7.3 45.14 0.035 6.53 2 11.74
11/3/2021 9:45:00 AM 7.31 45.158 0.035 6.57 2.09 11.76
11/3/2021 10:00:00 AM 7.33 45.194 0.035 6.55 2.04 11.77
11/3/2021 10:15:00 AM 7.37 45.266 0.035 6.58 2.02 11.78
11/3/2021 10:30:00 AM 7.43 45.374 0.035 6.59 2.13 11.81
11/3/2021 10:45:00 AM 7.48 45.464 0.035 6.59 2.03 11.81
11/3/2021 11:00:00 AM 7.59 45.662 0.035 6.6 2.07 11.82
11/3/2021 11:15:00 AM 7.69 45.842 0.035 6.62 2.02 11.82
11/3/2021 11:30:00 AM 7.73 45.914 0.035 6.63 2.06 11.8
11/3/2021 11:45:00 AM 7.81 46.058 0.035 6.64 2.09 11.8
11/3/2021 12:00:00 PM 7.84 46.112 0.035 6.63 2.04 11.79
11/3/2021 12:15:00 PM 7.92 46.256 0.035 6.65 2.01 11.78
11/3/2021 12:30:00 PM 7.93 46.274 0.035 6.64 1.98 11.76
11/3/2021 12:45:00 PM 7.95 46.31 0.035 6.63 1.98 11.76
11/3/2021 1:00:00 PM 7.97 46.346 0.035 6.63 2.02 11.77
11/3/2021 1:15:00 PM 7.99 46.382 0.035 6.63 2.05 11.75
11/3/2021 1:30:00 PM 8.04 46.472 0.035 6.63 2.08 11.73
11/3/2021 1:45:00 PM 8.08 46.544 0.035 6.64 1.96 11.73
11/3/2021 2:00:00 PM 8.12 46.616 0.035 6.63 1.96 11.7
11/3/2021 2:15:00 PM 8.23 46.814 0.035 6.65 2.03 11.69
11/3/2021 2:30:00 PM 8.26 46.868 0.035 6.65 1.95 11.66
11/3/2021 2:45:00 PM 8.28 46.904 0.035 6.65 2 11.64
11/3/2021 3:00:00 PM 8.34 47.012 0.035 6.68 1.94 11.62
11/3/2021 3:15:00 PM 8.42 47.156 0.035 6.65 1.96 11.62
11/3/2021 3:30:00 PM 8.4 47.12 0.035 6.63 2.06 11.58
11/3/2021 3:45:00 PM 8.4 47.12 0.035 6.63 1.94 11.54
11/3/2021 4:00:00 PM 8.36 47.048 0.035 6.63 1.98 11.53
11/3/2021 4:15:00 PM 8.35 47.03 0.035 6.61 2.02 11.51
11/3/2021 4:30:00 PM 8.33 46.994 0.035 6.61 1.96 11.49
11/3/2021 4:45:00 PM 8.29 46.922 0.035 6.59 2.04 11.49
11/3/2021 5:00:00 PM 8.26 46.868 0.035 6.59 1.96 11.49
11/3/2021 5:15:00 PM 8.23 46.814 0.036 6.58 1.97 11.46
11/3/2021 5:30:00 PM 8.22 46.796 0.036 6.57 2.03 11.43
11/3/2021 5:45:00 PM 8.21 46.778 0.036 6.57 2.03 11.39
11/3/2021 6:00:00 PM 8.19 46.742 0.036 6.57 1.97 11.36
11/3/2021 6:15:00 PM 8.16 46.688 0.036 6.54 1.98 11.36
11/3/2021 6:30:00 PM 8.12 46.616 0.036 6.53 1.99 11.32
11/3/2021 6:45:00 PM 8.09 46.562 0.036 6.54 2.03 11.32
11/3/2021 7:00:00 PM 8.05 46.49 0.036 6.53 2 11.33
11/3/2021 7:15:00 PM 8.01 46.418 0.036 6.52 1.97 11.34
11/3/2021 7:30:00 PM 7.96 46.328 0.036 6.53 2.07 11.36
11/3/2021 7:45:00 PM 7.91 46.238 0.036 6.51 2.04 11.36
11/3/2021 8:00:00 PM 7.87 46.166 0.036 6.51 2.01 11.37
11/3/2021 8:15:00 PM 7.82 46.076 0.036 6.5 2.02 11.4
11/3/2021 8:30:00 PM 7.78 46.004 0.036 6.5 2.04 11.41
11/3/2021 8:45:00 PM 7.75 45.95 0.036 6.53 1.98 11.43
11/3/2021 9:00:00 PM 7.72 45.896 0.036 6.52 2 11.44
11/3/2021 9:15:00 PM 7.68 45.824 0.036 6.52 2.05 11.45
11/3/2021 9:30:00 PM 7.65 45.77 0.036 6.5 2.04 11.46
11/3/2021 9:45:00 PM 7.62 45.716 0.036 6.5 2.04 11.47
11/3/2021 10:00:00 PM 7.58 45.644 0.036 6.52 2.15 11.47
11/3/2021 10:15:00 PM 7.55 45.59 0.036 6.51 2.06 11.49
11/3/2021 10:30:00 PM 7.5 45.5 0.036 6.52 2.05 11.51
11/3/2021 10:45:00 PM 7.45 45.41 0.036 6.52 2.03 11.52
11/3/2021 11:00:00 PM 7.41 45.338 0.036 6.51 2 11.53
11/3/2021 11:15:00 PM 7.38 45.284 0.036 6.5 2.1 11.55
11/3/2021 11:30:00 PM 7.34 45.212 0.036 6.51 1.99 11.56
11/3/2021 11:45:00 PM 7.3 45.14 0.036 6.52 1.99 11.57
11/4/2021 12:00:00 AM 7.27 45.086 0.036 6.5 2.02 11.58
11/4/2021 12:15:00 AM 7.24 45.032 0.036 6.5 1.99 11.59
11/4/2021 12:30:00 AM 7.21 44.978 0.036 6.51 1.99 11.6
11/4/2021 12:45:00 AM 7.17 44.906 0.036 6.51 2.01 11.6
11/4/2021 1:00:00 AM 7.13 44.834 0.036 6.5 2.23 11.61
11/4/2021 1:15:00 AM 7.1 44.78 0.036 6.53 2.02 11.62
11/4/2021 1:30:00 AM 7.06 44.708 0.036 6.51 1.97 11.63
11/4/2021 1:45:00 AM 7.03 44.654 0.036 6.5 2 11.64
11/4/2021 2:00:00 AM 7 44.6 0.036 6.53 2 11.65
11/4/2021 2:15:00 AM 6.97 44.546 0.036 6.51 2.02 11.66
11/4/2021 2:30:00 AM 6.93 44.474 0.036 6.5 1.97 11.68
11/4/2021 2:45:00 AM 6.9 44.42 0.036 6.51 1.98 11.68
11/4/2021 3:00:00 AM 6.88 44.384 0.036 6.51 1.97 11.7
11/4/2021 3:15:00 AM 6.85 44.33 0.036 6.52 2.01 11.7
11/4/2021 3:30:00 AM 6.82 44.276 0.036 6.52 2.02 11.71
11/4/2021 3:45:00 AM 6.79 44.222 0.036 6.51 1.97 11.72
11/4/2021 4:00:00 AM 6.75 44.15 0.036 6.53 1.98 11.73
11/4/2021 4:15:00 AM 6.73 44.114 0.036 6.51 2 11.74
11/4/2021 4:30:00 AM 6.7 44.06 0.036 6.5 1.95 11.75
11/4/2021 4:45:00 AM 6.68 44.024 0.036 6.51 1.97 11.75
11/4/2021 5:00:00 AM 6.66 43.988 0.036 6.51 1.96 11.76
11/4/2021 5:15:00 AM 6.64 43.952 0.036 6.53 1.94 11.77
11/4/2021 5:30:00 AM 6.62 43.916 0.036 6.52 1.89 11.77
11/4/2021 5:45:00 AM 6.59 43.862 0.036 6.51 1.94 11.78
11/4/2021 6:00:00 AM 6.56 43.808 0.036 6.53 1.96 11.79
11/4/2021 6:15:00 AM 6.53 43.754 0.036 6.51 1.94 11.8
11/4/2021 6:30:00 AM 6.51 43.718 0.036 6.51 1.97 11.81
11/4/2021 6:45:00 AM 6.48 43.664 0.037 6.52 1.91 11.81
11/4/2021 7:00:00 AM 6.45 43.61 0.037 6.54 1.92 11.83
11/4/2021 7:15:00 AM 6.42 43.556 0.037 6.52 1.99 11.84
11/4/2021 7:30:00 AM 6.39 43.502 0.036 6.51 1.94 11.86
11/4/2021 7:45:00 AM 6.37 43.466 0.037 6.51 1.92 11.86
11/4/2021 8:00:00 AM 6.34 43.412 0.036 6.53 1.9 11.89
11/4/2021 8:15:00 AM 6.31 43.358 0.036 6.52 1.93 11.92
11/4/2021 8:30:00 AM 6.3 43.34 0.037 6.53 1.88 11.95
11/4/2021 8:45:00 AM 6.27 43.286 0.036 6.53 1.88 11.99
11/4/2021 9:00:00 AM 6.26 43.268 0.036 6.54 1.91 12.03
11/4/2021 9:15:00 AM 6.26 43.268 0.036 6.55 1.96 12.06
11/4/2021 9:30:00 AM 6.25 43.25 0.036 6.55 1.86 12.08
11/4/2021 9:45:00 AM 6.26 43.268 0.036 6.57 1.84 12.1
11/4/2021 10:00:00 AM 6.27 43.286 0.036 6.58 1.9 12.11
11/4/2021 10:15:00 AM 6.3 43.34 0.036 6.57 1.87 12.13
11/4/2021 10:30:00 AM 6.36 43.448 0.036 6.59 1.82 12.13
11/4/2021 10:45:00 AM 6.44 43.592 0.036 6.61 1.81 12.13
11/4/2021 11:00:00 AM 6.51 43.718 0.036 6.62 1.9 12.13
11/4/2021 11:15:00 AM 6.61 43.898 0.036 6.65 1.84 12.11
11/4/2021 11:30:00 AM 6.72 44.096 0.036 6.64 1.92 12.1
11/4/2021 11:45:00 AM 6.85 44.33 0.036 6.64 1.93 12.08
11/4/2021 12:00:00 PM 6.99 44.582 0.036 6.67 1.84 12.07
11/4/2021 12:15:00 PM 7.09 44.762 0.036 6.67 1.84 12.05
11/4/2021 12:30:00 PM 7.19 44.942 0.036 6.68 1.89 12.05
11/4/2021 12:45:00 PM 7.23 45.014 0.036 6.68 1.82 12.03
11/4/2021 1:00:00 PM 7.29 45.122 0.036 6.66 1.83 12.02
11/4/2021 1:15:00 PM 7.34 45.212 0.036 6.68 1.79 12.01
11/4/2021 1:30:00 PM 7.35 45.23 0.036 6.67 1.89 11.99
11/4/2021 1:45:00 PM 7.39 45.302 0.036 6.67 1.78 11.99
11/4/2021 2:00:00 PM 7.44 45.392 0.036 6.68 1.81 11.97
11/4/2021 2:15:00 PM 7.48 45.464 0.036 6.67 1.85 11.96
11/4/2021 2:30:00 PM 7.5 45.5 0.036 6.69 1.81 11.94
11/4/2021 2:45:00 PM 7.54 45.572 0.036 6.67 1.81 11.91
11/4/2021 3:00:00 PM 7.59 45.662 0.036 6.68 1.78 11.9
11/4/2021 3:15:00 PM 7.64 45.752 0.036 6.68 1.81 11.88
11/4/2021 3:30:00 PM 7.68 45.824 0.036 6.67 1.79 11.85
11/4/2021 3:45:00 PM 7.71 45.878 0.036 6.67 1.81 11.83
11/4/2021 4:00:00 PM 7.74 45.932 0.036 6.67 1.81 11.81
11/4/2021 4:15:00 PM 7.76 45.968 0.036 6.66 1.82 11.79
11/4/2021 4:30:00 PM 7.78 46.004 0.036 6.66 1.83 11.76
11/4/2021 4:45:00 PM 7.79 46.022 0.036 6.67 1.84 11.73
11/4/2021 5:00:00 PM 7.79 46.022 0.036 6.65 1.82 11.7
11/4/2021 5:15:00 PM 7.79 46.022 0.037 6.63 1.85 11.66
11/4/2021 5:30:00 PM 7.77 45.986 0.037 6.63 1.82 11.6
11/4/2021 5:45:00 PM 7.74 45.932 0.037 6.61 1.84 11.57
11/4/2021 6:00:00 PM 7.71 45.878 0.037 6.59 1.85 11.52
11/4/2021 6:15:00 PM 7.69 45.842 0.037 6.58 1.84 11.49
11/4/2021 6:30:00 PM 7.65 45.77 0.037 6.57 1.8 11.47
11/4/2021 6:45:00 PM 7.62 45.716 0.037 6.59 1.82 11.46
11/4/2021 7:00:00 PM 7.57 45.626 0.037 6.55 1.95 11.47
11/4/2021 7:15:00 PM 7.53 45.554 0.037 6.54 1.84 11.47
11/4/2021 7:30:00 PM 7.5 45.5 0.037 6.55 1.83 11.48
11/4/2021 7:45:00 PM 7.46 45.428 0.037 6.54 1.9 11.49
11/4/2021 8:00:00 PM 7.42 45.356 0.037 6.53 1.86 11.5
11/4/2021 8:15:00 PM 7.38 45.284 0.037 6.54 1.88 11.51
11/4/2021 8:30:00 PM 7.33 45.194 0.037 6.53 1.86 11.52
11/4/2021 8:45:00 PM 7.29 45.122 0.037 6.54 1.9 11.53
11/4/2021 9:00:00 PM 7.24 45.032 0.037 6.53 1.89 11.55
11/4/2021 9:15:00 PM 7.19 44.942 0.037 6.53 1.84 11.56
11/4/2021 9:30:00 PM 7.14 44.852 0.037 6.53 1.91 11.58
11/4/2021 9:45:00 PM 7.09 44.762 0.037 6.54 1.93 11.59
11/4/2021 10:00:00 PM 7.04 44.672 0.038 6.52 1.89 11.6
11/4/2021 10:15:00 PM 6.99 44.582 0.038 6.52 1.9 11.62
11/4/2021 10:30:00 PM 6.94 44.492 0.037 6.52 1.93 11.64
11/4/2021 10:45:00 PM 6.89 44.402 0.038 6.53 1.88 11.66
11/4/2021 11:00:00 PM 6.84 44.312 0.038 6.52 1.87 11.67
11/4/2021 11:15:00 PM 6.79 44.222 0.038 6.52 1.9 11.69
11/4/2021 11:30:00 PM 6.74 44.132 0.038 6.55 1.95 11.7
11/4/2021 11:45:00 PM 6.7 44.06 0.038 6.53 1.87 11.71
11/5/2021 12:00:00 AM 6.65 43.97 0.038 6.53 1.83 11.74
11/5/2021 12:15:00 AM 6.6 43.88 0.038 6.52 1.83 11.74
11/5/2021 12:30:00 AM 6.56 43.808 0.038 6.52 1.93 11.76
11/5/2021 12:45:00 AM 6.52 43.736 0.038 6.53 1.86 11.77
11/5/2021 1:00:00 AM 6.46 43.628 0.037 6.54 1.87 11.79
11/5/2021 1:15:00 AM 6.43 43.574 0.038 6.52 1.88 11.8
11/5/2021 1:30:00 AM 6.39 43.502 0.038 6.52 1.87 11.82
11/5/2021 1:45:00 AM 6.35 43.43 0.038 6.54 1.86 11.83
11/5/2021 2:00:00 AM 6.31 43.358 0.038 6.53 1.84 11.84
11/5/2021 2:15:00 AM 6.27 43.286 0.038 6.52 1.88 11.85
11/5/2021 2:30:00 AM 6.24 43.232 0.038 6.52 1.87 11.87
11/5/2021 2:45:00 AM 6.2 43.16 0.038 6.52 1.87 11.88
11/5/2021 3:00:00 AM 6.16 43.088 0.038 6.53 1.86 11.88
11/5/2021 3:15:00 AM 6.12 43.016 0.038 6.53 1.89 11.9
11/5/2021 3:30:00 AM 6.08 42.944 0.038 6.53 1.87 11.91
11/5/2021 3:45:00 AM 6.05 42.89 0.038 6.53 1.9 11.93
11/5/2021 4:00:00 AM 6.01 42.818 0.038 6.54 1.84 11.93
11/5/2021 4:15:00 AM 5.98 42.764 0.038 6.53 1.84 11.95
11/5/2021 4:30:00 AM 5.94 42.692 0.038 6.53 1.83 11.96
11/5/2021 4:45:00 AM 5.91 42.638 0.038 6.53 1.87 11.97
11/5/2021 5:00:00 AM 5.87 42.566 0.038 6.53 1.88 11.99
11/5/2021 5:15:00 AM 5.84 42.512 0.038 6.53 1.85 11.99
11/5/2021 5:30:00 AM 5.8 42.44 0.038 6.52 1.79 12.01
11/5/2021 5:45:00 AM 5.77 42.386 0.038 6.52 1.85 12.02
11/5/2021 6:00:00 AM 5.75 42.35 0.038 6.55 1.84 12.03
11/5/2021 6:15:00 AM 5.71 42.278 0.038 6.53 1.9 12.04
11/5/2021 6:30:00 AM 5.68 42.224 0.038 6.55 1.84 12.06
11/5/2021 6:45:00 AM 5.65 42.17 0.038 6.55 1.87 12.06
11/5/2021 7:00:00 AM 5.61 42.098 0.038 6.53 1.86 12.08
11/5/2021 7:15:00 AM 5.58 42.044 0.038 6.55 1.82 12.09
11/5/2021 7:30:00 AM 5.55 41.99 0.038 6.52 1.8 12.11
11/5/2021 7:45:00 AM 5.52 41.936 0.038 6.52 1.78 12.12
11/5/2021 8:00:00 AM 5.49 41.882 0.038 6.53 1.76 12.15
11/5/2021 8:15:00 AM 5.46 41.828 0.038 6.53 1.82 12.19
11/5/2021 8:30:00 AM 5.44 41.792 0.038 6.54 1.91 12.23
11/5/2021 8:45:00 AM 5.42 41.756 0.038 6.55 1.82 12.27
11/5/2021 9:00:00 AM 5.41 41.738 0.038 6.58 1.76 12.31
11/5/2021 9:15:00 AM 5.4 41.72 0.038 6.56 1.84 12.35
11/5/2021 9:30:00 AM 5.4 41.72 0.038 6.57 1.72 12.38
11/5/2021 9:45:00 AM 5.41 41.738 0.037 6.57 1.82 12.4
11/5/2021 10:00:00 AM 5.43 41.774 0.037 6.61 1.83 12.41
11/5/2021 10:15:00 AM 5.46 41.828 0.037 6.61 1.8 12.42
11/5/2021 10:30:00 AM 5.51 41.918 0.037 6.62 1.75 12.43
11/5/2021 10:45:00 AM 5.58 42.044 0.037 6.62 1.86 12.43
11/5/2021 11:00:00 AM 5.67 42.206 0.037 6.64 1.77 12.43
11/5/2021 11:15:00 AM 5.78 42.404 0.037 6.64 1.77 12.41
11/5/2021 11:30:00 AM 5.9 42.62 0.037 6.65 1.73 12.39
11/5/2021 11:45:00 AM 6.04 42.872 0.037 6.68 1.74 12.37
11/5/2021 12:00:00 PM 6.19 43.142 0.037 6.69 1.79 12.35
11/5/2021 12:15:00 PM 6.34 43.412 0.037 6.7 1.8 12.33
11/5/2021 12:30:00 PM 6.48 43.664 0.037 6.71 1.76 12.29
11/5/2021 12:45:00 PM 6.55 43.79 0.037 6.69 1.69 12.26
11/5/2021 1:00:00 PM 6.67 44.006 0.037 6.69 1.72 12.25
11/5/2021 1:15:00 PM 6.78 44.204 0.037 6.7 1.72 12.21
11/5/2021 1:30:00 PM 6.87 44.366 0.037 6.7 1.73 12.18
11/5/2021 1:45:00 PM 6.94 44.492 0.037 6.69 1.71 12.16
11/5/2021 2:00:00 PM 6.97 44.546 0.037 6.69 1.79 12.14
11/5/2021 2:15:00 PM 6.98 44.564 0.037 6.71 1.72 12.12
11/5/2021 2:30:00 PM 7.05 44.69 0.037 6.68 1.69 12.1
11/5/2021 2:45:00 PM 7.1 44.78 0.037 6.7 1.71 12.09
11/5/2021 3:00:00 PM 7.11 44.798 0.037 6.67 1.7 12.07
11/5/2021 3:15:00 PM 7.03 44.654 0.037 6.68 1.72 12.03
11/5/2021 3:30:00 PM 6.99 44.582 0.037 6.66 1.73 12.01
11/5/2021 3:45:00 PM 7.01 44.618 0.037 6.66 1.77 12.01
11/5/2021 4:00:00 PM 7.03 44.654 0.037 6.64 1.74 11.99
11/5/2021 4:15:00 PM 7.04 44.672 0.038 6.64 1.75 11.97
11/5/2021 4:30:00 PM 7.05 44.69 0.038 6.66 1.74 11.95
11/5/2021 4:45:00 PM 7.05 44.69 0.038 6.66 1.7 11.91
11/5/2021 5:00:00 PM 7.05 44.69 0.038 6.64 1.74 11.88
11/5/2021 5:15:00 PM 7.03 44.654 0.038 6.63 1.75 11.86
11/5/2021 5:30:00 PM 7.01 44.618 0.038 6.62 1.68 11.82
11/5/2021 5:45:00 PM 6.99 44.582 0.038 6.63 1.75 11.79
11/5/2021 6:00:00 PM 6.98 44.564 0.038 6.61 1.75 11.76
11/5/2021 6:15:00 PM 6.96 44.528 0.038 6.6 1.69 11.73
11/5/2021 6:30:00 PM 6.95 44.51 0.038 6.61 1.75 11.71
11/5/2021 6:45:00 PM 6.92 44.456 0.038 6.58 1.78 11.7
11/5/2021 7:00:00 PM 6.9 44.42 0.038 6.58 1.72 11.7
11/5/2021 7:15:00 PM 6.88 44.384 0.038 6.57 1.86 11.7
11/5/2021 7:30:00 PM 6.85 44.33 0.038 6.56 1.79 11.69
11/5/2021 7:45:00 PM 6.82 44.276 0.038 6.57 1.78 11.71
11/5/2021 8:00:00 PM 6.78 44.204 0.038 6.56 1.79 11.72
11/5/2021 8:15:00 PM 6.75 44.15 0.038 6.55 1.78 11.72
11/5/2021 8:30:00 PM 6.7 44.06 0.038 6.55 1.78 11.74
11/5/2021 8:45:00 PM 6.66 43.988 0.038 6.55 1.86 11.75
11/5/2021 9:00:00 PM 6.62 43.916 0.038 6.57 1.78 11.77
11/5/2021 9:15:00 PM 6.57 43.826 0.038 6.55 1.75 11.78
11/5/2021 9:30:00 PM 6.53 43.754 0.039 6.55 1.78 11.79
11/5/2021 9:45:00 PM 6.49 43.682 0.039 6.55 1.77 11.81
11/5/2021 10:00:00 PM 6.44 43.592 0.038 6.55 1.8 11.82
11/5/2021 10:15:00 PM 6.41 43.538 0.039 6.55 1.78 11.84
11/5/2021 10:30:00 PM 6.36 43.448 0.039 6.57 1.83 11.85
11/5/2021 10:45:00 PM 6.33 43.394 0.039 6.55 1.84 11.86
11/5/2021 11:00:00 PM 6.28 43.304 0.039 6.57 1.79 11.88
11/5/2021 11:15:00 PM 6.25 43.25 0.039 6.55 1.8 11.88
11/5/2021 11:30:00 PM 6.2 43.16 0.039 6.55 1.8 11.9
11/5/2021 11:45:00 PM 6.16 43.088 0.039 6.57 1.81 11.92
11/6/2021 12:00:00 AM 6.12 43.016 0.039 6.56 1.78 11.93
11/6/2021 12:15:00 AM 6.07 42.926 0.039 6.54 1.77 11.95
11/6/2021 12:30:00 AM 6.03 42.854 0.039 6.56 1.76 11.96
11/6/2021 12:45:00 AM 5.98 42.764 0.039 6.55 1.78 11.98
11/6/2021 1:00:00 AM 5.94 42.692 0.039 6.54 1.75 11.99
11/6/2021 1:15:00 AM 5.91 42.638 0.039 6.54 1.78 12
11/6/2021 1:30:00 AM 5.85 42.53 0.039 6.55 1.79 12.02
11/6/2021 1:45:00 AM 5.82 42.476 0.039 6.55 1.77 12.03
11/6/2021 2:00:00 AM 5.77 42.386 0.039 6.55 1.77 12.04
11/6/2021 2:15:00 AM 5.73 42.314 0.039 6.54 1.78 12.06
11/6/2021 2:30:00 AM 5.7 42.26 0.039 6.56 1.75 12.08
11/6/2021 2:45:00 AM 5.66 42.188 0.039 6.55 1.72 12.09
11/6/2021 3:00:00 AM 5.62 42.116 0.039 6.56 1.84 12.09
11/6/2021 3:15:00 AM 5.59 42.062 0.039 6.54 1.77 12.11
11/6/2021 3:30:00 AM 5.55 41.99 0.039 6.56 1.86 12.13
11/6/2021 3:45:00 AM 5.52 41.936 0.039 6.56 1.8 12.14
11/6/2021 4:00:00 AM 5.48 41.864 0.039 6.58 1.74 12.15
11/6/2021 4:15:00 AM 5.44 41.792 0.039 6.55 1.81 12.17
11/6/2021 4:30:00 AM 5.4 41.72 0.039 6.55 1.76 12.18
11/6/2021 4:45:00 AM 5.37 41.666 0.039 6.57 1.75 12.19
11/6/2021 5:00:00 AM 5.33 41.594 0.039 6.54 1.74 12.2
11/6/2021 5:15:00 AM 5.29 41.522 0.039 6.57 1.79 12.22
11/6/2021 5:30:00 AM 5.27 41.486 0.039 6.56 1.74 12.22
11/6/2021 5:45:00 AM 5.24 41.432 0.039 6.55 1.75 12.23
11/6/2021 6:00:00 AM 5.2 41.36 0.039 6.56 1.7 12.25
11/6/2021 6:15:00 AM 5.17 41.306 0.039 6.54 1.7 12.25
11/6/2021 6:30:00 AM 5.14 41.252 0.039 6.55 1.79 12.26
11/6/2021 6:45:00 AM 5.11 41.198 0.039 6.55 1.69 12.28
11/6/2021 7:00:00 AM 5.08 41.144 0.039 6.57 1.77 12.29
11/6/2021 7:15:00 AM 5.04 41.072 0.039 6.56 1.71 12.31
11/6/2021 7:30:00 AM 5.02 41.036 0.039 6.55 1.75 12.31
11/6/2021 7:45:00 AM 4.99 40.982 0.039 6.55 1.78 12.32
11/6/2021 8:00:00 AM 4.96 40.928 0.039 6.55 1.69 12.36
11/6/2021 8:15:00 AM 4.93 40.874 0.039 6.56 1.72 12.4
11/6/2021 8:30:00 AM 4.92 40.856 0.039 6.59 1.69 12.43
11/6/2021 8:45:00 AM 4.9 40.82 0.039 6.57 1.69 12.48
11/6/2021 9:00:00 AM 4.89 40.802 0.039 6.58 1.72 12.51
11/6/2021 9:15:00 AM 4.88 40.784 0.039 6.59 1.75 12.54
11/6/2021 9:30:00 AM 4.88 40.784 0.038 6.6 1.75 12.57
11/6/2021 9:45:00 AM 4.9 40.82 0.038 6.6 1.71 12.59
11/6/2021 10:00:00 AM 4.92 40.856 0.038 6.6 1.72 12.61
11/6/2021 10:15:00 AM 4.95 40.91 0.038 6.62 1.78 12.62
11/6/2021 10:30:00 AM 5 41 0.038 6.63 1.72 12.62
11/6/2021 10:45:00 AM 5.07 41.126 0.038 6.65 1.7 12.62
11/6/2021 11:00:00 AM 5.17 41.306 0.038 6.65 1.73 12.61
11/6/2021 11:15:00 AM 5.28 41.504 0.038 6.67 1.66 12.58
11/6/2021 11:30:00 AM 5.41 41.738 0.038 6.68 1.67 12.56
11/6/2021 11:45:00 AM 5.57 42.026 0.038 6.71 1.65 12.54
11/6/2021 12:00:00 PM 5.73 42.314 0.038 6.71 1.7 12.51
11/6/2021 12:15:00 PM 5.88 42.584 0.038 6.71 1.7 12.48
11/6/2021 12:30:00 PM 6.04 42.872 0.038 6.7 1.68 12.44
11/6/2021 12:45:00 PM 6.18 43.124 0.038 6.72 1.68 12.41
11/6/2021 1:00:00 PM 6.31 43.358 0.038 6.72 1.67 12.37
11/6/2021 1:15:00 PM 6.42 43.556 0.038 6.72 1.65 12.34
11/6/2021 1:30:00 PM 6.51 43.718 0.038 6.74 1.65 12.31
11/6/2021 1:45:00 PM 6.58 43.844 0.038 6.72 1.62 12.29
11/6/2021 2:00:00 PM 6.63 43.934 0.038 6.71 1.62 12.26
11/6/2021 2:15:00 PM 6.67 44.006 0.038 6.7 1.63 12.24
11/6/2021 2:30:00 PM 6.7 44.06 0.038 6.69 1.67 12.21
11/6/2021 2:45:00 PM 6.72 44.096 0.038 6.69 1.62 12.19
11/6/2021 3:00:00 PM 6.73 44.114 0.038 6.7 1.6 12.18
11/6/2021 3:15:00 PM 6.73 44.114 0.038 6.68 1.66 12.16
11/6/2021 3:30:00 PM 6.72 44.096 0.038 6.68 1.62 12.15
11/6/2021 3:45:00 PM 6.72 44.096 0.038 6.68 1.65 12.13
11/6/2021 4:00:00 PM 6.73 44.114 0.038 6.68 1.63 12.1
11/6/2021 4:15:00 PM 6.74 44.132 0.038 6.67 1.66 12.07
11/6/2021 4:30:00 PM 6.74 44.132 0.038 6.67 1.63 12.05
11/6/2021 4:45:00 PM 6.74 44.132 0.038 6.66 1.66 12.01
11/6/2021 5:00:00 PM 6.74 44.132 0.039 6.66 1.65 11.97
11/6/2021 5:15:00 PM 6.73 44.114 0.039 6.65 1.71 11.93
11/6/2021 5:30:00 PM 6.72 44.096 0.039 6.63 1.68 11.89
11/6/2021 5:45:00 PM 6.72 44.096 0.039 6.63 1.66 11.85
11/6/2021 6:00:00 PM 6.71 44.078 0.039 6.62 1.65 11.81
11/6/2021 6:15:00 PM 6.69 44.042 0.039 6.62 1.67 11.78
11/6/2021 6:30:00 PM 6.66 43.988 0.039 6.6 1.69 11.76
11/6/2021 6:45:00 PM 6.64 43.952 0.039 6.6 1.68 11.76
11/6/2021 7:00:00 PM 6.62 43.916 0.039 6.58 1.71 11.75
11/6/2021 7:15:00 PM 6.6 43.88 0.039 6.58 1.78 11.75
11/6/2021 7:30:00 PM 6.57 43.826 0.039 6.58 1.73 11.74
11/6/2021 7:45:00 PM 6.53 43.754 0.039 6.58 1.73 11.76
11/6/2021 8:00:00 PM 6.51 43.718 0.039 6.58 1.71 11.76
11/6/2021 8:15:00 PM 6.48 43.664 0.039 6.58 1.87 11.76
11/6/2021 8:30:00 PM 6.44 43.592 0.039 6.58 1.73 11.78
11/6/2021 8:45:00 PM 6.4 43.52 0.039 6.59 1.71 11.79
11/6/2021 9:00:00 PM 6.38 43.484 0.039 6.58 1.71 11.79
11/6/2021 9:15:00 PM 6.34 43.412 0.039 6.57 1.78 11.8
11/6/2021 9:30:00 PM 6.3 43.34 0.039 6.59 1.7 11.82
11/6/2021 9:45:00 PM 6.26 43.268 0.039 6.58 1.73 11.83
11/6/2021 10:00:00 PM 6.21 43.178 0.039 6.57 1.72 11.85
11/6/2021 10:15:00 PM 6.18 43.124 0.039 6.57 1.71 11.85
11/6/2021 10:30:00 PM 6.14 43.052 0.039 6.56 1.72 11.87
11/6/2021 10:45:00 PM 6.09 42.962 0.039 6.57 1.71 11.89
11/6/2021 11:00:00 PM 6.04 42.872 0.039 6.57 1.75 11.9
11/6/2021 11:15:00 PM 6 42.8 0.039 6.56 1.73 11.92
11/6/2021 11:30:00 PM 5.95 42.71 0.039 6.56 1.71 11.93
11/6/2021 11:45:00 PM 5.9 42.62 0.039 6.56 1.77 11.95
11/7/2021 12:00:00 AM 5.85 42.53 0.039 6.56 1.73 11.97
11/7/2021 12:15:00 AM 5.81 42.458 0.039 6.57 1.74 11.98
11/7/2021 12:30:00 AM 5.76 42.368 0.039 6.56 1.74 11.99
11/7/2021 12:45:00 AM 5.71 42.278 0.039 6.56 1.79 12.02
11/7/2021 1:00:00 AM 5.67 42.206 0.039 6.56 1.72 12.02
11/7/2021 1:15:00 AM 5.62 42.116 0.04 6.56 1.77 12.04
11/7/2021 1:30:00 AM 5.58 42.044 0.04 6.59 1.78 12.06
11/7/2021 1:45:00 AM 5.53 41.954 0.04 6.57 1.72 12.07
11/7/2021 2:00:00 AM 5.49 41.882 0.04 6.56 1.73 12.08
11/7/2021 2:15:00 AM 5.45 41.81 0.039 6.56 1.73 12.1
11/7/2021 2:30:00 AM 5.41 41.738 0.04 6.56 1.74 12.11
11/7/2021 2:45:00 AM 5.37 41.666 0.04 6.58 1.74 12.13
11/7/2021 3:00:00 AM 5.33 41.594 0.04 6.56 1.74 12.13
11/7/2021 3:15:00 AM 5.3 41.54 0.04 6.59 1.8 12.15
11/7/2021 3:30:00 AM 5.26 41.468 0.04 6.58 1.69 12.16
11/7/2021 3:45:00 AM 5.22 41.396 0.04 6.57 1.79 12.17
11/7/2021 4:00:00 AM 5.18 41.324 0.04 6.57 1.71 12.18
11/7/2021 4:15:00 AM 5.14 41.252 0.04 6.59 1.71 12.19
11/7/2021 4:30:00 AM 5.11 41.198 0.04 6.57 1.7 12.2
11/7/2021 4:45:00 AM 5.07 41.126 0.039 6.57 1.72 12.22
11/7/2021 5:00:00 AM 5.04 41.072 0.04 6.55 1.76 12.23
11/7/2021 5:15:00 AM 5.01 41.018 0.04 6.58 1.72 12.24
11/7/2021 5:30:00 AM 4.98 40.964 0.039 6.56 1.7 12.25
11/7/2021 5:45:00 AM 4.95 40.91 0.04 6.57 1.75 12.26
11/7/2021 6:00:00 AM 4.92 40.856 0.04 6.57 1.72 12.27
11/7/2021 6:15:00 AM 4.88 40.784 0.039 6.57 1.71 12.28
11/7/2021 6:30:00 AM 4.86 40.748 0.04 6.57 1.69 12.28
11/7/2021 6:45:00 AM 4.82 40.676 0.039 6.56 1.66 12.3
11/7/2021 7:00:00 AM 4.8 40.64 0.04 6.57 1.69 12.31
11/7/2021 7:15:00 AM 4.76 40.568 0.04 6.57 1.72 12.32
11/7/2021 7:30:00 AM 4.74 40.532 0.04 6.6 1.74 12.33
11/7/2021 7:45:00 AM 4.71 40.478 0.04 6.58 1.69 12.34
11/7/2021 8:00:00 AM 4.68 40.424 0.04 6.57 1.66 12.37
11/7/2021 8:15:00 AM 4.66 40.388 0.04 6.57 1.66 12.4
11/7/2021 8:30:00 AM 4.64 40.352 0.039 6.6 1.65 12.45
11/7/2021 8:45:00 AM 4.63 40.334 0.039 6.6 1.67 12.5
11/7/2021 9:00:00 AM 4.62 40.316 0.039 6.6 1.65 12.53
11/7/2021 9:15:00 AM 4.61 40.298 0.039 6.61 1.67 12.57
11/7/2021 9:30:00 AM 4.62 40.316 0.039 6.62 1.69 12.6
11/7/2021 9:45:00 AM 4.63 40.334 0.039 6.63 1.69 12.62
11/7/2021 10:00:00 AM 4.65 40.37 0.039 6.66 1.66 12.63
11/7/2021 10:15:00 AM 4.68 40.424 0.039 6.64 1.65 12.65
11/7/2021 10:30:00 AM 4.73 40.514 0.039 6.65 1.66 12.65
11/7/2021 10:45:00 AM 4.81 40.658 0.039 6.66 1.63 12.65
11/7/2021 11:00:00 AM 4.91 40.838 0.039 6.68 1.68 12.64
11/7/2021 11:15:00 AM 5.02 41.036 0.039 6.7 1.66 12.62
11/7/2021 11:30:00 AM 5.15 41.27 0.039 6.69 1.64 12.6
11/7/2021 11:45:00 AM 5.31 41.558 0.039 6.7 1.65 12.56
11/7/2021 12:00:00 PM 5.47 41.846 0.039 6.73 1.64 12.54
11/7/2021 12:15:00 PM 5.64 42.152 0.039 6.72 1.62 12.51
11/7/2021 12:30:00 PM 6.37 43.466 0.039 6.74 1.6 12.32
11/7/2021 12:45:00 PM 6.46 43.628 0.039 6.73 1.57 12.28
11/7/2021 1:00:00 PM 6.53 43.754 0.039 6.73 1.61 12.26
11/7/2021 1:15:00 PM 6.59 43.862 0.039 6.73 1.59 12.22
11/7/2021 1:30:00 PM 6.63 43.934 0.039 6.72 1.6 12.2
11/7/2021 1:45:00 PM 6.67 44.006 0.039 6.74 1.64 12.18
11/7/2021 2:00:00 PM 6.68 44.024 0.039 6.72 1.63 12.16
11/7/2021 2:15:00 PM 6.7 44.06 0.039 6.7 1.59 12.14
11/7/2021 2:30:00 PM 6.71 44.078 0.039 6.7 1.6 12.11
11/7/2021 2:45:00 PM 6.72 44.096 0.039 6.71 1.62 12.09
11/7/2021 3:00:00 PM 6.73 44.114 0.039 6.7 1.61 12.07
11/7/2021 3:15:00 PM 6.74 44.132 0.039 6.7 1.59 12.05
11/7/2021 3:30:00 PM 6.75 44.15 0.039 6.69 1.59 12.01
11/7/2021 3:45:00 PM 6.75 44.15 0.039 6.68 1.63 11.97
11/7/2021 4:00:00 PM 6.76 44.168 0.039 6.69 1.61 11.93
11/7/2021 4:15:00 PM 6.75 44.15 0.039 6.66 1.65 11.88
11/7/2021 4:30:00 PM 6.76 44.168 0.039 6.66 1.66 11.84
11/7/2021 4:45:00 PM 6.76 44.168 0.04 6.67 1.62 11.78
11/7/2021 5:00:00 PM 6.76 44.168 0.04 6.65 1.57 11.75
11/7/2021 5:15:00 PM 6.76 44.168 0.04 6.63 1.64 11.71
11/7/2021 5:30:00 PM 6.75 44.15 0.04 6.62 1.74 11.69
11/7/2021 5:45:00 PM 6.74 44.132 0.04 6.64 1.64 11.66
11/7/2021 6:00:00 PM 6.73 44.114 0.04 6.62 1.67 11.65
11/7/2021 6:15:00 PM 6.71 44.078 0.04 6.62 1.66 11.65
11/7/2021 6:30:00 PM 6.69 44.042 0.04 6.6 1.68 11.66
11/7/2021 6:45:00 PM 6.68 44.024 0.04 6.6 1.66 11.65
11/7/2021 7:00:00 PM 6.66 43.988 0.04 6.6 1.62 11.66
11/7/2021 7:15:00 PM 6.64 43.952 0.04 6.6 1.67 11.66
11/7/2021 7:30:00 PM 6.62 43.916 0.04 6.59 1.67 11.67
11/7/2021 7:45:00 PM 6.6 43.88 0.04 6.61 1.66 11.68
11/7/2021 8:00:00 PM 6.58 43.844 0.04 6.61 1.67 11.67
11/7/2021 8:15:00 PM 6.55 43.79 0.04 6.6 1.65 11.68
11/7/2021 8:30:00 PM 6.52 43.736 0.04 6.59 1.7 11.7
11/7/2021 8:45:00 PM 6.5 43.7 0.04 6.6 1.75 11.7
11/7/2021 9:00:00 PM 6.47 43.646 0.041 6.59 1.69 11.71
11/7/2021 9:15:00 PM 6.44 43.592 0.04 6.61 1.69 11.72
11/7/2021 9:30:00 PM 6.41 43.538 0.041 6.59 1.73 11.73
11/7/2021 9:45:00 PM 6.38 43.484 0.04 6.58 1.74 11.74
11/7/2021 10:00:00 PM 6.35 43.43 0.041 6.59 1.68 11.75
11/7/2021 10:15:00 PM 6.32 43.376 0.041 6.6 1.68 11.76
11/7/2021 10:30:00 PM 6.28 43.304 0.04 6.58 1.76 11.78
11/7/2021 10:45:00 PM 6.25 43.25 0.041 6.58 1.71 11.79
11/7/2021 11:00:00 PM 6.21 43.178 0.041 6.58 1.68 11.8
11/7/2021 11:15:00 PM 6.17 43.106 0.041 6.58 1.72 11.82
11/7/2021 11:30:00 PM 6.14 43.052 0.041 6.61 1.68 11.82
11/7/2021 11:45:00 PM 6.09 42.962 0.041 6.59 1.66 11.84
11/8/2021 12:00:00 AM 6.06 42.908 0.041 6.58 1.66 11.85
11/8/2021 12:15:00 AM 6.02 42.836 0.041 6.58 1.65 11.87
11/8/2021 12:30:00 AM 5.99 42.782 0.041 6.58 1.71 11.88
11/8/2021 12:45:00 AM 5.96 42.728 0.041 6.59 1.65 11.88
11/8/2021 1:00:00 AM 5.92 42.656 0.041 6.58 1.69 11.89
11/8/2021 1:15:00 AM 5.89 42.602 0.041 6.58 1.66 11.91
11/8/2021 1:30:00 AM 5.85 42.53 0.041 6.58 1.72 11.92
11/8/2021 1:45:00 AM 5.82 42.476 0.041 6.58 1.74 11.93
11/8/2021 2:00:00 AM 5.79 42.422 0.041 6.61 1.66 11.93
11/8/2021 2:15:00 AM 5.75 42.35 0.041 6.58 1.66 11.95
11/8/2021 2:30:00 AM 5.72 42.296 0.041 6.58 1.68 11.95
11/8/2021 2:45:00 AM 5.69 42.242 0.041 6.58 1.65 11.97
11/8/2021 3:00:00 AM 5.66 42.188 0.041 6.58 1.71 11.98
11/8/2021 3:15:00 AM 5.63 42.134 0.041 6.58 1.67 11.99
11/8/2021 3:30:00 AM 5.6 42.08 0.041 6.58 1.66 11.99
11/8/2021 3:45:00 AM 5.57 42.026 0.041 6.61 1.67 12.01
11/8/2021 4:00:00 AM 5.54 41.972 0.04 6.58 1.66 12.02
11/8/2021 4:15:00 AM 5.51 41.918 0.04 6.58 1.71 12.04
11/8/2021 4:30:00 AM 5.48 41.864 0.041 6.58 1.67 12.05
11/8/2021 4:45:00 AM 5.45 41.81 0.041 6.58 1.69 12.05
11/8/2021 5:00:00 AM 5.43 41.774 0.041 6.59 1.7 12.06
11/8/2021 5:15:00 AM 5.4 41.72 0.041 6.58 1.61 12.07
11/8/2021 5:30:00 AM 5.37 41.666 0.04 6.61 1.66 12.09
11/8/2021 5:45:00 AM 5.35 41.63 0.04 6.58 1.73 12.09
11/8/2021 6:00:00 AM 5.33 41.594 0.041 6.61 1.71 12.1
11/8/2021 6:15:00 AM 5.29 41.522 0.04 6.59 1.68 12.12
11/8/2021 6:30:00 AM 5.27 41.486 0.041 6.58 1.69 12.12
11/8/2021 6:45:00 AM 5.25 41.45 0.04 6.58 1.66 12.14
11/8/2021 7:00:00 AM 5.23 41.414 0.04 6.58 1.67 12.16
11/8/2021 7:15:00 AM 5.21 41.378 0.04 6.59 1.72 12.2
11/8/2021 7:30:00 AM 5.2 41.36 0.04 6.6 1.67 12.25
11/8/2021 7:45:00 AM 5.19 41.342 0.04 6.62 1.6 12.3
11/8/2021 8:00:00 AM 5.19 41.342 0.04 6.62 1.67 12.34
11/8/2021 8:15:00 AM 5.19 41.342 0.04 6.62 1.66 12.38
11/8/2021 8:30:00 AM 5.2 41.36 0.04 6.65 1.71 12.41
11/8/2021 8:45:00 AM 5.22 41.396 0.04 6.66 1.63 12.44
11/8/2021 9:00:00 AM 5.24 41.432 0.04 6.65 1.64 12.46
11/8/2021 9:15:00 AM 5.28 41.504 0.04 6.68 1.67 12.48
11/8/2021 9:30:00 AM 5.32 41.576 0.04 6.67 1.61 12.49
11/8/2021 9:45:00 AM 5.39 41.702 0.04 6.68 1.62 12.49
11/8/2021 10:00:00 AM 5.48 41.864 0.04 6.69 1.6 12.47
11/8/2021 10:15:00 AM 5.59 42.062 0.04 6.71 1.62 12.47
11/8/2021 10:30:00 AM 5.72 42.296 0.04 6.74 1.59 12.44
11/8/2021 10:45:00 AM 5.88 42.584 0.04 6.74 1.57 12.42
11/8/2021 11:00:00 AM 6.05 42.89 0.04 6.74 1.62 12.38
11/8/2021 11:15:00 AM 6.24 43.232 0.04 6.76 1.61 12.35
11/8/2021 11:30:00 AM 6.43 43.574 0.04 6.75 1.62 12.3
11/8/2021 11:45:00 AM 6.62 43.916 0.04 6.76 1.61 12.26
11/8/2021 12:00:00 PM 6.79 44.222 0.04 6.77 1.6 12.21
11/8/2021 12:15:00 PM 6.94 44.492 0.04 6.77 1.61 12.18
11/8/2021 12:30:00 PM 7.08 44.744 0.04 6.78 1.61 12.14
11/8/2021 12:45:00 PM 7.19 44.942 0.04 6.77 1.6 12.1
11/8/2021 1:00:00 PM 7.29 45.122 0.04 6.77 1.58 12.06
11/8/2021 1:15:00 PM 7.37 45.266 0.04 6.76 1.59 12.03
11/8/2021 1:30:00 PM 7.44 45.392 0.04 6.75 1.55 12
11/8/2021 1:45:00 PM 7.48 45.464 0.04 6.75 1.58 11.97
11/8/2021 2:00:00 PM 7.53 45.554 0.04 6.75 1.62 11.95
11/8/2021 2:15:00 PM 7.56 45.608 0.04 6.75 1.66 11.92
11/8/2021 2:30:00 PM 7.57 45.626 0.04 6.74 1.6 11.89
11/8/2021 2:45:00 PM 7.58 45.644 0.04 6.74 1.55 11.86
11/8/2021 3:00:00 PM 7.59 45.662 0.04 6.73 1.61 11.84
11/8/2021 3:15:00 PM 7.62 45.716 0.04 6.72 1.62 11.81
11/8/2021 3:30:00 PM 7.63 45.734 0.04 6.72 1.65 11.77
11/8/2021 3:45:00 PM 7.64 45.752 0.04 6.71 1.62 11.72
11/8/2021 4:00:00 PM 7.64 45.752 0.04 6.71 1.7 11.68
11/8/2021 4:15:00 PM 7.65 45.77 0.04 6.68 1.72 11.62
11/8/2021 4:30:00 PM 7.65 45.77 0.04 6.68 1.68 11.58
11/8/2021 4:45:00 PM 7.65 45.77 0.04 6.67 1.75 11.53
11/8/2021 5:00:00 PM 7.65 45.77 0.04 6.67 1.71 11.48
11/8/2021 5:15:00 PM 7.65 45.77 0.04 6.66 1.77 11.44
11/8/2021 5:30:00 PM 7.65 45.77 0.04 6.64 1.8 11.41
11/8/2021 5:45:00 PM 7.66 45.788 0.041 6.64 1.81 11.39
11/8/2021 6:00:00 PM 7.65 45.77 0.041 6.66 1.93 11.37
11/8/2021 6:15:00 PM 7.65 45.77 0.041 6.61 1.81 11.36
11/8/2021 6:30:00 PM 7.64 45.752 0.041 6.62 1.73 11.36
11/8/2021 6:45:00 PM 7.63 45.734 0.041 6.63 1.72 11.36
11/8/2021 7:00:00 PM 7.62 45.716 0.041 6.61 1.73 11.36
11/8/2021 7:15:00 PM 7.59 45.662 0.041 6.61 1.69 11.37
11/8/2021 7:30:00 PM 7.58 45.644 0.041 6.6 1.68 11.38
11/8/2021 7:45:00 PM 7.56 45.608 0.041 6.63 1.66 11.37
11/8/2021 8:00:00 PM 7.54 45.572 0.041 6.6 1.7 11.38
11/8/2021 8:15:00 PM 7.52 45.536 0.041 6.62 1.65 11.39
11/8/2021 8:30:00 PM 7.49 45.482 0.041 6.6 1.73 11.39
11/8/2021 8:45:00 PM 7.47 45.446 0.041 6.59 1.76 11.4
11/8/2021 9:00:00 PM 7.45 45.41 0.041 6.62 1.68 11.41
11/8/2021 9:15:00 PM 7.43 45.374 0.041 6.6 1.71 11.41
11/8/2021 9:30:00 PM 7.4 45.32 0.041 6.59 1.69 11.42
11/8/2021 9:45:00 PM 7.38 45.284 0.041 6.6 1.65 11.42
11/8/2021 10:00:00 PM 7.35 45.23 0.041 6.59 1.62 11.44
11/8/2021 10:15:00 PM 7.32 45.176 0.041 6.61 1.74 11.44
11/8/2021 10:30:00 PM 7.29 45.122 0.041 6.6 1.69 11.46
11/8/2021 10:45:00 PM 7.26 45.068 0.041 6.59 1.69 11.46
11/8/2021 11:00:00 PM 7.23 45.014 0.041 6.59 1.69 11.47
11/8/2021 11:15:00 PM 7.2 44.96 0.041 6.59 1.68 11.48
11/8/2021 11:30:00 PM 7.17 44.906 0.041 6.59 1.71 11.49
11/8/2021 11:45:00 PM 7.14 44.852 0.041 6.58 1.68 11.5
11/9/2021 12:00:00 AM 7.1 44.78 0.041 6.62 1.71 11.51
11/9/2021 12:15:00 AM 7.07 44.726 0.041 6.59 1.67 11.53
11/9/2021 12:30:00 AM 7.03 44.654 0.041 6.59 1.66 11.53
11/9/2021 12:45:00 AM 7 44.6 0.041 6.62 1.67 11.54
11/9/2021 1:00:00 AM 6.96 44.528 0.041 6.58 1.68 11.55
11/9/2021 1:15:00 AM 6.93 44.474 0.041 6.59 1.69 11.57
11/9/2021 1:30:00 AM 6.9 44.42 0.041 6.59 1.7 11.57
11/9/2021 1:45:00 AM 6.86 44.348 0.041 6.59 1.66 11.58
11/9/2021 2:00:00 AM 6.84 44.312 0.041 6.58 1.65 11.59
11/9/2021 2:15:00 AM 6.81 44.258 0.041 6.58 1.66 11.59
11/9/2021 2:30:00 AM 6.78 44.204 0.041 6.59 1.73 11.6
11/9/2021 2:45:00 AM 6.75 44.15 0.041 6.6 1.66 11.61
11/9/2021 3:00:00 AM 6.72 44.096 0.041 6.59 1.68 11.63
11/9/2021 3:15:00 AM 6.7 44.06 0.041 6.59 1.7 11.63
11/9/2021 3:30:00 AM 6.66 43.988 0.041 6.59 1.66 11.64
11/9/2021 3:45:00 AM 6.64 43.952 0.041 6.62 1.7 11.65
11/9/2021 4:00:00 AM 6.61 43.898 0.041 6.6 1.71 11.66
11/9/2021 4:15:00 AM 6.58 43.844 0.041 6.6 1.73 11.67
11/9/2021 4:30:00 AM 6.56 43.808 0.041 6.59 1.64 11.66
11/9/2021 4:45:00 AM 6.53 43.754 0.041 6.61 1.64 11.68
11/9/2021 5:00:00 AM 6.51 43.718 0.041 6.6 1.65 11.69
11/9/2021 5:15:00 AM 6.49 43.682 0.041 6.58 1.67 11.69
11/9/2021 5:30:00 AM 6.47 43.646 0.041 6.59 1.66 11.7
11/9/2021 5:45:00 AM 6.44 43.592 0.041 6.6 1.69 11.72
11/9/2021 6:00:00 AM 6.43 43.574 0.041 6.61 1.68 11.72
11/9/2021 6:15:00 AM 6.41 43.538 0.041 6.59 1.72 11.72
11/9/2021 6:30:00 AM 6.39 43.502 0.041 6.6 1.69 11.73
11/9/2021 6:45:00 AM 6.37 43.466 0.041 6.59 1.66 11.74
11/9/2021 7:00:00 AM 6.36 43.448 0.041 6.62 1.69 11.77
11/9/2021 7:15:00 AM 6.35 43.43 0.041 6.61 1.64 11.8
11/9/2021 7:30:00 AM 6.33 43.394 0.041 6.62 1.65 11.86
11/9/2021 7:45:00 AM 6.33 43.394 0.041 6.62 1.6 11.9
11/9/2021 8:00:00 AM 6.33 43.394 0.041 6.65 1.68 11.95
11/9/2021 8:15:00 AM 6.34 43.412 0.041 6.64 1.62 11.99
11/9/2021 8:30:00 AM 6.36 43.448 0.041 6.66 1.63 12.02
11/9/2021 8:45:00 AM 6.38 43.484 0.041 6.66 1.62 12.06
11/9/2021 9:00:00 AM 6.41 43.538 0.041 6.68 1.67 12.08
11/9/2021 9:15:00 AM 6.46 43.628 0.041 6.69 1.61 12.09
11/9/2021 9:30:00 AM 6.52 43.736 0.041 6.72 1.61 12.1
11/9/2021 9:45:00 AM 6.6 43.88 0.041 6.72 1.67 12.11
11/9/2021 10:00:00 AM 6.7 44.06 0.041 6.72 1.59 12.1
11/9/2021 10:15:00 AM 6.82 44.276 0.041 6.74 1.63 12.08
11/9/2021 10:30:00 AM 6.96 44.528 0.041 6.76 1.62 12.06
11/9/2021 10:45:00 AM 7.12 44.816 0.041 6.76 1.64 12.04
11/9/2021 11:00:00 AM 7.3 45.14 0.041 6.79 1.66 12.02
11/9/2021 11:15:00 AM 7.48 45.464 0.041 6.78 1.61 11.98
11/9/2021 11:30:00 AM 7.67 45.806 0.041 6.8 1.64 11.94
11/9/2021 11:45:00 AM 7.85 46.13 0.041 6.81 1.66 11.89
11/9/2021 12:00:00 PM 8.02 46.436 0.041 6.83 1.65 11.87
11/9/2021 12:15:00 PM 8.18 46.724 0.041 6.83 1.7 11.83
11/9/2021 12:30:00 PM 8.29 46.922 0.041 6.81 1.81 11.77
11/9/2021 12:45:00 PM 8.37 47.066 0.041 6.8 1.78 11.76
11/9/2021 1:00:00 PM 8.49 47.282 0.041 6.82 1.77 11.74
11/9/2021 1:15:00 PM 8.61 47.498 0.041 6.82 1.72 11.71
11/9/2021 1:30:00 PM 8.67 47.606 0.041 6.82 1.76 11.7
11/9/2021 1:45:00 PM 8.72 47.696 0.04 6.82 1.75 11.68
11/9/2021 2:00:00 PM 8.76 47.768 0.041 6.81 1.8 11.65
11/9/2021 2:15:00 PM 8.74 47.732 0.041 6.79 1.79 11.62
11/9/2021 2:30:00 PM 8.77 47.786 0.041 6.8 1.78 11.62
11/9/2021 2:45:00 PM 8.81 47.858 0.04 6.8 1.79 11.6
11/9/2021 3:00:00 PM 8.9 48.02 0.04 6.81 1.77 11.58
11/9/2021 3:15:00 PM 8.94 48.092 0.041 6.82 1.71 11.55
11/9/2021 3:30:00 PM 8.98 48.164 0.041 6.81 1.84 11.5
11/9/2021 3:45:00 PM 8.97 48.146 0.041 6.78 1.87 11.43
11/9/2021 4:00:00 PM 8.96 48.128 0.041 6.76 1.8 11.38
11/9/2021 4:15:00 PM 8.95 48.11 0.041 6.74 1.72 11.31
11/9/2021 4:30:00 PM 8.95 48.11 0.041 6.72 1.6 11.24
11/9/2021 4:45:00 PM 8.94 48.092 0.041 6.7 1.65 11.18
11/9/2021 5:00:00 PM 8.92 48.056 0.041 6.68 1.6 11.11
11/9/2021 5:15:00 PM 8.91 48.038 0.041 6.69 1.66 11.06
11/9/2021 5:30:00 PM 8.89 48.002 0.041 6.66 1.67 11.03
11/9/2021 5:45:00 PM 8.89 48.002 0.041 6.65 1.59 11
11/9/2021 6:00:00 PM 8.88 47.984 0.041 6.64 1.65 10.99
11/9/2021 6:15:00 PM 8.88 47.984 0.042 6.64 1.66 10.98
11/9/2021 6:30:00 PM 8.87 47.966 0.041 6.66 1.67 10.98
11/9/2021 6:45:00 PM 8.88 47.984 0.042 6.63 1.68 10.97
11/9/2021 7:00:00 PM 8.89 48.002 0.042 6.65 1.67 10.97
11/9/2021 7:15:00 PM 8.89 48.002 0.042 6.62 1.7 10.97
11/9/2021 7:30:00 PM 8.9 48.02 0.042 6.62 1.65 10.96
11/9/2021 7:45:00 PM 8.91 48.038 0.042 6.62 1.72 10.95
11/9/2021 8:00:00 PM 8.92 48.056 0.042 6.62 1.66 10.94
11/9/2021 8:15:00 PM 8.92 48.056 0.042 6.62 1.65 10.94
11/9/2021 8:30:00 PM 8.91 48.038 0.042 6.61 1.6 10.95
11/9/2021 8:45:00 PM 8.91 48.038 0.042 6.62 1.66 10.94
11/9/2021 9:00:00 PM 8.9 48.02 0.042 6.61 1.65 10.95
11/9/2021 9:15:00 PM 8.9 48.02 0.042 6.61 1.66 10.94
11/9/2021 9:30:00 PM 8.9 48.02 0.042 6.61 1.74 10.95
11/9/2021 9:45:00 PM 8.9 48.02 0.042 6.61 1.66 10.94
11/9/2021 10:00:00 PM 8.91 48.038 0.042 6.62 1.97 10.94
11/9/2021 10:15:00 PM 8.9 48.02 0.042 6.62 1.69 10.94
11/9/2021 10:30:00 PM 8.9 48.02 0.042 6.61 1.65 10.94
11/9/2021 10:45:00 PM 8.88 47.984 0.042 6.64 1.67 10.94
11/9/2021 11:00:00 PM 8.88 47.984 0.042 6.62 1.62 10.94
11/9/2021 11:15:00 PM 8.88 47.984 0.042 6.62 1.68 10.93
11/9/2021 11:30:00 PM 8.87 47.966 0.042 6.61 1.68 10.94
11/9/2021 11:45:00 PM 8.87 47.966 0.042 6.62 1.68 10.94
11/10/2021 12:00:00 AM 8.86 47.948 0.042 6.62 1.65 10.94
11/10/2021 12:15:00 AM 8.85 47.93 0.042 6.61 1.62 10.94
11/10/2021 12:30:00 AM 8.85 47.93 0.042 6.61 1.63 10.94
11/10/2021 12:45:00 AM 8.84 47.912 0.042 6.63 1.67 10.95
11/10/2021 1:00:00 AM 8.84 47.912 0.042 6.61 1.64 10.94
11/10/2021 1:15:00 AM 8.83 47.894 0.042 6.63 1.71 10.95
11/10/2021 1:30:00 AM 8.82 47.876 0.042 6.62 1.66 10.95
11/10/2021 1:45:00 AM 8.81 47.858 0.042 6.61 1.72 10.94
11/10/2021 2:00:00 AM 8.79 47.822 0.042 6.61 1.67 10.95
11/10/2021 2:15:00 AM 8.77 47.786 0.042 6.61 1.67 10.95
11/10/2021 2:30:00 AM 8.74 47.732 0.042 6.6 1.68 10.95
11/10/2021 2:45:00 AM 8.73 47.714 0.042 6.6 1.66 10.96
11/10/2021 3:00:00 AM 8.72 47.696 0.042 6.61 1.67 10.96
11/10/2021 3:15:00 AM 8.7 47.66 0.042 6.61 1.63 10.96
11/10/2021 3:30:00 AM 8.68 47.624 0.042 6.63 1.66 10.97
11/10/2021 3:45:00 AM 8.66 47.588 0.042 6.61 1.6 10.97
11/10/2021 4:00:00 AM 8.64 47.552 0.042 6.63 1.67 10.98
11/10/2021 4:15:00 AM 8.62 47.516 0.042 6.61 1.65 10.99
11/10/2021 4:30:00 AM 8.6 47.48 0.042 6.61 1.68 10.99
11/10/2021 4:45:00 AM 8.58 47.444 0.042 6.62 1.67 11
11/10/2021 5:00:00 AM 8.56 47.408 0.042 6.63 1.69 11.01
11/10/2021 5:15:00 AM 8.53 47.354 0.042 6.62 1.62 11.01
11/10/2021 5:30:00 AM 8.5 47.3 0.042 6.61 1.66 11.03
11/10/2021 5:45:00 AM 8.49 47.282 0.042 6.61 1.64 11.03
11/10/2021 6:00:00 AM 8.49 47.282 0.042 6.62 1.65 11.04
11/10/2021 6:15:00 AM 8.5 47.3 0.042 6.63 1.66 11.05
11/10/2021 6:30:00 AM 8.51 47.318 0.042 6.65 1.69 11.05
11/10/2021 6:45:00 AM 8.52 47.336 0.042 6.64 1.65 11.06
11/10/2021 7:00:00 AM 8.53 47.354 0.042 6.64 1.61 11.06
11/10/2021 7:15:00 AM 8.55 47.39 0.042 6.65 1.69 11.07
11/10/2021 7:30:00 AM 8.56 47.408 0.042 6.66 1.62 11.11
11/10/2021 7:45:00 AM 8.58 47.444 0.042 6.66 1.73 11.12
11/10/2021 8:00:00 AM 8.59 47.462 0.042 6.66 1.64 11.11
11/10/2021 8:15:00 AM 8.61 47.498 0.042 6.67 1.6 11.11
11/10/2021 8:30:00 AM 8.63 47.534 0.042 6.67 1.65 11.13
11/10/2021 8:45:00 AM 8.65 47.57 0.042 6.69 1.62 11.18
11/10/2021 9:00:00 AM 8.68 47.624 0.042 6.7 1.6 11.24
11/10/2021 9:15:00 AM 8.7 47.66 0.042 6.71 1.64 11.25
11/10/2021 9:30:00 AM 8.74 47.732 0.042 6.74 1.59 11.33
11/10/2021 9:45:00 AM 8.79 47.822 0.042 6.77 1.64 11.41
11/10/2021 10:00:00 AM 8.87 47.966 0.042 6.77 1.68 11.48
11/10/2021 10:15:00 AM 8.95 48.11 0.041 6.8 1.61 11.53
11/10/2021 10:30:00 AM 9.05 48.29 0.041 6.84 1.56 11.55
11/10/2021 10:45:00 AM 9.13 48.434 0.041 6.82 1.61 11.54
11/10/2021 11:00:00 AM 9.21 48.578 0.041 6.84 1.57 11.53
11/10/2021 11:15:00 AM 9.28 48.704 0.041 6.84 1.58 11.53
11/10/2021 11:30:00 AM 9.37 48.866 0.041 6.84 1.56 11.51
11/10/2021 11:45:00 AM 9.48 49.064 0.041 6.85 1.63 11.48
11/10/2021 12:00:00 PM 9.61 49.298 0.041 6.86 1.57 11.45
11/10/2021 12:15:00 PM 9.75 49.55 0.041 6.87 1.54 11.41
11/10/2021 12:30:00 PM 9.88 49.784 0.041 6.87 1.56 11.38
11/10/2021 12:45:00 PM 9.96 49.928 0.041 6.87 1.61 11.36
11/10/2021 1:00:00 PM 10.03 50.054 0.041 6.86 1.54 11.33
11/10/2021 1:15:00 PM 10.06 50.108 0.041 6.85 1.62 11.32
11/10/2021 1:30:00 PM 10.06 50.108 0.041 6.84 1.6 11.31
11/10/2021 1:45:00 PM 10.03 50.054 0.041 6.84 1.58 11.31
11/10/2021 2:00:00 PM 10.01 50.018 0.041 6.85 1.57 11.29
11/10/2021 2:15:00 PM 9.96 49.928 0.041 6.83 1.59 11.29
11/10/2021 2:30:00 PM 9.91 49.838 0.041 6.8 1.58 11.27
11/10/2021 2:45:00 PM 9.85 49.73 0.041 6.79 1.61 11.27
11/10/2021 3:00:00 PM 9.79 49.622 0.041 6.78 1.61 11.26
11/10/2021 3:15:00 PM 9.73 49.514 0.041 6.78 1.61 11.25
11/10/2021 3:30:00 PM 9.67 49.406 0.041 6.78 1.57 11.23
11/10/2021 3:45:00 PM 9.6 49.28 0.041 6.75 1.57 11.2
11/10/2021 4:00:00 PM 9.54 49.172 0.041 6.74 1.56 11.15
11/10/2021 4:15:00 PM 9.48 49.064 0.042 6.72 1.62 11.12
11/10/2021 4:30:00 PM 9.42 48.956 0.042 6.72 1.61 11.08
11/10/2021 4:45:00 PM 9.37 48.866 0.042 6.7 1.6 11.03
11/10/2021 5:00:00 PM 9.33 48.794 0.042 6.68 1.7 10.97
11/10/2021 5:15:00 PM 9.28 48.704 0.042 6.68 1.62 10.95
11/10/2021 5:30:00 PM 9.23 48.614 0.042 6.67 1.61 10.92
11/10/2021 5:45:00 PM 9.19 48.542 0.042 6.66 1.64 10.92
11/10/2021 6:00:00 PM 9.14 48.452 0.042 6.65 1.64 10.91
11/10/2021 6:15:00 PM 9.1 48.38 0.042 6.65 1.62 10.91
11/10/2021 6:30:00 PM 9.05 48.29 0.042 6.65 1.66 10.91
11/10/2021 6:45:00 PM 8.99 48.182 0.042 6.66 1.69 10.93
11/10/2021 7:00:00 PM 8.94 48.092 0.042 6.64 1.67 10.94
11/10/2021 7:15:00 PM 8.88 47.984 0.042 6.65 1.7 10.95
11/10/2021 7:30:00 PM 8.83 47.894 0.042 6.64 1.71 10.97
11/10/2021 7:45:00 PM 8.78 47.804 0.043 6.63 1.68 10.99
11/10/2021 8:00:00 PM 8.73 47.714 0.043 6.64 1.64 11
11/10/2021 8:15:00 PM 8.68 47.624 0.043 6.63 1.68 11.02
11/10/2021 8:30:00 PM 8.63 47.534 0.043 6.63 1.65 11.03
11/10/2021 8:45:00 PM 8.57 47.426 0.043 6.64 1.66 11.06
11/10/2021 9:00:00 PM 8.53 47.354 0.043 6.64 1.66 11.07
11/10/2021 9:15:00 PM 8.47 47.246 0.043 6.63 1.68 11.08
11/10/2021 9:30:00 PM 8.4 47.12 0.043 6.63 1.61 11.1
11/10/2021 9:45:00 PM 8.35 47.03 0.043 6.63 1.65 11.12
11/10/2021 10:00:00 PM 8.29 46.922 0.043 6.63 1.63 11.14
11/10/2021 10:15:00 PM 8.23 46.814 0.043 6.63 1.64 11.17
11/10/2021 10:30:00 PM 8.17 46.706 0.043 6.65 1.72 11.19
11/10/2021 10:45:00 PM 8.11 46.598 0.043 6.63 1.67 11.19
11/10/2021 11:00:00 PM 8.05 46.49 0.043 6.63 1.65 11.22
11/10/2021 11:15:00 PM 7.99 46.382 0.043 6.63 1.72 11.24
11/10/2021 11:30:00 PM 7.94 46.292 0.043 6.66 1.68 11.26
11/10/2021 11:45:00 PM 7.88 46.184 0.043 6.63 1.65 11.27
11/11/2021 12:00:00 AM 7.82 46.076 0.043 6.63 1.93 11.29
11/11/2021 12:15:00 AM 7.76 45.968 0.043 6.63 1.7 11.31
11/11/2021 12:30:00 AM 7.7 45.86 0.043 6.64 1.67 11.33
11/11/2021 12:45:00 AM 7.64 45.752 0.043 6.63 1.73 11.35
11/11/2021 1:00:00 AM 7.58 45.644 0.043 6.64 1.66 11.36
11/11/2021 1:15:00 AM 7.53 45.554 0.043 6.63 1.63 11.37
11/11/2021 1:30:00 AM 7.47 45.446 0.043 6.63 1.69 11.39
11/11/2021 1:45:00 AM 7.42 45.356 0.043 6.63 1.67 11.41
11/11/2021 2:00:00 AM 7.37 45.266 0.043 6.63 1.67 11.43
11/11/2021 2:15:00 AM 7.31 45.158 0.043 6.63 1.66 11.45
11/11/2021 2:30:00 AM 7.26 45.068 0.043 6.63 1.69 11.46
11/11/2021 2:45:00 AM 7.2 44.96 0.043 6.63 1.68 11.48
11/11/2021 3:00:00 AM 7.16 44.888 0.043 6.64 1.64 11.49
11/11/2021 3:15:00 AM 7.12 44.816 0.043 6.64 1.67 11.51
11/11/2021 3:30:00 AM 7.09 44.762 0.043 6.66 1.65 11.52
11/11/2021 3:45:00 AM 7.06 44.708 0.043 6.65 1.7 11.54
11/11/2021 4:00:00 AM 7.03 44.654 0.043 6.65 1.65 11.54
11/11/2021 4:15:00 AM 6.99 44.582 0.043 6.65 1.64 11.56
11/11/2021 4:30:00 AM 6.95 44.51 0.043 6.67 1.64 11.57
11/11/2021 4:45:00 AM 6.92 44.456 0.043 6.65 1.66 11.58
11/11/2021 5:00:00 AM 6.91 44.438 0.043 6.65 1.64 11.59
11/11/2021 5:15:00 AM 6.88 44.384 0.043 6.65 1.69 11.6
11/11/2021 5:30:00 AM 6.84 44.312 0.043 6.65 1.63 11.6
11/11/2021 5:45:00 AM 6.81 44.258 0.043 6.65 1.67 11.61
11/11/2021 6:00:00 AM 6.77 44.186 0.043 6.65 1.65 11.62
11/11/2021 6:15:00 AM 6.73 44.114 0.043 6.65 1.67 11.64
11/11/2021 6:30:00 AM 6.72 44.096 0.043 6.68 1.91 11.64
11/11/2021 6:45:00 AM 6.68 44.024 0.043 6.65 1.67 11.65
11/11/2021 7:00:00 AM 6.66 43.988 0.043 6.66 1.62 11.68
11/11/2021 7:15:00 AM 6.63 43.934 0.043 6.66 1.64 11.72
11/11/2021 7:30:00 AM 6.6 43.88 0.043 6.67 1.65 11.78
11/11/2021 7:45:00 AM 6.59 43.862 0.043 6.68 1.67 11.84
11/11/2021 8:00:00 AM 6.58 43.844 0.043 6.69 1.57 11.92
11/11/2021 8:15:00 AM 6.58 43.844 0.042 6.74 1.59 11.99
11/11/2021 8:30:00 AM 6.58 43.844 0.042 6.73 1.61 12.05
11/11/2021 8:45:00 AM 6.6 43.88 0.042 6.74 1.67 12.1
11/11/2021 9:00:00 AM 6.62 43.916 0.042 6.75 1.58 12.15
11/11/2021 9:15:00 AM 6.66 43.988 0.042 6.8 1.62 12.17
11/11/2021 9:30:00 AM 6.68 44.024 0.042 6.78 1.56 12.18
11/11/2021 9:45:00 AM 6.72 44.096 0.042 6.79 1.61 12.19
11/11/2021 10:00:00 AM 6.8 44.24 0.042 6.8 1.63 12.21
11/11/2021 10:15:00 AM 6.87 44.366 0.042 6.82 1.57 12.22
11/11/2021 10:30:00 AM 6.98 44.564 0.042 6.82 1.61 12.2
11/11/2021 10:45:00 AM 7.09 44.762 0.042 6.84 1.59 12.19
11/11/2021 11:00:00 AM 7.2 44.96 0.042 6.85 1.58 12.18
11/11/2021 11:15:00 AM 7.29 45.122 0.042 6.86 1.54 12.15
11/11/2021 11:30:00 AM 7.38 45.284 0.042 6.86 1.56 12.13
11/11/2021 11:45:00 AM 7.5 45.5 0.042 6.87 1.64 12.12
11/11/2021 12:00:00 PM 7.63 45.734 0.042 6.9 1.6 12.09
11/11/2021 12:15:00 PM 7.77 45.986 0.042 6.9 1.58 12.05
11/11/2021 12:30:00 PM 7.89 46.202 0.042 6.9 1.55 12.02
11/11/2021 12:45:00 PM 7.96 46.328 0.042 6.89 1.61 11.99
11/11/2021 1:00:00 PM 8.01 46.418 0.042 6.89 1.59 11.96
11/11/2021 1:15:00 PM 8.06 46.508 0.041 6.88 1.55 11.97
11/11/2021 1:30:00 PM 8.11 46.598 0.042 6.88 1.6 11.93
11/11/2021 1:45:00 PM 8.14 46.652 0.042 6.87 1.62 11.91
11/11/2021 2:00:00 PM 8.18 46.724 0.042 6.88 1.59 11.88
11/11/2021 2:15:00 PM 8.2 46.76 0.042 6.88 1.6 11.85
11/11/2021 2:30:00 PM 8.24 46.832 0.042 6.87 1.85 11.84
11/11/2021 2:45:00 PM 8.27 46.886 0.042 6.86 1.59 11.81
11/11/2021 3:00:00 PM 8.3 46.94 0.042 6.85 1.53 11.75
11/11/2021 3:15:00 PM 8.35 47.03 0.042 6.85 1.59 11.76
11/11/2021 3:30:00 PM 8.35 47.03 0.042 6.84 1.6 11.7
11/11/2021 3:45:00 PM 8.37 47.066 0.042 6.82 1.57 11.63
11/11/2021 4:00:00 PM 8.39 47.102 0.042 6.81 1.59 11.56
11/11/2021 4:15:00 PM 8.4 47.12 0.042 6.79 1.57 11.49
11/11/2021 4:30:00 PM 8.4 47.12 0.042 6.77 1.6 11.41
11/11/2021 4:45:00 PM 8.39 47.102 0.042 6.75 1.65 11.34
11/11/2021 5:00:00 PM 8.38 47.084 0.042 6.73 1.66 11.27
11/11/2021 5:15:00 PM 8.38 47.084 0.043 6.74 1.62 11.22
11/11/2021 5:30:00 PM 8.37 47.066 0.043 6.71 1.65 11.18
11/11/2021 5:45:00 PM 8.36 47.048 0.043 6.7 1.63 11.16
11/11/2021 6:00:00 PM 8.35 47.03 0.043 6.69 1.64 11.15
11/11/2021 6:15:00 PM 8.35 47.03 0.043 6.68 1.65 11.13
11/11/2021 6:30:00 PM 8.35 47.03 0.043 6.68 1.66 11.12
11/11/2021 6:45:00 PM 8.35 47.03 0.043 6.68 1.61 11.13
11/11/2021 7:00:00 PM 8.36 47.048 0.043 6.68 1.63 11.11
11/11/2021 7:15:00 PM 8.37 47.066 0.043 6.69 1.59 11.11
11/11/2021 7:30:00 PM 8.39 47.102 0.043 6.68 1.58 11.1
11/11/2021 7:45:00 PM 8.41 47.138 0.043 6.68 1.55 11.09
11/11/2021 8:00:00 PM 8.43 47.174 0.043 6.69 1.62 11.09
11/11/2021 8:15:00 PM 8.46 47.228 0.043 6.68 1.61 11.08
11/11/2021 8:30:00 PM 8.48 47.264 0.043 6.68 1.63 11.07
11/11/2021 8:45:00 PM 8.51 47.318 0.043 6.69 1.6 11.06
11/11/2021 9:00:00 PM 8.54 47.372 0.043 6.69 1.6 11.05
11/11/2021 9:15:00 PM 8.56 47.408 0.043 6.69 1.62 11.04
11/11/2021 9:30:00 PM 8.59 47.462 0.043 6.69 1.63 11.04
11/11/2021 9:45:00 PM 8.6 47.48 0.043 6.69 1.59 11.03
11/11/2021 10:00:00 PM 8.63 47.534 0.044 6.7 1.65 11.02
11/11/2021 10:15:00 PM 8.65 47.57 0.043 6.69 1.62 11.02
11/11/2021 10:30:00 PM 8.69 47.642 0.044 6.73 1.62 11
11/11/2021 10:45:00 PM 8.73 47.714 0.044 6.69 1.63 10.99
11/11/2021 11:00:00 PM 8.77 47.786 0.044 6.7 1.64 10.98
11/11/2021 11:15:00 PM 8.8 47.84 0.044 6.7 1.7 10.97
11/11/2021 11:30:00 PM 8.82 47.876 0.044 6.7 1.61 10.96
11/11/2021 11:45:00 PM 8.86 47.948 0.044 6.7 1.59 10.95
11/12/2021 12:00:00 AM 8.89 48.002 0.044 6.7 1.6 10.94
11/12/2021 12:15:00 AM 8.93 48.074 0.044 6.7 1.58 10.93
11/12/2021 12:30:00 AM 8.96 48.128 0.044 6.7 1.6 10.91
11/12/2021 12:45:00 AM 8.99 48.182 0.044 6.69 1.61 10.9
11/12/2021 1:00:00 AM 9.01 48.218 0.044 6.72 1.59 10.89
11/12/2021 1:15:00 AM 9.04 48.272 0.044 6.69 1.63 10.88
11/12/2021 1:30:00 AM 9.07 48.326 0.044 6.69 1.61 10.87
11/12/2021 1:45:00 AM 9.09 48.362 0.044 6.69 1.56 10.86
11/12/2021 2:00:00 AM 9.12 48.416 0.044 6.73 1.6 10.85
11/12/2021 2:15:00 AM 9.15 48.47 0.044 6.7 1.61 10.84
11/12/2021 2:30:00 AM 9.19 48.542 0.044 6.7 1.62 10.82
11/12/2021 2:45:00 AM 9.22 48.596 0.044 6.69 1.59 10.81
11/12/2021 3:00:00 AM 9.26 48.668 0.044 6.69 1.66 10.79
11/12/2021 3:15:00 AM 9.3 48.74 0.044 6.73 1.59 10.78
11/12/2021 3:30:00 AM 9.34 48.812 0.044 6.71 1.63 10.78
11/12/2021 3:45:00 AM 9.4 48.92 0.044 6.7 1.62 10.76
11/12/2021 4:00:00 AM 9.43 48.974 0.044 6.72 1.62 10.74
11/12/2021 4:15:00 AM 9.47 49.046 0.044 6.69 1.62 10.72
11/12/2021 4:30:00 AM 9.51 49.118 0.044 6.69 1.67 10.71
11/12/2021 4:45:00 AM 9.54 49.172 0.044 6.69 1.64 10.7
11/12/2021 5:00:00 AM 9.6 49.28 0.044 6.69 1.74 10.68
11/12/2021 5:15:00 AM 9.66 49.388 0.044 6.69 1.74 10.67
11/12/2021 5:30:00 AM 9.71 49.478 0.043 6.7 1.78 10.64
11/12/2021 5:45:00 AM 9.75 49.55 0.043 6.7 1.81 10.64
11/12/2021 6:00:00 AM 9.81 49.658 0.043 6.72 1.89 10.63
11/12/2021 6:15:00 AM 9.87 49.766 0.043 6.71 1.99 10.62
11/12/2021 6:30:00 AM 9.93 49.874 0.043 6.72 2.27 10.6
11/12/2021 6:45:00 AM 10.07 50.126 0.044 6.75 4.13 10.6
11/12/2021 7:00:00 AM 10.16 50.288 0.047 6.8 15.63 10.58
11/12/2021 7:15:00 AM 10.25 50.45 0.055 6.91 35.1 10.59
11/12/2021 7:30:00 AM 10.47 50.846 0.06 6.92 63.16 10.57
11/12/2021 7:45:00 AM 10.58 51.044 0.062 6.95 126.05 10.61
11/12/2021 8:00:00 AM 10.66 51.188 0.057 6.9 175.96 10.61
11/12/2021 8:15:00 AM 10.68 51.224 0.051 6.82 136.28 10.61
11/12/2021 8:30:00 AM 10.62 51.116 0.047 6.8 99.94 10.64
11/12/2021 8:45:00 AM 10.52 50.936 0.043 6.71 90.24 10.68
11/12/2021 9:00:00 AM 10.46 50.828 0.04 6.63 59 10.7
11/12/2021 9:15:00 AM 10.43 50.774 0.038 6.61 75.05 10.73
11/12/2021 9:30:00 AM 10.42 50.756 0.036 6.62 86.08 10.74
11/12/2021 9:45:00 AM 10.43 50.774 0.035 6.56 76.42 10.75
11/12/2021 10:00:00 AM 10.42 50.756 0.034 6.57 91.24 10.75
11/12/2021 10:15:00 AM 10.42 50.756 0.034 6.51 63.46 10.76
11/12/2021 10:30:00 AM 10.42 50.756 0.033 6.5 57.89 10.76
11/12/2021 10:45:00 AM 10.43 50.774 0.032 6.48 53.03 10.76
11/12/2021 11:00:00 AM 10.46 50.828 0.032 6.48 54.1 10.76
11/12/2021 11:15:00 AM 10.49 50.882 0.032 6.44 68.23 10.76
11/12/2021 11:30:00 AM 10.53 50.954 0.032 6.45 41.68 10.76
11/12/2021 11:45:00 AM 10.57 51.026 0.031 6.45 38 10.76
11/12/2021 12:00:00 PM 10.58 51.044 0.031 6.44 32.83 10.76
11/12/2021 12:15:00 PM 10.61 51.098 0.031 6.44 30.52 10.76
11/12/2021 12:30:00 PM 10.62 51.116 0.031 6.48 28.35 10.76
11/12/2021 12:45:00 PM 10.64 51.152 0.031 6.51 27.03 10.77
11/12/2021 1:00:00 PM 10.62 51.116 0.031 6.51 26.11 10.76
11/12/2021 1:15:00 PM 10.61 51.098 0.031 6.54 24.94 10.75
11/12/2021 1:30:00 PM 10.59 51.062 0.032 6.53 24.14 10.75
11/12/2021 1:45:00 PM 10.55 50.99 0.032 6.53 22.59 10.76
11/12/2021 2:00:00 PM 10.56 51.008 0.032 6.53 23.55 10.75
11/12/2021 2:15:00 PM 10.57 51.026 0.033 6.55 22.66 10.74
11/12/2021 2:30:00 PM 10.55 50.99 0.033 6.54 16.53 10.74
11/12/2021 2:45:00 PM 10.54 50.972 0.033 6.52 79.15 10.73
11/12/2021 3:00:00 PM 10.53 50.954 0.033 6.5 20.98 10.73
11/12/2021 3:15:00 PM 10.52 50.936 0.033 6.56 328.1 10.72
11/12/2021 3:30:00 PM 10.5 50.9 0.033 6.5 16.03 10.71
11/12/2021 3:45:00 PM 10.47 50.846 0.033 6.49 42.3 10.72
11/12/2021 4:00:00 PM 10.44 50.792 0.033 6.44 17.81 10.72
11/12/2021 4:15:00 PM 10.4 50.72 0.033 6.48 17 10.73
11/12/2021 4:30:00 PM 10.36 50.648 0.033 6.48 16.1 10.74
11/12/2021 4:45:00 PM 10.31 50.558 0.033 6.45 15.3 10.74
11/12/2021 5:00:00 PM 10.26 50.468 0.032 6.45 15.4 10.75
11/12/2021 5:15:00 PM 10.2 50.36 0.032 6.46 14.53 10.77
11/12/2021 5:30:00 PM 10.13 50.234 0.032 6.44 14.54 10.79
11/12/2021 5:45:00 PM 10.06 50.108 0.032 6.42 13.65 10.8
11/12/2021 6:00:00 PM 9.99 49.982 0.032 6.4 14.23 10.82
11/12/2021 6:15:00 PM 9.92 49.856 0.031 6.39 13.53 10.84
11/12/2021 6:30:00 PM 9.85 49.73 0.031 6.4 13.23 10.86
11/12/2021 6:45:00 PM 9.79 49.622 0.031 6.4 13.07 10.88
11/12/2021 7:00:00 PM 9.72 49.496 0.031 6.38 12.33 10.89
11/12/2021 7:15:00 PM 9.66 49.388 0.031 6.4 12.28 10.91
11/12/2021 7:30:00 PM 9.6 49.28 0.031 6.37 11.8 10.93
11/12/2021 7:45:00 PM 9.53 49.154 0.03 6.37 11.29 10.95
11/12/2021 8:00:00 PM 9.47 49.046 0.03 6.37 11.43 10.96
11/12/2021 8:15:00 PM 9.41 48.938 0.03 6.34 11.58 10.98
11/12/2021 8:30:00 PM 9.35 48.83 0.03 6.37 10.43 10.99
11/12/2021 8:45:00 PM 9.29 48.722 0.03 6.39 10.02 11.01
11/12/2021 9:00:00 PM 9.24 48.632 0.03 6.38 10.06 11.03
11/12/2021 9:15:00 PM 9.18 48.524 0.03 6.39 10.16 11.04
11/12/2021 9:30:00 PM 9.12 48.416 0.03 6.38 9.7 11.05
11/12/2021 9:45:00 PM 9.07 48.326 0.03 6.37 9.84 11.06
11/12/2021 10:00:00 PM 9.01 48.218 0.03 6.36 9.06 11.08
11/12/2021 10:15:00 PM 8.95 48.11 0.03 6.4 9.38 11.09
11/12/2021 10:30:00 PM 8.9 48.02 0.03 6.38 9.11 11.11
11/12/2021 10:45:00 PM 8.84 47.912 0.03 6.37 8.86 11.12
11/12/2021 11:00:00 PM 8.78 47.804 0.03 6.37 7.99 11.14
11/12/2021 11:15:00 PM 8.73 47.714 0.03 6.37 8.61 11.15
11/12/2021 11:30:00 PM 8.67 47.606 0.03 6.38 8.05 11.16
11/12/2021 11:45:00 PM 8.61 47.498 0.029 6.39 7.45 11.18
11/13/2021 12:00:00 AM 8.56 47.408 0.029 6.38 7.68 11.19
11/13/2021 12:15:00 AM 8.5 47.3 0.029 6.37 7.57 11.2
11/13/2021 12:30:00 AM 8.45 47.21 0.029 6.38 7.34 11.22
11/13/2021 12:45:00 AM 8.4 47.12 0.029 6.39 7.27 11.23
11/13/2021 1:00:00 AM 8.36 47.048 0.029 6.38 7.13 11.24
11/13/2021 1:15:00 AM 8.31 46.958 0.029 6.38 6.88 11.26
11/13/2021 1:30:00 AM 8.27 46.886 0.029 6.39 7.23 11.27
11/13/2021 1:45:00 AM 8.24 46.832 0.029 6.39 6.25 11.28
11/13/2021 2:00:00 AM 8.2 46.76 0.029 6.4 7 11.29
11/13/2021 2:15:00 AM 8.17 46.706 0.029 6.39 6.71 11.29
11/13/2021 2:30:00 AM 8.15 46.67 0.029 6.4 6.48 11.29
11/13/2021 2:45:00 AM 8.12 46.616 0.029 6.4 6.25 11.31
11/13/2021 3:00:00 AM 8.1 46.58 0.029 6.41 6.19 11.31
11/13/2021 3:15:00 AM 8.08 46.544 0.029 6.4 5.87 11.3
11/13/2021 3:30:00 AM 8.05 46.49 0.029 6.4 6.06 11.31
11/13/2021 3:45:00 AM 8.03 46.454 0.029 6.41 6.07 11.31
11/13/2021 4:00:00 AM 8.01 46.418 0.03 6.39 6.17 11.32
11/13/2021 4:15:00 AM 7.98 46.364 0.029 6.4 5.9 11.32
11/13/2021 4:30:00 AM 7.96 46.328 0.029 6.4 5.65 11.32
11/13/2021 4:45:00 AM 7.94 46.292 0.03 6.4 5.86 11.33
11/13/2021 5:00:00 AM 7.91 46.238 0.03 6.4 5.61 11.34
11/13/2021 5:15:00 AM 7.9 46.22 0.03 6.4 5.43 11.34
11/13/2021 5:30:00 AM 7.89 46.202 0.03 6.41 5.24 11.35
11/13/2021 5:45:00 AM 7.88 46.184 0.03 6.42 5.24 11.35
11/13/2021 6:00:00 AM 7.87 46.166 0.03 6.41 5.12 11.36
11/13/2021 6:15:00 AM 7.87 46.166 0.03 6.42 5.28 11.36
11/13/2021 6:30:00 AM 7.86 46.148 0.03 6.42 5.21 11.36
11/13/2021 6:45:00 AM 7.86 46.148 0.03 6.45 5.05 11.35
11/13/2021 7:00:00 AM 7.86 46.148 0.03 6.43 4.97 11.35
11/13/2021 7:15:00 AM 7.86 46.148 0.03 6.42 4.83 11.36
11/13/2021 7:30:00 AM 7.86 46.148 0.03 6.42 4.59 11.37
11/13/2021 7:45:00 AM 7.87 46.166 0.03 6.42 4.72 11.38
11/13/2021 8:00:00 AM 7.88 46.184 0.03 6.42 4.67 11.37
11/13/2021 8:15:00 AM 7.9 46.22 0.03 6.46 4.69 11.38
11/13/2021 8:30:00 AM 7.92 46.256 0.03 6.46 4.49 11.39
11/13/2021 8:45:00 AM 7.94 46.292 0.03 6.44 4.55 11.4
11/13/2021 9:00:00 AM 7.97 46.346 0.03 6.47 4.41 11.42
11/13/2021 9:15:00 AM 8 46.4 0.03 6.48 4.3 11.42
11/13/2021 9:30:00 AM 8.04 46.472 0.03 6.47 4.43 11.4
11/13/2021 9:45:00 AM 8.08 46.544 0.03 6.5 4.7 11.42
11/13/2021 10:00:00 AM 8.12 46.616 0.03 6.5 4.32 11.41
11/13/2021 10:15:00 AM 8.17 46.706 0.03 6.49 4.25 11.41
11/13/2021 10:30:00 AM 8.2 46.76 0.03 6.5 4.21 11.39
11/13/2021 10:45:00 AM 8.24 46.832 0.03 6.53 4.33 11.39
11/13/2021 11:00:00 AM 8.27 46.886 0.03 6.52 4.17 11.35
11/13/2021 11:15:00 AM 8.28 46.904 0.03 6.5 4.3 11.32
11/13/2021 11:30:00 AM 8.31 46.958 0.03 6.5 4.09 11.3
11/13/2021 11:45:00 AM 8.32 46.976 0.03 6.48 4.03 11.29
11/13/2021 12:00:00 PM 8.33 46.994 0.03 6.5 3.86 11.29
11/13/2021 12:15:00 PM 8.34 47.012 0.03 6.51 4.16 11.29
11/13/2021 12:30:00 PM 8.36 47.048 0.03 6.53 3.78 11.28
11/13/2021 12:45:00 PM 8.36 47.048 0.03 6.5 4.15 11.27
11/13/2021 1:00:00 PM 8.35 47.03 0.03 6.54 3.91 11.27
11/13/2021 1:15:00 PM 8.36 47.048 0.03 6.51 3.95 11.28
11/13/2021 1:30:00 PM 8.36 47.048 0.03 6.51 3.73 11.3
11/13/2021 1:45:00 PM 8.36 47.048 0.03 6.51 3.98 11.32
11/13/2021 2:00:00 PM 8.34 47.012 0.03 6.52 3.81 11.31
11/13/2021 2:15:00 PM 8.32 46.976 0.031 6.52 3.9 11.31
11/13/2021 2:30:00 PM 8.32 46.976 0.031 6.52 4.01 11.32
11/13/2021 2:45:00 PM 8.35 47.03 0.031 6.55 3.81 11.37
11/13/2021 3:00:00 PM 8.33 46.994 0.031 6.54 3.97 11.35
11/13/2021 3:15:00 PM 8.31 46.958 0.031 6.55 4.09 11.34
11/13/2021 3:30:00 PM 8.3 46.94 0.031 6.52 3.97 11.31
11/13/2021 3:45:00 PM 8.27 46.886 0.031 6.53 3.89 11.32
11/13/2021 4:00:00 PM 8.23 46.814 0.031 6.51 4.07 11.33
11/13/2021 4:15:00 PM 8.18 46.724 0.031 6.49 3.86 11.3
11/13/2021 4:30:00 PM 8.14 46.652 0.031 6.51 3.93 11.3
11/13/2021 4:45:00 PM 8.09 46.562 0.031 6.49 3.87 11.29
11/13/2021 5:00:00 PM 8.04 46.472 0.031 6.51 3.94 11.29
11/13/2021 5:15:00 PM 8 46.4 0.031 6.47 3.7 11.29
11/13/2021 5:30:00 PM 7.95 46.31 0.031 6.48 3.78 11.29
11/13/2021 5:45:00 PM 7.91 46.238 0.031 6.47 3.94 11.32
11/13/2021 6:00:00 PM 7.87 46.166 0.031 6.46 3.74 11.32
11/13/2021 6:15:00 PM 7.82 46.076 0.031 6.47 3.83 11.34
11/13/2021 6:30:00 PM 7.78 46.004 0.031 6.47 3.81 11.35
11/13/2021 6:45:00 PM 7.73 45.914 0.031 6.45 3.78 11.36
11/13/2021 7:00:00 PM 7.69 45.842 0.031 6.49 3.7 11.38
11/13/2021 7:15:00 PM 7.63 45.734 0.031 6.46 3.82 11.4
11/13/2021 7:30:00 PM 7.58 45.644 0.031 6.46 3.54 11.42
11/13/2021 7:45:00 PM 7.53 45.554 0.031 6.47 3.86 11.43
11/13/2021 8:00:00 PM 7.48 45.464 0.031 6.45 3.77 11.45
11/13/2021 8:15:00 PM 7.43 45.374 0.031 6.44 3.67 11.47
11/13/2021 8:30:00 PM 7.38 45.284 0.031 6.46 3.57 11.48
11/13/2021 8:45:00 PM 7.33 45.194 0.031 6.48 3.66 11.5
11/13/2021 9:00:00 PM 7.29 45.122 0.031 6.46 3.61 11.51
11/13/2021 9:15:00 PM 7.25 45.05 0.031 6.46 3.68 11.53
11/13/2021 9:30:00 PM 7.21 44.978 0.031 6.45 3.42 11.54
11/13/2021 9:45:00 PM 7.18 44.924 0.031 6.45 3.86 11.55
11/13/2021 10:00:00 PM 7.15 44.87 0.031 6.45 3.41 11.56
11/13/2021 10:15:00 PM 7.11 44.798 0.031 6.45 3.57 11.57
11/13/2021 10:30:00 PM 7.08 44.744 0.031 6.47 3.53 11.58
11/13/2021 10:45:00 PM 7.04 44.672 0.031 6.45 3.46 11.59
11/13/2021 11:00:00 PM 7.01 44.618 0.031 6.45 3.47 11.6
11/13/2021 11:15:00 PM 6.98 44.564 0.031 6.45 3.54 11.61
11/13/2021 11:30:00 PM 6.95 44.51 0.031 6.48 3.47 11.62
11/13/2021 11:45:00 PM 6.92 44.456 0.031 6.47 3.53 11.64
11/14/2021 12:00:00 AM 6.88 44.384 0.031 6.47 3.53 11.65
11/14/2021 12:15:00 AM 6.86 44.348 0.032 6.47 3.39 11.65
11/14/2021 12:30:00 AM 6.83 44.294 0.032 6.49 3.37 11.67
11/14/2021 12:45:00 AM 6.81 44.258 0.032 6.47 3.28 11.67
11/14/2021 1:00:00 AM 6.79 44.222 0.031 6.49 3.18 11.67
11/14/2021 1:15:00 AM 6.78 44.204 0.032 6.48 3.29 11.68
11/14/2021 1:30:00 AM 6.77 44.186 0.032 6.46 3.29 11.69
11/14/2021 1:45:00 AM 6.77 44.186 0.032 6.47 3.29 11.69
11/14/2021 2:00:00 AM 6.77 44.186 0.032 6.48 3.17 11.69
11/14/2021 2:15:00 AM 6.77 44.186 0.032 6.47 3.22 11.7
11/14/2021 2:30:00 AM 6.77 44.186 0.032 6.49 3.39 11.69
11/14/2021 2:45:00 AM 6.78 44.204 0.032 6.49 3.36 11.7
11/14/2021 3:00:00 AM 6.79 44.222 0.032 6.49 3.22 11.69
11/14/2021 3:15:00 AM 6.79 44.222 0.032 6.49 3.16 11.68
11/14/2021 3:30:00 AM 6.79 44.222 0.032 6.48 3.14 11.69
11/14/2021 3:45:00 AM 6.8 44.24 0.032 6.51 3.16 11.68
11/14/2021 4:00:00 AM 6.79 44.222 0.032 6.49 3.21 11.68
11/14/2021 4:15:00 AM 6.79 44.222 0.032 6.49 3.06 11.68
11/14/2021 4:30:00 AM 6.79 44.222 0.032 6.49 3.15 11.69
11/14/2021 4:45:00 AM 6.79 44.222 0.032 6.49 3.13 11.68
11/14/2021 5:00:00 AM 6.79 44.222 0.032 6.49 3.31 11.68
11/14/2021 5:15:00 AM 6.78 44.204 0.032 6.49 3.06 11.68
11/14/2021 5:30:00 AM 6.78 44.204 0.032 6.49 3.19 11.69
11/14/2021 5:45:00 AM 6.76 44.168 0.032 6.48 2.97 11.69
11/14/2021 6:00:00 AM 6.74 44.132 0.032 6.48 3.38 11.69
11/14/2021 6:15:00 AM 6.72 44.096 0.032 6.49 3 11.7
11/14/2021 6:30:00 AM 6.71 44.078 0.032 6.52 3.05 11.7
11/14/2021 6:45:00 AM 6.69 44.042 0.032 6.49 3.16 11.71
11/14/2021 7:00:00 AM 6.68 44.024 0.032 6.51 2.98 11.72
11/14/2021 7:15:00 AM 6.67 44.006 0.032 6.5 2.88 11.74
11/14/2021 7:30:00 AM 6.67 44.006 0.032 6.49 3.07 11.76
11/14/2021 7:45:00 AM 6.67 44.006 0.032 6.52 3.06 11.79
11/14/2021 8:00:00 AM 6.68 44.024 0.032 6.53 2.88 11.84
11/14/2021 8:15:00 AM 6.7 44.06 0.032 6.55 2.79 11.88
11/14/2021 8:30:00 AM 6.72 44.096 0.032 6.55 2.84 11.91
11/14/2021 8:45:00 AM 6.73 44.114 0.032 6.56 2.89 11.9
11/14/2021 9:00:00 AM 6.75 44.15 0.032 6.55 3.03 11.89
11/14/2021 9:15:00 AM 6.77 44.186 0.032 6.56 2.79 11.88
11/14/2021 9:30:00 AM 6.79 44.222 0.032 6.57 2.87 11.88
11/14/2021 9:45:00 AM 6.83 44.294 0.032 6.57 2.79 11.87
11/14/2021 10:00:00 AM 6.89 44.402 0.032 6.58 2.81 11.87
11/14/2021 10:15:00 AM 6.98 44.564 0.032 6.59 2.82 11.89
11/14/2021 10:30:00 AM 7.06 44.708 0.032 6.62 2.92 11.89
11/14/2021 10:45:00 AM 7.12 44.816 0.032 6.62 2.78 11.88
11/14/2021 11:00:00 AM 7.15 44.87 0.032 6.61 2.72 11.88
11/14/2021 11:15:00 AM 7.18 44.924 0.032 6.61 2.72 11.87
11/14/2021 11:30:00 AM 7.25 45.05 0.032 6.63 2.76 11.86
11/14/2021 11:45:00 AM 7.27 45.086 0.032 6.61 2.73 11.85
11/14/2021 12:00:00 PM 7.31 45.158 0.032 6.62 2.71 11.83
11/14/2021 12:15:00 PM 7.43 45.374 0.032 6.63 2.66 11.81
11/14/2021 12:30:00 PM 7.48 45.464 0.032 6.63 2.76 11.79
11/14/2021 12:45:00 PM 7.49 45.482 0.032 6.65 2.66 11.77
11/14/2021 1:00:00 PM 7.5 45.5 0.032 6.62 2.63 11.76
11/14/2021 1:15:00 PM 7.51 45.518 0.032 6.62 2.73 11.73
11/14/2021 1:30:00 PM 7.51 45.518 0.032 6.6 2.69 11.69
11/14/2021 1:45:00 PM 7.5 45.5 0.032 6.62 2.67 11.67
11/14/2021 2:00:00 PM 7.5 45.5 0.032 6.59 2.69 11.66
11/14/2021 2:15:00 PM 7.52 45.536 0.032 6.6 2.69 11.65
11/14/2021 2:30:00 PM 7.54 45.572 0.032 6.61 2.64 11.64
11/14/2021 2:45:00 PM 7.55 45.59 0.032 6.6 2.61 11.62
11/14/2021 3:00:00 PM 7.55 45.59 0.032 6.63 2.69 11.6
11/14/2021 3:15:00 PM 7.56 45.608 0.032 6.59 2.56 11.59
11/14/2021 3:30:00 PM 7.57 45.626 0.032 6.59 2.62 11.56
11/14/2021 3:45:00 PM 7.57 45.626 0.032 6.57 2.72 11.52
11/14/2021 4:00:00 PM 7.55 45.59 0.032 6.55 2.68 11.51
11/14/2021 4:15:00 PM 7.54 45.572 0.033 6.56 2.61 11.49
11/14/2021 4:30:00 PM 7.53 45.554 0.033 6.55 2.64 11.46
11/14/2021 4:45:00 PM 7.52 45.536 0.033 6.55 2.67 11.45
11/14/2021 5:00:00 PM 7.5 45.5 0.033 6.53 2.61 11.44
11/14/2021 5:15:00 PM 7.49 45.482 0.033 6.54 2.69 11.43
11/14/2021 5:30:00 PM 7.48 45.464 0.033 6.53 2.65 11.42
11/14/2021 5:45:00 PM 7.46 45.428 0.033 6.53 2.72 11.42
11/14/2021 6:00:00 PM 7.44 45.392 0.033 6.53 2.84 11.43
11/14/2021 6:15:00 PM 7.43 45.374 0.033 6.53 2.78 11.43
11/14/2021 6:30:00 PM 7.41 45.338 0.033 6.53 2.81 11.44
11/14/2021 6:45:00 PM 7.4 45.32 0.033 6.52 2.71 11.44
11/14/2021 7:00:00 PM 7.39 45.302 0.033 6.55 2.8 11.44
11/14/2021 7:15:00 PM 7.37 45.266 0.033 6.53 2.81 11.45
11/14/2021 7:30:00 PM 7.35 45.23 0.033 6.52 2.77 11.45
11/14/2021 7:45:00 PM 7.34 45.212 0.033 6.52 2.74 11.46
11/14/2021 8:00:00 PM 7.31 45.158 0.033 6.52 2.75 11.46
11/14/2021 8:15:00 PM 7.28 45.104 0.033 6.52 2.71 11.47
11/14/2021 8:30:00 PM 7.25 45.05 0.033 6.53 2.58 11.48
11/14/2021 8:45:00 PM 7.23 45.014 0.033 6.52 2.6 11.48
11/14/2021 9:00:00 PM 7.2 44.96 0.033 6.51 2.74 11.49
11/14/2021 9:15:00 PM 7.18 44.924 0.033 6.5 2.68 11.49
11/14/2021 9:30:00 PM 7.16 44.888 0.033 6.52 2.73 11.5
11/14/2021 9:45:00 PM 7.14 44.852 0.033 6.52 2.65 11.5
11/14/2021 10:00:00 PM 7.12 44.816 0.033 6.53 2.72 11.52
11/14/2021 10:15:00 PM 7.09 44.762 0.033 6.52 2.63 11.52
11/14/2021 10:30:00 PM 7.07 44.726 0.033 6.53 2.78 11.52
11/14/2021 10:45:00 PM 7.05 44.69 0.033 6.51 2.71 11.54
11/14/2021 11:00:00 PM 7.04 44.672 0.033 6.55 2.69 11.54
11/14/2021 11:15:00 PM 7.02 44.636 0.033 6.54 2.65 11.55
11/14/2021 11:30:00 PM 7.01 44.618 0.033 6.53 2.64 11.55
11/14/2021 11:45:00 PM 7 44.6 0.033 6.54 2.62 11.55
11/15/2021 12:00:00 AM 6.99 44.582 0.033 6.53 2.71 11.55
11/15/2021 12:15:00 AM 6.98 44.564 0.033 6.53 2.66 11.56
11/15/2021 12:30:00 AM 6.97 44.546 0.033 6.53 2.81 11.56
11/15/2021 12:45:00 AM 6.96 44.528 0.034 6.52 2.73 11.56
11/15/2021 1:00:00 AM 6.95 44.51 0.034 6.53 2.59 11.57
11/15/2021 1:15:00 AM 6.94 44.492 0.034 6.53 2.69 11.57
11/15/2021 1:30:00 AM 6.93 44.474 0.034 6.56 2.78 11.57
11/15/2021 1:45:00 AM 6.91 44.438 0.034 6.54 2.68 11.57
11/15/2021 2:00:00 AM 6.9 44.42 0.034 6.54 2.61 11.58
11/15/2021 2:15:00 AM 6.88 44.384 0.034 6.54 2.68 11.58
11/15/2021 2:30:00 AM 6.86 44.348 0.034 6.55 2.64 11.58
11/15/2021 2:45:00 AM 6.85 44.33 0.034 6.53 2.57 11.59
11/15/2021 3:00:00 AM 6.84 44.312 0.034 6.54 2.52 11.59
11/15/2021 3:15:00 AM 6.82 44.276 0.034 6.53 2.54 11.6
11/15/2021 3:30:00 AM 6.8 44.24 0.034 6.52 2.56 11.59
11/15/2021 3:45:00 AM 6.79 44.222 0.034 6.53 2.64 11.6
11/15/2021 4:00:00 AM 6.77 44.186 0.034 6.53 2.58 11.6
11/15/2021 4:15:00 AM 6.75 44.15 0.034 6.52 2.61 11.6
11/15/2021 4:30:00 AM 6.74 44.132 0.034 6.56 2.49 11.61
11/15/2021 4:45:00 AM 6.72 44.096 0.034 6.54 2.5 11.62
11/15/2021 5:00:00 AM 6.71 44.078 0.034 6.53 2.48 11.62
11/15/2021 5:15:00 AM 6.69 44.042 0.034 6.55 2.46 11.62
11/15/2021 5:30:00 AM 6.67 44.006 0.034 6.54 2.42 11.63
11/15/2021 5:45:00 AM 6.64 43.952 0.034 6.52 2.5 11.63
11/15/2021 6:00:00 AM 6.61 43.898 0.034 6.52 2.45 11.65
11/15/2021 6:15:00 AM 6.57 43.826 0.034 6.55 2.55 11.66
11/15/2021 6:30:00 AM 6.55 43.79 0.034 6.53 2.44 11.67
11/15/2021 6:45:00 AM 6.54 43.772 0.034 6.53 2.49 11.67
11/15/2021 7:00:00 AM 6.53 43.754 0.034 6.57 2.52 11.68
11/15/2021 7:15:00 AM 6.52 43.736 0.034 6.54 2.48 11.69
11/15/2021 7:30:00 AM 6.52 43.736 0.034 6.57 2.45 11.72
11/15/2021 7:45:00 AM 6.52 43.736 0.034 6.55 2.37 11.75
11/15/2021 8:00:00 AM 6.53 43.754 0.034 6.55 2.55 11.78
11/15/2021 8:15:00 AM 6.53 43.754 0.034 6.56 2.31 11.81
11/15/2021 8:30:00 AM 6.54 43.772 0.034 6.6 2.47 11.85
11/15/2021 8:45:00 AM 6.56 43.808 0.034 6.61 2.38 11.9
11/15/2021 9:00:00 AM